SIA22 WSSS-KEWR
Flight info
| Callsign | SIA22 |
|---|---|
| Flight time | 17h 21m |
| Altitude | 32000 |
| Route | TOMAN3A TOMAN L625 AKMON/K0930F350 L625 ANOKI/N0502F350 L625 AKOTA/N0499F360 L625 MEVIN/N0499F350 B462 KAZIK Y59 AMMEK/N0492F370 Y59 AZAMA Y57 PUTER A590 PUGAL/N0493F390 A590 HAMND/N0487F410 DCT TED J511 GKN J124 ORT DCT 63N140W 63N130W 62N120W 59N110W 5530N10000W DCT MISAX DCT SSM DCT BUF DCT HNK FLOSI4 |
| Aircraft | A359/H-SDE1E2E3GHIJ1J2J3J5M1P2RWXYZ/LB1D1 |
Departure
| Time | 2026-04-22 20:57 |
|---|---|
| Airport | Singapore Changi Airport (WSSS) |
Arrival
| Time | 2026-04-23 14:18 |
|---|---|
| Airport | Newark Liberty International Airport (KEWR) |
| Time | Latitude | Longitude | Altitude | Speed | Heading |
|---|---|---|---|---|---|
| 2026-04-22 20:22 | 1.35029 | 103.98203 | 37 ft | 0 kts | 152° |
| 2026-04-22 20:39 | 1.35037 | 103.98199 | 36 ft | 4 kts | 151° |
| 2026-04-22 20:39 | 1.35060 | 103.98185 | 34 ft | 4 kts | 145° |
| 2026-04-22 20:39 | 1.35082 | 103.98170 | 34 ft | 4 kts | 146° |
| 2026-04-22 20:40 | 1.35105 | 103.98156 | 34 ft | 4 kts | 155° |
| 2026-04-22 20:40 | 1.35130 | 103.98147 | 34 ft | 4 kts | 172° |
| 2026-04-22 20:40 | 1.35157 | 103.98147 | 36 ft | 4 kts | 198° |
| 2026-04-22 20:40 | 1.35164 | 103.98150 | 35 ft | 5 kts | 203° |
| 2026-04-22 20:46 | 1.35163 | 103.98149 | 35 ft | 1 kts | 202° |
| 2026-04-22 20:46 | 1.35118 | 103.98132 | 33 ft | 14 kts | 201° |
| 2026-04-22 20:47 | 1.35001 | 103.98083 | 37 ft | 14 kts | 202° |
| 2026-04-22 20:47 | 1.34909 | 103.98044 | 37 ft | 14 kts | 203° |
| 2026-04-22 20:47 | 1.34819 | 103.98024 | 37 ft | 12 kts | 161° |
| 2026-04-22 20:47 | 1.34768 | 103.98082 | 37 ft | 12 kts | 109° |
| 2026-04-22 20:48 | 1.34731 | 103.98166 | 37 ft | 13 kts | 114° |
| 2026-04-22 20:48 | 1.34697 | 103.98250 | 42 ft | 13 kts | 112° |
| 2026-04-22 20:48 | 1.34663 | 103.98329 | 50 ft | 12 kts | 113° |
| 2026-04-22 20:48 | 1.34622 | 103.98425 | 51 ft | 16 kts | 113° |
| 2026-04-22 20:49 | 1.34571 | 103.98543 | 41 ft | 23 kts | 113° |
| 2026-04-22 20:49 | 1.34505 | 103.98698 | 36 ft | 24 kts | 113° |
| 2026-04-22 20:49 | 1.34447 | 103.98833 | 36 ft | 16 kts | 113° |
| 2026-04-22 20:49 | 1.34391 | 103.98918 | 36 ft | 13 kts | 157° |
| 2026-04-22 20:50 | 1.34305 | 103.98905 | 36 ft | 13 kts | 203° |
| 2026-04-22 20:50 | 1.34225 | 103.98871 | 36 ft | 13 kts | 203° |
| 2026-04-22 20:50 | 1.34144 | 103.98836 | 36 ft | 13 kts | 203° |
| 2026-04-22 20:50 | 1.34062 | 103.98801 | 36 ft | 13 kts | 203° |
| 2026-04-22 20:51 | 1.33978 | 103.98765 | 36 ft | 13 kts | 203° |
| 2026-04-22 20:51 | 1.33894 | 103.98729 | 35 ft | 13 kts | 202° |
| 2026-04-22 20:51 | 1.33808 | 103.98693 | 36 ft | 13 kts | 203° |
| 2026-04-22 20:51 | 1.33721 | 103.98656 | 36 ft | 14 kts | 203° |
| 2026-04-22 20:52 | 1.33634 | 103.98619 | 36 ft | 14 kts | 203° |
| 2026-04-22 20:52 | 1.33545 | 103.98582 | 36 ft | 14 kts | 203° |
| 2026-04-22 20:52 | 1.33456 | 103.98545 | 36 ft | 14 kts | 203° |
| 2026-04-22 20:52 | 1.33366 | 103.98507 | 36 ft | 13 kts | 203° |
| 2026-04-22 20:53 | 1.33286 | 103.98476 | 36 ft | 12 kts | 202° |
| 2026-04-22 20:53 | 1.33214 | 103.98445 | 36 ft | 11 kts | 203° |
| 2026-04-22 20:53 | 1.33142 | 103.98414 | 36 ft | 11 kts | 203° |
| 2026-04-22 20:53 | 1.33069 | 103.98383 | 36 ft | 12 kts | 203° |
| 2026-04-22 20:54 | 1.32995 | 103.98351 | 36 ft | 12 kts | 203° |
| 2026-04-22 20:54 | 1.32919 | 103.98319 | 36 ft | 12 kts | 200° |
| 2026-04-22 20:54 | 1.32845 | 103.98325 | 36 ft | 11 kts | 135° |
| 2026-04-22 20:54 | 1.32841 | 103.98390 | 36 ft | 10 kts | 60° |
| 2026-04-22 20:55 | 1.32864 | 103.98458 | 36 ft | 11 kts | 65° |
| 2026-04-22 20:55 | 1.32915 | 103.98515 | 36 ft | 10 kts | 19° |
| 2026-04-22 20:55 | 1.32925 | 103.98518 | 36 ft | 0 kts | 19° |
| 2026-04-22 20:55 | 1.32982 | 103.98539 | 36 ft | 32 kts | 21° |
| 2026-04-22 20:56 | 1.33372 | 103.98704 | 37 ft | 88 kts | 25° |
| 2026-04-22 20:56 | 1.34091 | 103.99010 | 37 ft | 137 kts | 23° |
| 2026-04-22 20:56 | 1.35100 | 103.99438 | 39 ft | 179 kts | 24° |
| 2026-04-22 20:56 | 1.36299 | 103.99954 | 400 ft | 191 kts | 24° |
| 2026-04-22 20:57 | 1.37498 | 104.00454 | 1147 ft | 182 kts | 25° |
| 2026-04-22 20:57 | 1.38710 | 104.00963 | 1535 ft | 196 kts | 24° |
| 2026-04-22 20:57 | 1.40002 | 104.01509 | 1663 ft | 211 kts | 25° |
| 2026-04-22 20:57 | 1.41409 | 104.02104 | 1770 ft | 229 kts | 24° |
| 2026-04-22 20:58 | 1.42929 | 104.02747 | 1937 ft | 244 kts | 24° |
| 2026-04-22 20:58 | 1.44541 | 104.03428 | 2185 ft | 256 kts | 24° |
| 2026-04-22 20:58 | 1.46169 | 104.04199 | 2586 ft | 261 kts | 33° |
| 2026-04-22 20:58 | 1.47445 | 104.05440 | 3000 ft | 262 kts | 60° |
| 2026-04-22 20:59 | 1.47995 | 104.07157 | 3356 ft | 265 kts | 88° |
| 2026-04-22 20:59 | 1.47656 | 104.08957 | 3770 ft | 266 kts | 112° |
| 2026-04-22 20:59 | 1.46896 | 104.10649 | 4232 ft | 268 kts | 116° |
| 2026-04-22 20:59 | 1.46083 | 104.12332 | 4680 ft | 271 kts | 117° |
| 2026-04-22 21:00 | 1.45539 | 104.13465 | 4949 ft | 273 kts | 117° |
| 2026-04-22 21:00 | 1.44444 | 104.15775 | 5511 ft | 277 kts | 116° |
| 2026-04-22 21:00 | 1.43900 | 104.16932 | 5799 ft | 278 kts | 116° |
| 2026-04-22 21:00 | 1.43079 | 104.18694 | 6221 ft | 281 kts | 116° |
| 2026-04-22 21:01 | 1.42255 | 104.20473 | 6634 ft | 283 kts | 116° |
| 2026-04-22 21:01 | 1.41149 | 104.22855 | 7198 ft | 285 kts | 116° |
| 2026-04-22 21:01 | 1.40587 | 104.24069 | 7516 ft | 285 kts | 116° |
| 2026-04-22 21:01 | 1.39750 | 104.25877 | 7949 ft | 287 kts | 116° |
| 2026-04-22 21:02 | 1.38917 | 104.27675 | 8360 ft | 290 kts | 116° |
| 2026-04-22 21:02 | 1.38066 | 104.29515 | 8786 ft | 291 kts | 116° |
| 2026-04-22 21:02 | 1.37211 | 104.31363 | 9213 ft | 294 kts | 116° |
| 2026-04-22 21:02 | 1.36348 | 104.33227 | 9663 ft | 296 kts | 116° |
| 2026-04-22 21:03 | 1.35489 | 104.35083 | 10058 ft | 298 kts | 115° |
| 2026-04-22 21:03 | 1.34605 | 104.36994 | 10255 ft | 307 kts | 116° |
| 2026-04-22 21:03 | 1.33698 | 104.38983 | 10439 ft | 319 kts | 114° |
| 2026-04-22 21:03 | 1.33089 | 104.41162 | 10561 ft | 332 kts | 97° |
| 2026-04-22 21:04 | 1.33020 | 104.43474 | 10731 ft | 342 kts | 89° |
| 2026-04-22 21:04 | 1.33088 | 104.45888 | 10890 ft | 352 kts | 88° |
| 2026-04-22 21:04 | 1.33165 | 104.48376 | 11043 ft | 362 kts | 89° |
| 2026-04-22 21:04 | 1.33237 | 104.50928 | 11199 ft | 372 kts | 89° |
| 2026-04-22 21:05 | 1.33306 | 104.53542 | 11365 ft | 380 kts | 89° |
| 2026-04-22 21:05 | 1.33374 | 104.56222 | 11499 ft | 389 kts | 89° |
| 2026-04-22 21:05 | 1.33440 | 104.58914 | 11711 ft | 395 kts | 89° |
| 2026-04-22 21:05 | 1.33507 | 104.61677 | 12008 ft | 398 kts | 89° |
| 2026-04-22 21:06 | 1.33574 | 104.64456 | 12305 ft | 401 kts | 89° |
| 2026-04-22 21:06 | 1.33642 | 104.67253 | 12648 ft | 402 kts | 89° |
| 2026-04-22 21:06 | 1.33709 | 104.70068 | 12956 ft | 405 kts | 89° |
| 2026-04-22 21:06 | 1.33777 | 104.72889 | 13260 ft | 407 kts | 89° |
| 2026-04-22 21:07 | 1.33844 | 104.75697 | 13603 ft | 409 kts | 89° |
| 2026-04-22 21:07 | 1.33912 | 104.78557 | 13859 ft | 411 kts | 89° |
| 2026-04-22 21:07 | 1.33981 | 104.81424 | 14167 ft | 412 kts | 89° |
| 2026-04-22 21:07 | 1.34049 | 104.84285 | 14475 ft | 413 kts | 89° |
| 2026-04-22 21:08 | 1.34117 | 104.87144 | 14749 ft | 415 kts | 89° |
| 2026-04-22 21:08 | 1.34186 | 104.90032 | 15060 ft | 415 kts | 89° |
| 2026-04-22 21:08 | 1.34255 | 104.92928 | 15352 ft | 417 kts | 89° |
| 2026-04-22 21:08 | 1.34325 | 104.95827 | 15684 ft | 417 kts | 89° |
| 2026-04-22 21:09 | 1.34395 | 104.98728 | 15979 ft | 418 kts | 89° |
| 2026-04-22 21:09 | 1.34464 | 105.01604 | 16267 ft | 419 kts | 89° |
| 2026-04-22 21:09 | 1.34534 | 105.04533 | 16532 ft | 421 kts | 89° |
| 2026-04-22 21:09 | 1.34605 | 105.07474 | 16819 ft | 423 kts | 89° |
| 2026-04-22 21:10 | 1.34676 | 105.10415 | 17104 ft | 424 kts | 89° |
| 2026-04-22 21:10 | 1.34747 | 105.13375 | 17360 ft | 426 kts | 89° |
| 2026-04-22 21:10 | 1.34817 | 105.16299 | 17657 ft | 426 kts | 89° |
| 2026-04-22 21:10 | 1.34888 | 105.19272 | 17911 ft | 428 kts | 88° |
| 2026-04-22 21:11 | 1.34959 | 105.22263 | 18155 ft | 430 kts | 88° |
| 2026-04-22 21:11 | 1.35031 | 105.25258 | 18400 ft | 431 kts | 88° |
| 2026-04-22 21:11 | 1.35102 | 105.28226 | 18578 ft | 433 kts | 89° |
| 2026-04-22 21:11 | 1.35174 | 105.31239 | 18798 ft | 434 kts | 89° |
| 2026-04-22 21:12 | 1.35246 | 105.34275 | 18984 ft | 437 kts | 89° |
| 2026-04-22 21:12 | 1.35319 | 105.37317 | 19196 ft | 438 kts | 89° |
| 2026-04-22 21:12 | 1.35391 | 105.40333 | 19440 ft | 438 kts | 89° |
| 2026-04-22 21:12 | 1.35464 | 105.43389 | 19625 ft | 440 kts | 89° |
| 2026-04-22 21:13 | 1.35537 | 105.46460 | 19852 ft | 441 kts | 89° |
| 2026-04-22 21:13 | 1.35610 | 105.49524 | 20050 ft | 443 kts | 89° |
| 2026-04-22 21:13 | 1.35683 | 105.52607 | 20239 ft | 444 kts | 89° |
| 2026-04-22 21:13 | 1.35757 | 105.55699 | 20460 ft | 445 kts | 89° |
| 2026-04-22 21:14 | 1.35831 | 105.58808 | 20654 ft | 447 kts | 89° |
| 2026-04-22 21:14 | 1.35905 | 105.61924 | 20858 ft | 448 kts | 89° |
| 2026-04-22 21:14 | 1.35979 | 105.65042 | 21060 ft | 449 kts | 89° |
| 2026-04-22 21:14 | 1.36080 | 105.68135 | 21258 ft | 450 kts | 86° |
| 2026-04-22 21:15 | 1.36488 | 105.71241 | 21458 ft | 452 kts | 78° |
| 2026-04-22 21:15 | 1.37395 | 105.74253 | 21626 ft | 454 kts | 68° |
| 2026-04-22 21:15 | 1.38808 | 105.77077 | 21815 ft | 455 kts | 58° |
| 2026-04-22 21:15 | 1.40684 | 105.79629 | 21986 ft | 457 kts | 49° |
| 2026-04-22 21:16 | 1.42986 | 105.81841 | 22178 ft | 459 kts | 39° |
| 2026-04-22 21:16 | 1.45593 | 105.83622 | 22354 ft | 461 kts | 31° |
| 2026-04-22 21:16 | 1.48393 | 105.85199 | 22537 ft | 462 kts | 28° |
| 2026-04-22 21:16 | 1.51250 | 105.86689 | 22717 ft | 464 kts | 27° |
| 2026-04-22 21:17 | 1.54148 | 105.88151 | 22884 ft | 465 kts | 27° |
| 2026-04-22 21:17 | 1.57053 | 105.89609 | 23064 ft | 467 kts | 27° |
| 2026-04-22 21:17 | 1.59957 | 105.91075 | 23250 ft | 468 kts | 27° |
| 2026-04-22 21:17 | 1.62829 | 105.92538 | 23410 ft | 469 kts | 28° |
| 2026-04-22 21:18 | 1.65731 | 105.94029 | 23549 ft | 470 kts | 28° |
| 2026-04-22 21:18 | 1.68651 | 105.95537 | 23691 ft | 471 kts | 28° |
| 2026-04-22 21:18 | 1.71577 | 105.97051 | 23832 ft | 473 kts | 28° |
| 2026-04-22 21:18 | 1.74508 | 105.98570 | 23969 ft | 474 kts | 28° |
| 2026-04-22 21:19 | 1.77444 | 106.00092 | 24102 ft | 475 kts | 28° |
| 2026-04-22 21:19 | 1.80346 | 106.01596 | 24227 ft | 476 kts | 28° |
| 2026-04-22 21:19 | 1.83298 | 106.03126 | 24376 ft | 477 kts | 28° |
| 2026-04-22 21:19 | 1.86250 | 106.04654 | 24513 ft | 478 kts | 28° |
| 2026-04-22 21:20 | 1.89208 | 106.06187 | 24668 ft | 479 kts | 28° |
| 2026-04-22 21:20 | 1.92180 | 106.07727 | 24791 ft | 480 kts | 28° |
| 2026-04-22 21:20 | 1.95117 | 106.09252 | 24921 ft | 481 kts | 28° |
| 2026-04-22 21:20 | 1.98096 | 106.10794 | 25053 ft | 482 kts | 28° |
| 2026-04-22 21:21 | 2.01095 | 106.12342 | 25169 ft | 483 kts | 28° |
| 2026-04-22 21:21 | 2.04089 | 106.13888 | 25316 ft | 484 kts | 28° |
| 2026-04-22 21:21 | 2.07091 | 106.15439 | 25447 ft | 485 kts | 28° |
| 2026-04-22 21:21 | 2.10095 | 106.16991 | 25577 ft | 487 kts | 28° |
| 2026-04-22 21:22 | 2.13106 | 106.18548 | 25709 ft | 488 kts | 28° |
| 2026-04-22 21:22 | 2.16127 | 106.20111 | 25841 ft | 489 kts | 28° |
| 2026-04-22 21:22 | 2.19151 | 106.21675 | 25974 ft | 490 kts | 28° |
| 2026-04-22 21:22 | 2.22158 | 106.23232 | 26100 ft | 491 kts | 28° |
| 2026-04-22 21:23 | 2.25203 | 106.24807 | 26227 ft | 493 kts | 28° |
| 2026-04-22 21:23 | 2.28259 | 106.26389 | 26359 ft | 494 kts | 28° |
| 2026-04-22 21:23 | 2.31283 | 106.27953 | 26501 ft | 495 kts | 28° |
| 2026-04-22 21:23 | 2.34354 | 106.29543 | 26633 ft | 496 kts | 28° |
| 2026-04-22 21:24 | 2.37430 | 106.31134 | 26772 ft | 497 kts | 28° |
| 2026-04-22 21:24 | 2.40515 | 106.32731 | 26929 ft | 498 kts | 28° |
| 2026-04-22 21:24 | 2.43597 | 106.34326 | 27045 ft | 499 kts | 28° |
| 2026-04-22 21:24 | 2.46650 | 106.35906 | 27184 ft | 500 kts | 28° |
| 2026-04-22 21:25 | 2.49748 | 106.37510 | 27305 ft | 502 kts | 28° |
| 2026-04-22 21:25 | 2.52854 | 106.39118 | 27436 ft | 503 kts | 28° |
| 2026-04-22 21:25 | 2.55968 | 106.40731 | 27562 ft | 504 kts | 28° |
| 2026-04-22 21:25 | 2.59091 | 106.42351 | 27692 ft | 505 kts | 28° |
| 2026-04-22 21:26 | 2.62229 | 106.43977 | 27793 ft | 507 kts | 28° |
| 2026-04-22 21:26 | 2.65323 | 106.45579 | 27924 ft | 507 kts | 28° |
| 2026-04-22 21:26 | 2.68470 | 106.47208 | 28049 ft | 509 kts | 28° |
| 2026-04-22 21:26 | 2.71630 | 106.48844 | 28165 ft | 509 kts | 28° |
| 2026-04-22 21:27 | 2.74747 | 106.50458 | 28280 ft | 511 kts | 28° |
| 2026-04-22 21:27 | 2.77902 | 106.52098 | 28405 ft | 511 kts | 28° |
| 2026-04-22 21:27 | 2.84245 | 106.55382 | 28609 ft | 513 kts | 28° |
| 2026-04-22 21:28 | 2.87437 | 106.57038 | 28710 ft | 514 kts | 28° |
| 2026-04-22 21:28 | 2.90617 | 106.58684 | 28809 ft | 515 kts | 28° |
| 2026-04-22 21:28 | 2.96969 | 106.61965 | 28974 ft | 517 kts | 28° |
| 2026-04-22 21:29 | 3.03393 | 106.65286 | 29148 ft | 519 kts | 28° |
| 2026-04-22 21:29 | 3.09838 | 106.68621 | 29327 ft | 521 kts | 28° |
| 2026-04-22 21:30 | 3.13059 | 106.70289 | 29435 ft | 521 kts | 28° |
| 2026-04-22 21:30 | 3.16233 | 106.71932 | 29592 ft | 520 kts | 28° |
| 2026-04-22 21:30 | 3.19458 | 106.73602 | 29762 ft | 519 kts | 28° |
| 2026-04-22 21:30 | 3.22667 | 106.75264 | 29865 ft | 519 kts | 28° |
| 2026-04-22 21:31 | 3.25883 | 106.76929 | 29974 ft | 519 kts | 28° |
| 2026-04-22 21:31 | 3.29100 | 106.78596 | 30078 ft | 519 kts | 28° |
| 2026-04-22 21:31 | 3.35496 | 106.81909 | 30258 ft | 520 kts | 28° |
| 2026-04-22 21:32 | 3.38718 | 106.83578 | 30376 ft | 520 kts | 28° |
| 2026-04-22 21:32 | 3.41931 | 106.85243 | 30503 ft | 519 kts | 28° |
| 2026-04-22 21:32 | 3.45144 | 106.86908 | 30616 ft | 519 kts | 28° |
| 2026-04-22 21:32 | 3.48359 | 106.88573 | 30747 ft | 519 kts | 28° |
| 2026-04-22 21:33 | 3.51523 | 106.90213 | 30857 ft | 519 kts | 28° |
| 2026-04-22 21:33 | 3.54729 | 106.91896 | 30976 ft | 518 kts | 30° |
| 2026-04-22 21:33 | 3.57774 | 106.93818 | 31093 ft | 517 kts | 34° |
| 2026-04-22 21:33 | 3.60759 | 106.95850 | 31220 ft | 517 kts | 35° |
| 2026-04-22 21:34 | 3.63714 | 106.97911 | 31343 ft | 517 kts | 36° |
| 2026-04-22 21:34 | 3.66654 | 106.99988 | 31475 ft | 516 kts | 36° |
| 2026-04-22 21:34 | 3.72484 | 107.04127 | 31713 ft | 516 kts | 36° |
| 2026-04-22 21:35 | 3.75428 | 107.06215 | 31815 ft | 517 kts | 36° |
| 2026-04-22 21:35 | 3.78379 | 107.08305 | 31836 ft | 520 kts | 36° |
| 2026-04-22 21:35 | 3.84280 | 107.12477 | 31840 ft | 521 kts | 36° |
| 2026-04-22 21:36 | 3.90226 | 107.16676 | 31841 ft | 521 kts | 36° |
| 2026-04-22 21:36 | 3.96126 | 107.20845 | 31841 ft | 521 kts | 36° |
| 2026-04-22 21:37 | 4.02067 | 107.25043 | 31840 ft | 521 kts | 36° |
| 2026-04-22 21:37 | 4.07996 | 107.29234 | 31840 ft | 521 kts | 36° |
| 2026-04-22 21:38 | 4.13884 | 107.33397 | 31841 ft | 521 kts | 36° |
| 2026-04-22 21:38 | 4.19828 | 107.37600 | 31840 ft | 521 kts | 36° |
| 2026-04-22 21:39 | 4.25729 | 107.41774 | 31839 ft | 521 kts | 36° |
| 2026-04-22 21:39 | 4.31656 | 107.45966 | 31840 ft | 520 kts | 36° |
| 2026-04-22 21:40 | 4.37558 | 107.50142 | 31843 ft | 520 kts | 36° |
| 2026-04-22 21:40 | 4.43486 | 107.54337 | 31842 ft | 521 kts | 36° |
| 2026-04-22 21:41 | 4.49416 | 107.58534 | 31843 ft | 521 kts | 36° |
| 2026-04-22 21:41 | 4.55336 | 107.62726 | 31843 ft | 521 kts | 36° |
| 2026-04-22 21:42 | 4.61234 | 107.66902 | 31842 ft | 521 kts | 36° |
| 2026-04-22 21:42 | 4.67160 | 107.71099 | 31842 ft | 521 kts | 36° |
| 2026-04-22 21:43 | 4.73059 | 107.75278 | 31842 ft | 521 kts | 36° |
| 2026-04-22 21:43 | 4.79001 | 107.79488 | 31842 ft | 521 kts | 36° |
| 2026-04-22 21:44 | 4.84897 | 107.83667 | 31843 ft | 522 kts | 36° |
| 2026-04-22 21:44 | 4.90819 | 107.87864 | 31843 ft | 522 kts | 36° |
| 2026-04-22 21:45 | 4.96750 | 107.92070 | 31842 ft | 522 kts | 36° |
| 2026-04-22 21:45 | 5.02699 | 107.96281 | 31843 ft | 522 kts | 36° |
| 2026-04-22 21:46 | 5.08615 | 108.00429 | 31844 ft | 522 kts | 36° |
| 2026-04-22 21:46 | 5.14587 | 108.04615 | 31842 ft | 522 kts | 36° |
| 2026-04-22 21:47 | 5.20550 | 108.08801 | 31843 ft | 522 kts | 36° |
| 2026-04-22 21:47 | 5.25511 | 108.12287 | 31846 ft | 522 kts | 36° |
| 2026-04-22 21:48 | 5.31459 | 108.16470 | 31848 ft | 522 kts | 36° |
| 2026-04-22 21:48 | 5.37389 | 108.20640 | 31848 ft | 522 kts | 36° |
| 2026-04-22 21:49 | 5.43353 | 108.24835 | 31849 ft | 522 kts | 36° |
| 2026-04-22 21:49 | 5.49319 | 108.29032 | 31844 ft | 522 kts | 36° |
| 2026-04-22 21:50 | 5.55227 | 108.33189 | 31849 ft | 522 kts | 36° |
| 2026-04-22 21:50 | 5.61180 | 108.37380 | 31851 ft | 522 kts | 36° |
| 2026-04-22 21:51 | 5.67151 | 108.41584 | 31851 ft | 522 kts | 36° |
| 2026-04-22 21:52 | 5.76040 | 108.47844 | 31850 ft | 521 kts | 36° |
| 2026-04-22 21:52 | 5.81989 | 108.52036 | 31854 ft | 521 kts | 36° |
| 2026-04-22 21:53 | 5.87898 | 108.56200 | 31850 ft | 521 kts | 36° |
| 2026-04-22 21:53 | 5.93839 | 108.60388 | 31852 ft | 521 kts | 36° |
| 2026-04-22 21:54 | 5.99795 | 108.64588 | 31848 ft | 521 kts | 36° |
| 2026-04-22 21:54 | 6.05712 | 108.68760 | 31854 ft | 521 kts | 36° |
| 2026-04-22 21:55 | 6.11651 | 108.72950 | 31849 ft | 521 kts | 36° |
| 2026-04-22 21:55 | 6.17593 | 108.77143 | 31848 ft | 521 kts | 36° |
| 2026-04-22 21:56 | 6.23500 | 108.81313 | 31851 ft | 521 kts | 36° |
| 2026-04-22 21:56 | 6.29433 | 108.85502 | 31856 ft | 521 kts | 36° |
| 2026-04-22 21:57 | 6.35369 | 108.89694 | 31855 ft | 521 kts | 36° |
| 2026-04-22 21:57 | 6.41269 | 108.93862 | 31854 ft | 521 kts | 36° |
| 2026-04-22 21:58 | 6.47217 | 108.98066 | 31851 ft | 521 kts | 36° |
| 2026-04-22 21:58 | 6.53134 | 109.02248 | 31854 ft | 521 kts | 36° |
| 2026-04-22 21:59 | 6.59075 | 109.06449 | 31851 ft | 521 kts | 36° |
| 2026-04-22 21:59 | 6.64988 | 109.10631 | 31856 ft | 521 kts | 36° |
| 2026-04-22 22:00 | 6.70926 | 109.14832 | 31856 ft | 521 kts | 36° |
| 2026-04-22 22:00 | 6.76871 | 109.19040 | 31857 ft | 521 kts | 36° |
| 2026-04-22 22:01 | 6.82792 | 109.23232 | 31860 ft | 521 kts | 36° |
| 2026-04-22 22:01 | 6.88739 | 109.27443 | 31855 ft | 522 kts | 36° |
| 2026-04-22 22:02 | 6.94651 | 109.31632 | 31857 ft | 523 kts | 36° |
| 2026-04-22 22:02 | 7.00615 | 109.35858 | 31857 ft | 523 kts | 36° |
| 2026-04-22 22:03 | 7.06574 | 109.40082 | 31853 ft | 523 kts | 36° |
| 2026-04-22 22:03 | 7.12500 | 109.44283 | 31855 ft | 523 kts | 36° |
| 2026-04-22 22:04 | 7.18428 | 109.48488 | 31852 ft | 522 kts | 36° |
| 2026-04-22 22:04 | 7.24396 | 109.52723 | 31853 ft | 523 kts | 36° |
| 2026-04-22 22:05 | 7.30315 | 109.56924 | 31858 ft | 523 kts | 36° |
| 2026-04-22 22:05 | 7.36271 | 109.61152 | 31859 ft | 523 kts | 36° |
| 2026-04-22 22:06 | 7.42231 | 109.65385 | 31858 ft | 523 kts | 36° |
| 2026-04-22 22:06 | 7.48143 | 109.69586 | 31855 ft | 523 kts | 36° |
| 2026-04-22 22:07 | 7.54107 | 109.73824 | 31858 ft | 523 kts | 36° |
| 2026-04-22 22:07 | 7.60027 | 109.78034 | 31854 ft | 523 kts | 36° |
| 2026-04-22 22:08 | 7.65983 | 109.82269 | 31855 ft | 523 kts | 36° |
| 2026-04-22 22:08 | 7.71933 | 109.86502 | 31859 ft | 522 kts | 36° |
| 2026-04-22 22:09 | 7.77834 | 109.90702 | 31858 ft | 522 kts | 36° |
| 2026-04-22 22:09 | 7.83777 | 109.94933 | 31860 ft | 522 kts | 36° |
| 2026-04-22 22:10 | 7.89719 | 109.99165 | 31860 ft | 523 kts | 36° |
| 2026-04-22 22:10 | 7.95638 | 110.03382 | 31859 ft | 523 kts | 36° |
| 2026-04-22 22:11 | 8.01597 | 110.07629 | 31855 ft | 523 kts | 36° |
| 2026-04-22 22:11 | 8.07519 | 110.11851 | 31856 ft | 523 kts | 36° |
| 2026-04-22 22:12 | 8.13477 | 110.16101 | 31860 ft | 522 kts | 35° |
| 2026-04-22 22:12 | 8.19374 | 110.20309 | 31854 ft | 522 kts | 35° |
| 2026-04-22 22:13 | 8.25296 | 110.24547 | 32255 ft | 519 kts | 36° |
| 2026-04-22 22:13 | 8.28236 | 110.26664 | 32541 ft | 517 kts | 36° |
| 2026-04-22 22:13 | 8.31169 | 110.28780 | 32768 ft | 516 kts | 36° |
| 2026-04-22 22:13 | 8.34095 | 110.30891 | 32951 ft | 516 kts | 36° |
| 2026-04-22 22:14 | 8.37017 | 110.32998 | 33147 ft | 516 kts | 36° |
| 2026-04-22 22:14 | 8.39938 | 110.35105 | 33322 ft | 515 kts | 36° |
| 2026-04-22 22:14 | 8.42832 | 110.37191 | 33508 ft | 515 kts | 36° |
| 2026-04-22 22:14 | 8.45756 | 110.39300 | 33682 ft | 515 kts | 36° |
| 2026-04-22 22:15 | 8.48666 | 110.41398 | 33855 ft | 515 kts | 36° |
| 2026-04-22 22:15 | 8.51590 | 110.43507 | 34000 ft | 514 kts | 36° |
| 2026-04-22 22:15 | 8.54470 | 110.45583 | 34168 ft | 514 kts | 35° |
| 2026-04-22 22:15 | 8.57382 | 110.47685 | 34345 ft | 512 kts | 35° |
| 2026-04-22 22:16 | 8.60292 | 110.49784 | 34502 ft | 512 kts | 35° |
| 2026-04-22 22:16 | 8.63195 | 110.51879 | 34633 ft | 511 kts | 35° |
| 2026-04-22 22:16 | 8.66060 | 110.53947 | 34776 ft | 511 kts | 35° |
| 2026-04-22 22:17 | 8.71867 | 110.58140 | 34861 ft | 515 kts | 35° |
| 2026-04-22 22:17 | 8.77732 | 110.62376 | 34859 ft | 518 kts | 35° |
| 2026-04-22 22:18 | 8.83567 | 110.66593 | 34860 ft | 517 kts | 35° |
| 2026-04-22 22:18 | 8.89434 | 110.70834 | 34859 ft | 516 kts | 35° |
| 2026-04-22 22:19 | 8.95241 | 110.75034 | 34857 ft | 514 kts | 35° |
| 2026-04-22 22:19 | 9.01069 | 110.79251 | 34860 ft | 514 kts | 35° |
| 2026-04-22 22:20 | 9.06860 | 110.83442 | 34860 ft | 515 kts | 35° |
| 2026-04-22 22:20 | 9.12695 | 110.87667 | 34860 ft | 515 kts | 35° |
| 2026-04-22 22:21 | 9.18545 | 110.91905 | 34859 ft | 515 kts | 35° |
| 2026-04-22 22:21 | 9.24350 | 110.96112 | 34860 ft | 514 kts | 35° |
| 2026-04-22 22:22 | 9.30163 | 111.00326 | 34857 ft | 513 kts | 35° |
| 2026-04-22 22:22 | 9.35976 | 111.04542 | 34860 ft | 513 kts | 35° |
| 2026-04-22 22:23 | 9.41753 | 111.08734 | 34859 ft | 513 kts | 35° |
| 2026-04-22 22:23 | 9.47561 | 111.12950 | 34858 ft | 513 kts | 35° |
| 2026-04-22 22:24 | 9.53375 | 111.17172 | 34863 ft | 513 kts | 35° |
| 2026-04-22 22:24 | 9.59144 | 111.21367 | 34860 ft | 512 kts | 35° |
| 2026-04-22 22:25 | 9.64943 | 111.25580 | 34861 ft | 511 kts | 35° |
| 2026-04-22 22:25 | 9.70730 | 111.29787 | 34866 ft | 511 kts | 35° |
| 2026-04-22 22:26 | 9.76500 | 111.33984 | 34866 ft | 512 kts | 35° |
| 2026-04-22 22:26 | 9.82292 | 111.38200 | 34865 ft | 511 kts | 35° |
| 2026-04-22 22:27 | 9.88051 | 111.42392 | 34861 ft | 511 kts | 35° |
| 2026-04-22 22:27 | 9.93837 | 111.46608 | 34859 ft | 511 kts | 35° |
| 2026-04-22 22:28 | 9.99629 | 111.50829 | 34862 ft | 511 kts | 35° |
| 2026-04-22 22:28 | 10.05392 | 111.55031 | 34863 ft | 511 kts | 35° |
| 2026-04-22 22:29 | 10.11178 | 111.59251 | 34863 ft | 511 kts | 35° |
| 2026-04-22 22:29 | 10.16931 | 111.63449 | 34863 ft | 511 kts | 35° |
| 2026-04-22 22:30 | 10.22729 | 111.67682 | 34864 ft | 511 kts | 35° |
| 2026-04-22 22:30 | 10.28462 | 111.71870 | 34864 ft | 510 kts | 35° |
| 2026-04-22 22:31 | 10.34234 | 111.76088 | 34864 ft | 510 kts | 35° |
| 2026-04-22 22:31 | 10.40002 | 111.80304 | 34852 ft | 510 kts | 35° |
| 2026-04-22 22:32 | 10.45727 | 111.84493 | 34869 ft | 511 kts | 35° |
| 2026-04-22 22:32 | 10.51509 | 111.88724 | 34873 ft | 511 kts | 35° |
| 2026-04-22 22:33 | 10.57273 | 111.92944 | 34853 ft | 510 kts | 35° |
| 2026-04-22 22:33 | 10.62062 | 111.96451 | 34860 ft | 509 kts | 35° |
| 2026-04-22 22:34 | 10.68756 | 112.01357 | 34874 ft | 509 kts | 35° |
| 2026-04-22 22:34 | 10.73543 | 112.04866 | 34875 ft | 509 kts | 35° |
| 2026-04-22 22:35 | 10.79295 | 112.09084 | 34857 ft | 509 kts | 35° |
| 2026-04-22 22:35 | 10.85064 | 112.13318 | 34859 ft | 509 kts | 35° |
| 2026-04-22 22:36 | 10.90778 | 112.17513 | 34875 ft | 510 kts | 35° |
| 2026-04-22 22:36 | 10.96531 | 112.21740 | 34860 ft | 510 kts | 35° |
| 2026-04-22 22:37 | 11.02307 | 112.25966 | 34876 ft | 510 kts | 35° |
| 2026-04-22 22:37 | 11.08048 | 112.30158 | 34876 ft | 510 kts | 35° |
| 2026-04-22 22:38 | 11.13823 | 112.34381 | 34859 ft | 510 kts | 35° |
| 2026-04-22 22:38 | 11.19555 | 112.38577 | 34872 ft | 509 kts | 35° |
| 2026-04-22 22:39 | 11.25293 | 112.42781 | 34859 ft | 507 kts | 35° |
| 2026-04-22 22:39 | 11.31027 | 112.46984 | 34860 ft | 507 kts | 35° |
| 2026-04-22 22:40 | 11.36766 | 112.51192 | 34879 ft | 508 kts | 35° |
| 2026-04-22 22:40 | 11.42479 | 112.55384 | 34864 ft | 508 kts | 35° |
| 2026-04-22 22:41 | 11.48225 | 112.59604 | 34863 ft | 508 kts | 35° |
| 2026-04-22 22:41 | 11.53938 | 112.63814 | 34881 ft | 505 kts | 36° |
| 2026-04-22 22:42 | 11.59623 | 112.68001 | 34861 ft | 503 kts | 36° |
| 2026-04-22 22:42 | 11.65272 | 112.72166 | 34865 ft | 503 kts | 36° |
| 2026-04-22 22:43 | 11.70951 | 112.76354 | 34877 ft | 503 kts | 36° |
| 2026-04-22 22:43 | 11.76647 | 112.80558 | 34860 ft | 504 kts | 36° |
| 2026-04-22 22:44 | 11.82294 | 112.84728 | 34863 ft | 503 kts | 36° |
| 2026-04-22 22:44 | 11.87950 | 112.88906 | 34863 ft | 500 kts | 36° |
| 2026-04-22 22:45 | 11.93584 | 112.93071 | 34859 ft | 500 kts | 36° |
| 2026-04-22 22:45 | 11.99225 | 112.97243 | 34877 ft | 500 kts | 36° |
| 2026-04-22 22:46 | 12.04859 | 113.01412 | 34874 ft | 500 kts | 36° |
| 2026-04-22 22:46 | 12.10464 | 113.05562 | 34858 ft | 500 kts | 36° |
| 2026-04-22 22:47 | 12.16099 | 113.09736 | 34861 ft | 499 kts | 36° |
| 2026-04-22 22:47 | 12.21724 | 113.13906 | 34876 ft | 499 kts | 36° |
| 2026-04-22 22:48 | 12.27332 | 113.18064 | 34874 ft | 499 kts | 36° |
| 2026-04-22 22:48 | 12.32979 | 113.22254 | 34858 ft | 500 kts | 36° |
| 2026-04-22 22:49 | 12.38566 | 113.26405 | 34876 ft | 500 kts | 36° |
| 2026-04-22 22:49 | 12.44199 | 113.30584 | 34875 ft | 499 kts | 36° |
| 2026-04-22 22:50 | 12.49827 | 113.34750 | 34863 ft | 498 kts | 36° |
| 2026-04-22 22:50 | 12.55444 | 113.38915 | 34864 ft | 497 kts | 36° |
| 2026-04-22 22:51 | 12.61019 | 113.43053 | 34876 ft | 497 kts | 36° |
| 2026-04-22 22:51 | 12.66639 | 113.47227 | 34879 ft | 498 kts | 36° |
| 2026-04-22 22:52 | 12.72211 | 113.51369 | 34858 ft | 498 kts | 36° |
| 2026-04-22 22:52 | 12.77823 | 113.55542 | 34857 ft | 498 kts | 36° |
| 2026-04-22 22:53 | 12.83436 | 113.59719 | 34886 ft | 497 kts | 36° |
| 2026-04-22 22:53 | 12.89040 | 113.63891 | 34866 ft | 497 kts | 36° |
| 2026-04-22 22:54 | 12.94613 | 113.68042 | 34864 ft | 497 kts | 36° |
| 2026-04-22 22:54 | 13.00217 | 113.72219 | 34880 ft | 497 kts | 36° |
| 2026-04-22 22:55 | 13.05811 | 113.76390 | 34864 ft | 497 kts | 36° |
| 2026-04-22 22:55 | 13.14189 | 113.82642 | 34864 ft | 497 kts | 36° |
| 2026-04-22 22:56 | 13.19794 | 113.86829 | 34863 ft | 498 kts | 36° |
| 2026-04-22 22:56 | 13.25383 | 113.91005 | 34881 ft | 497 kts | 36° |
| 2026-04-22 22:57 | 13.30952 | 113.95168 | 34863 ft | 497 kts | 36° |
| 2026-04-22 22:57 | 13.36564 | 113.99367 | 34863 ft | 498 kts | 36° |
| 2026-04-22 22:58 | 13.42128 | 114.03532 | 34878 ft | 495 kts | 37° |
| 2026-04-22 22:58 | 13.47703 | 114.07708 | 34865 ft | 494 kts | 37° |
| 2026-04-22 22:59 | 13.53277 | 114.11885 | 34863 ft | 496 kts | 36° |
| 2026-04-22 22:59 | 13.58827 | 114.16047 | 34881 ft | 496 kts | 36° |
| 2026-04-22 23:00 | 13.64413 | 114.20238 | 34866 ft | 496 kts | 36° |
| 2026-04-22 23:00 | 13.69996 | 114.24429 | 34876 ft | 495 kts | 37° |
| 2026-04-22 23:01 | 13.75511 | 114.28573 | 34877 ft | 493 kts | 37° |
| 2026-04-22 23:01 | 13.81073 | 114.32754 | 34864 ft | 493 kts | 37° |
| 2026-04-22 23:02 | 13.86589 | 114.36902 | 34880 ft | 493 kts | 37° |
| 2026-04-22 23:02 | 13.92130 | 114.41073 | 34865 ft | 493 kts | 37° |
| 2026-04-22 23:03 | 13.97551 | 114.45418 | 34879 ft | 493 kts | 44° |
| 2026-04-22 23:03 | 14.02354 | 114.50403 | 34882 ft | 492 kts | 46° |
| 2026-04-22 23:04 | 14.07071 | 114.55537 | 34883 ft | 492 kts | 47° |
| 2026-04-22 23:04 | 14.11766 | 114.60689 | 34867 ft | 492 kts | 47° |
| 2026-04-22 23:05 | 14.16475 | 114.65839 | 34885 ft | 492 kts | 47° |
| 2026-04-22 23:05 | 14.21163 | 114.70958 | 34884 ft | 492 kts | 47° |
| 2026-04-22 23:06 | 14.25848 | 114.76071 | 34871 ft | 492 kts | 47° |
| 2026-04-22 23:06 | 14.30553 | 114.81211 | 34869 ft | 492 kts | 47° |
| 2026-04-22 23:07 | 14.35244 | 114.86339 | 34885 ft | 492 kts | 47° |
| 2026-04-22 23:07 | 14.39946 | 114.91482 | 34885 ft | 492 kts | 47° |
| 2026-04-22 23:08 | 14.44624 | 114.96604 | 34868 ft | 492 kts | 47° |
| 2026-04-22 23:08 | 14.49327 | 115.01755 | 34870 ft | 492 kts | 47° |
| 2026-04-22 23:09 | 14.54022 | 115.06901 | 34882 ft | 492 kts | 47° |
| 2026-04-22 23:09 | 14.58718 | 115.12052 | 34866 ft | 492 kts | 47° |
| 2026-04-22 23:10 | 14.63375 | 115.17162 | 34887 ft | 491 kts | 47° |
| 2026-04-22 23:10 | 14.68066 | 115.22315 | 34887 ft | 491 kts | 47° |
| 2026-04-22 23:11 | 14.72757 | 115.27471 | 34884 ft | 491 kts | 47° |
| 2026-04-22 23:11 | 14.77407 | 115.32584 | 34868 ft | 491 kts | 47° |
| 2026-04-22 23:12 | 14.82089 | 115.37737 | 34888 ft | 492 kts | 47° |
| 2026-04-22 23:12 | 14.86781 | 115.42905 | 34885 ft | 491 kts | 47° |
| 2026-04-22 23:13 | 14.91432 | 115.48030 | 34882 ft | 490 kts | 47° |
| 2026-04-22 23:13 | 14.96109 | 115.53187 | 34884 ft | 490 kts | 47° |
| 2026-04-22 23:14 | 15.00768 | 115.58328 | 34867 ft | 490 kts | 47° |
| 2026-04-22 23:14 | 15.05410 | 115.63454 | 34883 ft | 490 kts | 47° |
| 2026-04-22 23:15 | 15.10075 | 115.68609 | 34887 ft | 490 kts | 47° |
| 2026-04-22 23:15 | 15.14714 | 115.73739 | 34886 ft | 490 kts | 47° |
| 2026-04-22 23:16 | 15.19383 | 115.78906 | 34885 ft | 490 kts | 47° |
| 2026-04-22 23:16 | 15.24045 | 115.84068 | 34886 ft | 490 kts | 47° |
| 2026-04-22 23:17 | 15.28681 | 115.89205 | 34890 ft | 490 kts | 47° |
| 2026-04-22 23:17 | 15.33352 | 115.94384 | 34888 ft | 490 kts | 47° |
| 2026-04-22 23:18 | 15.37976 | 115.99515 | 34889 ft | 490 kts | 47° |
| 2026-04-22 23:18 | 15.42633 | 116.04687 | 34889 ft | 490 kts | 46° |
| 2026-04-22 23:19 | 15.47296 | 116.09868 | 34888 ft | 491 kts | 46° |
| 2026-04-22 23:19 | 15.51939 | 116.15030 | 34893 ft | 491 kts | 46° |
| 2026-04-22 23:20 | 15.56597 | 116.20214 | 34893 ft | 491 kts | 46° |
| 2026-04-22 23:20 | 15.60474 | 116.24531 | 34892 ft | 491 kts | 46° |
| 2026-04-22 23:21 | 15.65128 | 116.29717 | 34892 ft | 491 kts | 46° |
| 2026-04-22 23:21 | 15.69792 | 116.34918 | 34891 ft | 491 kts | 46° |
| 2026-04-22 23:22 | 15.74454 | 116.40119 | 34891 ft | 492 kts | 46° |
| 2026-04-22 23:22 | 15.79101 | 116.45309 | 34892 ft | 492 kts | 46° |
| 2026-04-22 23:23 | 15.83774 | 116.50530 | 34898 ft | 492 kts | 46° |
| 2026-04-22 23:23 | 15.88439 | 116.55746 | 34896 ft | 492 kts | 46° |
| 2026-04-22 23:24 | 15.93067 | 116.60926 | 34898 ft | 492 kts | 46° |
| 2026-04-22 23:24 | 15.97730 | 116.66148 | 34898 ft | 492 kts | 46° |
| 2026-04-22 23:25 | 16.02391 | 116.71372 | 34898 ft | 492 kts | 46° |
| 2026-04-22 23:25 | 16.07022 | 116.76566 | 34901 ft | 492 kts | 46° |
| 2026-04-22 23:26 | 16.11686 | 116.81800 | 34898 ft | 492 kts | 46° |
| 2026-04-22 23:26 | 16.16350 | 116.87039 | 34902 ft | 492 kts | 46° |
| 2026-04-22 23:27 | 16.20980 | 116.92243 | 34901 ft | 492 kts | 46° |
| 2026-04-22 23:27 | 16.25638 | 116.97483 | 34900 ft | 492 kts | 46° |
| 2026-04-22 23:28 | 16.30302 | 117.02733 | 34899 ft | 494 kts | 46° |
| 2026-04-22 23:28 | 16.34942 | 117.07960 | 34898 ft | 494 kts | 46° |
| 2026-04-22 23:29 | 16.39607 | 117.13221 | 34904 ft | 494 kts | 46° |
| 2026-04-22 23:29 | 16.44275 | 117.18487 | 34905 ft | 494 kts | 46° |
| 2026-04-22 23:30 | 16.46574 | 117.21084 | 35103 ft | 490 kts | 46° |
| 2026-04-22 23:30 | 16.48877 | 117.23686 | 35369 ft | 487 kts | 46° |
| 2026-04-22 23:30 | 16.51174 | 117.26282 | 35558 ft | 486 kts | 46° |
| 2026-04-22 23:30 | 16.53472 | 117.28879 | 35603 ft | 488 kts | 46° |
| 2026-04-22 23:31 | 16.58081 | 117.34090 | 35827 ft | 488 kts | 46° |
| 2026-04-22 23:31 | 16.62680 | 117.39294 | 35904 ft | 492 kts | 46° |
| 2026-04-22 23:32 | 16.67345 | 117.44578 | 35906 ft | 494 kts | 46° |
| 2026-04-22 23:32 | 16.72003 | 117.49858 | 35907 ft | 493 kts | 46° |
| 2026-04-22 23:33 | 16.76619 | 117.55097 | 35908 ft | 493 kts | 46° |
| 2026-04-22 23:33 | 16.81278 | 117.60386 | 35909 ft | 493 kts | 46° |
| 2026-04-22 23:34 | 16.85901 | 117.65638 | 35908 ft | 493 kts | 46° |
| 2026-04-22 23:34 | 16.90557 | 117.70934 | 35908 ft | 493 kts | 46° |
| 2026-04-22 23:35 | 16.95175 | 117.76189 | 35912 ft | 493 kts | 46° |
| 2026-04-22 23:35 | 16.99817 | 117.81475 | 35912 ft | 493 kts | 46° |
| 2026-04-22 23:36 | 17.04460 | 117.86767 | 35913 ft | 493 kts | 46° |
| 2026-04-22 23:36 | 17.09106 | 117.92068 | 35912 ft | 494 kts | 46° |
| 2026-04-22 23:37 | 17.13735 | 117.97351 | 35908 ft | 495 kts | 46° |
| 2026-04-22 23:37 | 17.18381 | 118.02660 | 35912 ft | 495 kts | 46° |
| 2026-04-22 23:38 | 17.23040 | 118.07988 | 35910 ft | 495 kts | 46° |
| 2026-04-22 23:38 | 17.27656 | 118.13270 | 35912 ft | 494 kts | 46° |
| 2026-04-22 23:39 | 17.32298 | 118.18587 | 35913 ft | 494 kts | 46° |
| 2026-04-22 23:39 | 17.36939 | 118.23906 | 35908 ft | 496 kts | 46° |
| 2026-04-22 23:40 | 17.41600 | 118.29253 | 35912 ft | 496 kts | 46° |
| 2026-04-22 23:40 | 17.46256 | 118.34598 | 35912 ft | 496 kts | 46° |
| 2026-04-22 23:41 | 17.50888 | 118.39921 | 35912 ft | 496 kts | 46° |
| 2026-04-22 23:41 | 17.55537 | 118.45268 | 35918 ft | 496 kts | 46° |
| 2026-04-22 23:42 | 17.60187 | 118.50619 | 35915 ft | 497 kts | 46° |
| 2026-04-22 23:42 | 17.64819 | 118.55954 | 35914 ft | 497 kts | 46° |
| 2026-04-22 23:43 | 17.69495 | 118.61345 | 35917 ft | 497 kts | 46° |
| 2026-04-22 23:43 | 17.74131 | 118.66693 | 35916 ft | 497 kts | 46° |
| 2026-04-22 23:44 | 17.78791 | 118.72075 | 35917 ft | 497 kts | 46° |
| 2026-04-22 23:44 | 17.83428 | 118.77434 | 35916 ft | 497 kts | 46° |
| 2026-04-22 23:45 | 17.88088 | 118.82823 | 35918 ft | 498 kts | 46° |
| 2026-04-22 23:45 | 17.92718 | 118.88183 | 35915 ft | 498 kts | 46° |
| 2026-04-22 23:46 | 17.97372 | 118.93576 | 35915 ft | 498 kts | 46° |
| 2026-04-22 23:46 | 18.02024 | 118.98974 | 35918 ft | 498 kts | 46° |
| 2026-04-22 23:47 | 18.06678 | 119.04375 | 35916 ft | 498 kts | 46° |
| 2026-04-22 23:47 | 18.11311 | 119.09756 | 35917 ft | 499 kts | 46° |
| 2026-04-22 23:48 | 18.15971 | 119.15172 | 35917 ft | 499 kts | 46° |
| 2026-04-22 23:48 | 18.20632 | 119.20596 | 35916 ft | 499 kts | 46° |
| 2026-04-22 23:49 | 18.25261 | 119.25987 | 35920 ft | 499 kts | 46° |
| 2026-04-22 23:49 | 18.29927 | 119.31426 | 35917 ft | 499 kts | 46° |
| 2026-04-22 23:50 | 18.34566 | 119.36839 | 35921 ft | 499 kts | 46° |
| 2026-04-22 23:50 | 18.39225 | 119.42279 | 35922 ft | 499 kts | 46° |
| 2026-04-22 23:51 | 18.43848 | 119.47682 | 35917 ft | 499 kts | 46° |
| 2026-04-22 23:51 | 18.48513 | 119.53140 | 35915 ft | 499 kts | 46° |
| 2026-04-22 23:52 | 18.53138 | 119.58554 | 35920 ft | 500 kts | 46° |
| 2026-04-22 23:52 | 18.57803 | 119.64020 | 35925 ft | 500 kts | 46° |
| 2026-04-22 23:53 | 18.62457 | 119.69486 | 35910 ft | 500 kts | 46° |
| 2026-04-22 23:53 | 18.67079 | 119.74911 | 35928 ft | 500 kts | 46° |
| 2026-04-22 23:54 | 18.71738 | 119.80380 | 35923 ft | 500 kts | 46° |
| 2026-04-22 23:54 | 18.76366 | 119.85820 | 35923 ft | 500 kts | 46° |
| 2026-04-22 23:55 | 18.81019 | 119.91297 | 35926 ft | 501 kts | 46° |
| 2026-04-22 23:55 | 18.85677 | 119.96786 | 35909 ft | 501 kts | 46° |
| 2026-04-22 23:56 | 18.90325 | 120.02266 | 35926 ft | 501 kts | 46° |
| 2026-04-22 23:56 | 18.94973 | 120.07752 | 35910 ft | 501 kts | 46° |
| 2026-04-22 23:57 | 18.99632 | 120.13255 | 35910 ft | 501 kts | 46° |
| 2026-04-22 23:57 | 19.04257 | 120.18724 | 35927 ft | 502 kts | 46° |
| 2026-04-22 23:58 | 19.08920 | 120.24242 | 35914 ft | 502 kts | 46° |
| 2026-04-22 23:58 | 19.13575 | 120.29755 | 35917 ft | 502 kts | 46° |
| 2026-04-22 23:59 | 19.18205 | 120.35245 | 35916 ft | 502 kts | 46° |
| 2026-04-22 23:59 | 19.22871 | 120.40782 | 35915 ft | 503 kts | 46° |
| 2026-04-23 00:00 | 19.29079 | 120.48158 | 35913 ft | 503 kts | 46° |
| 2026-04-23 00:01 | 19.34496 | 120.54600 | 35913 ft | 503 kts | 46° |
| 2026-04-23 00:01 | 19.39157 | 120.60150 | 35918 ft | 503 kts | 46° |
| 2026-04-23 00:02 | 19.43778 | 120.65661 | 35913 ft | 503 kts | 46° |
| 2026-04-23 00:02 | 19.48433 | 120.71213 | 35909 ft | 503 kts | 46° |
| 2026-04-23 00:03 | 19.53072 | 120.76749 | 35925 ft | 503 kts | 46° |
| 2026-04-23 00:03 | 19.57725 | 120.82309 | 35916 ft | 504 kts | 46° |
| 2026-04-23 00:04 | 19.62389 | 120.87888 | 35914 ft | 504 kts | 46° |
| 2026-04-23 00:04 | 19.67046 | 120.93464 | 35916 ft | 504 kts | 46° |
| 2026-04-23 00:05 | 19.71672 | 120.99008 | 35919 ft | 504 kts | 46° |
| 2026-04-23 00:05 | 19.76331 | 121.04598 | 35916 ft | 505 kts | 46° |
| 2026-04-23 00:06 | 19.80963 | 121.10160 | 35913 ft | 505 kts | 46° |
| 2026-04-23 00:06 | 19.84848 | 121.14829 | 35910 ft | 505 kts | 46° |
| 2026-04-23 00:07 | 19.89515 | 121.20443 | 35917 ft | 506 kts | 46° |
| 2026-04-23 00:07 | 19.94147 | 121.26020 | 35912 ft | 506 kts | 46° |
| 2026-04-23 00:08 | 19.98816 | 121.31648 | 35912 ft | 506 kts | 46° |
| 2026-04-23 00:08 | 20.03458 | 121.37248 | 35915 ft | 507 kts | 46° |
| 2026-04-23 00:09 | 20.08129 | 121.42889 | 35911 ft | 508 kts | 46° |
| 2026-04-23 00:09 | 20.12806 | 121.48542 | 35910 ft | 508 kts | 46° |
| 2026-04-23 00:10 | 20.17473 | 121.54189 | 35913 ft | 508 kts | 46° |
| 2026-04-23 00:10 | 20.22115 | 121.59811 | 35910 ft | 508 kts | 46° |
| 2026-04-23 00:11 | 20.26790 | 121.65479 | 35914 ft | 509 kts | 46° |
| 2026-04-23 00:11 | 20.31454 | 121.71139 | 35912 ft | 510 kts | 46° |
| 2026-04-23 00:12 | 20.36142 | 121.76834 | 35908 ft | 511 kts | 46° |
| 2026-04-23 00:12 | 20.40841 | 121.82548 | 35909 ft | 511 kts | 46° |
| 2026-04-23 00:13 | 20.45501 | 121.88220 | 35902 ft | 511 kts | 46° |
| 2026-04-23 00:13 | 20.50196 | 121.93940 | 35908 ft | 511 kts | 46° |
| 2026-04-23 00:14 | 20.54867 | 121.99637 | 35902 ft | 513 kts | 46° |
| 2026-04-23 00:14 | 20.59578 | 122.05389 | 35903 ft | 513 kts | 46° |
| 2026-04-23 00:15 | 20.64281 | 122.11136 | 35902 ft | 513 kts | 46° |
| 2026-04-23 00:15 | 20.68956 | 122.16856 | 35904 ft | 513 kts | 46° |
| 2026-04-23 00:16 | 20.73669 | 122.22628 | 35901 ft | 514 kts | 46° |
| 2026-04-23 00:16 | 20.78348 | 122.28364 | 35899 ft | 515 kts | 46° |
| 2026-04-23 00:17 | 20.83067 | 122.34155 | 35903 ft | 515 kts | 46° |
| 2026-04-23 00:17 | 20.87784 | 122.39949 | 35898 ft | 515 kts | 46° |
| 2026-04-23 00:18 | 20.92461 | 122.45701 | 35899 ft | 515 kts | 46° |
| 2026-04-23 00:18 | 20.97180 | 122.51510 | 35896 ft | 516 kts | 46° |
| 2026-04-23 00:19 | 21.02439 | 122.56590 | 35900 ft | 511 kts | 32° |
| 2026-04-23 00:19 | 21.08338 | 122.60864 | 35895 ft | 510 kts | 30° |
| 2026-04-23 00:20 | 21.14314 | 122.64991 | 35888 ft | 510 kts | 30° |
| 2026-04-23 00:20 | 21.20243 | 122.69079 | 35894 ft | 510 kts | 30° |
| 2026-04-23 00:21 | 21.26219 | 122.73228 | 35890 ft | 512 kts | 30° |
| 2026-04-23 00:21 | 21.32205 | 122.77402 | 35885 ft | 512 kts | 30° |
| 2026-04-23 00:22 | 21.38150 | 122.81555 | 35887 ft | 512 kts | 30° |
| 2026-04-23 00:22 | 21.44122 | 122.85730 | 35883 ft | 512 kts | 30° |
| 2026-04-23 00:23 | 21.50103 | 122.89914 | 35879 ft | 512 kts | 30° |
| 2026-04-23 00:23 | 21.56040 | 122.94072 | 35881 ft | 512 kts | 30° |
| 2026-04-23 00:24 | 21.62030 | 122.98271 | 35877 ft | 513 kts | 30° |
| 2026-04-23 00:24 | 21.67983 | 123.02448 | 35877 ft | 513 kts | 30° |
| 2026-04-23 00:25 | 21.73957 | 123.06644 | 35873 ft | 513 kts | 30° |
| 2026-04-23 00:25 | 21.79949 | 123.10857 | 35870 ft | 513 kts | 30° |
| 2026-04-23 00:26 | 21.85890 | 123.15038 | 35870 ft | 513 kts | 30° |
| 2026-04-23 00:26 | 21.91875 | 123.19255 | 35873 ft | 513 kts | 30° |
| 2026-04-23 00:27 | 21.97855 | 123.23471 | 35874 ft | 514 kts | 30° |
| 2026-04-23 00:27 | 22.03802 | 123.27670 | 35864 ft | 514 kts | 30° |
| 2026-04-23 00:28 | 22.09798 | 123.31907 | 35860 ft | 514 kts | 30° |
| 2026-04-23 00:28 | 22.15774 | 123.36135 | 35869 ft | 514 kts | 29° |
| 2026-04-23 00:29 | 22.21732 | 123.40353 | 35860 ft | 514 kts | 30° |
| 2026-04-23 00:29 | 22.27719 | 123.44597 | 35861 ft | 514 kts | 30° |
| 2026-04-23 00:30 | 22.33703 | 123.48843 | 35857 ft | 514 kts | 30° |
| 2026-04-23 00:30 | 22.39645 | 123.53065 | 35867 ft | 514 kts | 29° |
| 2026-04-23 00:31 | 22.45629 | 123.57319 | 35859 ft | 514 kts | 29° |
| 2026-04-23 00:31 | 22.51605 | 123.61573 | 35860 ft | 514 kts | 29° |
| 2026-04-23 00:32 | 22.57592 | 123.65840 | 35858 ft | 514 kts | 29° |
| 2026-04-23 00:32 | 22.63549 | 123.70089 | 35861 ft | 514 kts | 29° |
| 2026-04-23 00:33 | 22.69531 | 123.74361 | 35852 ft | 515 kts | 30° |
| 2026-04-23 00:33 | 22.75494 | 123.78623 | 35850 ft | 515 kts | 30° |
| 2026-04-23 00:34 | 22.81494 | 123.82921 | 35849 ft | 515 kts | 30° |
| 2026-04-23 00:34 | 22.87447 | 123.87189 | 35853 ft | 515 kts | 29° |
| 2026-04-23 00:35 | 22.93441 | 123.91482 | 35852 ft | 515 kts | 29° |
| 2026-04-23 00:35 | 22.99399 | 123.95758 | 35854 ft | 515 kts | 30° |
| 2026-04-23 00:36 | 23.05381 | 124.00096 | 35862 ft | 517 kts | 30° |
| 2026-04-23 00:36 | 23.11332 | 124.04504 | 35848 ft | 517 kts | 30° |
| 2026-04-23 00:37 | 23.17259 | 124.08900 | 35848 ft | 517 kts | 30° |
| 2026-04-23 00:37 | 23.23218 | 124.13311 | 35848 ft | 517 kts | 30° |
| 2026-04-23 00:38 | 23.29180 | 124.17722 | 35852 ft | 518 kts | 30° |
| 2026-04-23 00:38 | 23.34980 | 124.22336 | 35850 ft | 523 kts | 39° |
| 2026-04-23 00:39 | 23.40024 | 124.28103 | 35847 ft | 527 kts | 45° |
| 2026-04-23 00:39 | 23.44865 | 124.34114 | 35853 ft | 527 kts | 46° |
| 2026-04-23 00:40 | 23.49674 | 124.40163 | 35857 ft | 527 kts | 45° |
| 2026-04-23 00:40 | 23.54470 | 124.46171 | 35851 ft | 529 kts | 45° |
| 2026-04-23 00:41 | 23.59309 | 124.52217 | 35851 ft | 529 kts | 45° |
| 2026-04-23 00:41 | 23.64156 | 124.58273 | 35853 ft | 529 kts | 45° |
| 2026-04-23 00:42 | 23.68967 | 124.64291 | 35856 ft | 529 kts | 45° |
| 2026-04-23 00:42 | 23.73804 | 124.70350 | 35856 ft | 530 kts | 45° |
| 2026-04-23 00:43 | 23.78676 | 124.76460 | 35856 ft | 531 kts | 45° |
| 2026-04-23 00:43 | 23.83482 | 124.82497 | 35857 ft | 530 kts | 45° |
| 2026-04-23 00:44 | 23.88319 | 124.88580 | 35856 ft | 530 kts | 45° |
| 2026-04-23 00:44 | 23.93157 | 124.94671 | 35859 ft | 530 kts | 45° |
| 2026-04-23 00:45 | 23.97961 | 125.00727 | 35856 ft | 529 kts | 45° |
| 2026-04-23 00:45 | 24.02782 | 125.06811 | 35859 ft | 528 kts | 45° |
| 2026-04-23 00:46 | 24.07589 | 125.12887 | 35858 ft | 528 kts | 45° |
| 2026-04-23 00:46 | 24.12408 | 125.18983 | 35857 ft | 529 kts | 45° |
| 2026-04-23 00:47 | 24.17230 | 125.25092 | 35858 ft | 530 kts | 45° |
| 2026-04-23 00:47 | 24.22025 | 125.31175 | 35860 ft | 529 kts | 45° |
| 2026-04-23 00:48 | 24.26839 | 125.37290 | 35862 ft | 529 kts | 45° |
| 2026-04-23 00:48 | 24.31630 | 125.43382 | 35862 ft | 530 kts | 45° |
| 2026-04-23 00:49 | 24.36457 | 125.49528 | 35859 ft | 530 kts | 45° |
| 2026-04-23 00:49 | 24.41270 | 125.55664 | 35856 ft | 530 kts | 45° |
| 2026-04-23 00:50 | 24.46039 | 125.61753 | 35857 ft | 529 kts | 45° |
| 2026-04-23 00:50 | 24.50842 | 125.67891 | 35861 ft | 529 kts | 45° |
| 2026-04-23 00:51 | 24.55648 | 125.74042 | 35857 ft | 529 kts | 45° |
| 2026-04-23 00:51 | 24.60448 | 125.80193 | 35856 ft | 529 kts | 45° |
| 2026-04-23 00:52 | 24.65207 | 125.86300 | 35856 ft | 529 kts | 45° |
| 2026-04-23 00:52 | 24.69995 | 125.92451 | 35857 ft | 529 kts | 45° |
| 2026-04-23 00:53 | 24.74779 | 125.98605 | 35856 ft | 529 kts | 45° |
| 2026-04-23 00:53 | 24.78752 | 126.03722 | 35856 ft | 529 kts | 45° |
| 2026-04-23 00:54 | 24.83531 | 126.09886 | 35857 ft | 529 kts | 45° |
| 2026-04-23 00:54 | 24.88307 | 126.16052 | 35857 ft | 528 kts | 45° |
| 2026-04-23 00:55 | 24.93050 | 126.22184 | 35851 ft | 528 kts | 45° |
| 2026-04-23 00:55 | 24.97818 | 126.28355 | 35855 ft | 528 kts | 45° |
| 2026-04-23 00:56 | 25.02576 | 126.34524 | 35855 ft | 527 kts | 45° |
| 2026-04-23 00:56 | 25.07330 | 126.40693 | 35853 ft | 527 kts | 46° |
| 2026-04-23 00:57 | 25.12085 | 126.46873 | 35854 ft | 527 kts | 46° |
| 2026-04-23 00:57 | 25.16808 | 126.53019 | 35854 ft | 527 kts | 46° |
| 2026-04-23 00:58 | 25.21553 | 126.59202 | 35854 ft | 526 kts | 46° |
| 2026-04-23 00:58 | 25.26274 | 126.65362 | 35850 ft | 527 kts | 46° |
| 2026-04-23 00:59 | 25.31023 | 126.71566 | 35850 ft | 528 kts | 46° |
| 2026-04-23 00:59 | 25.35778 | 126.77786 | 35852 ft | 528 kts | 46° |
| 2026-04-23 01:00 | 25.40494 | 126.83965 | 35864 ft | 527 kts | 46° |
| 2026-04-23 01:00 | 25.45219 | 126.90163 | 35852 ft | 530 kts | 46° |
| 2026-04-23 01:01 | 25.49966 | 126.96397 | 35854 ft | 531 kts | 46° |
| 2026-04-23 01:01 | 25.54725 | 127.02656 | 35845 ft | 530 kts | 46° |
| 2026-04-23 01:02 | 25.59472 | 127.08911 | 36000 ft | 527 kts | 46° |
| 2026-04-23 01:02 | 25.61835 | 127.11999 | 36203 ft | 524 kts | 45° |
| 2026-04-23 01:02 | 25.64243 | 127.15035 | 36404 ft | 523 kts | 44° |
| 2026-04-23 01:02 | 25.66642 | 127.18003 | 36558 ft | 522 kts | 44° |
| 2026-04-23 01:03 | 25.69073 | 127.20998 | 36708 ft | 521 kts | 44° |
| 2026-04-23 01:03 | 25.71496 | 127.23990 | 36826 ft | 521 kts | 44° |
| 2026-04-23 01:03 | 25.73925 | 127.27002 | 36842 ft | 523 kts | 44° |
| 2026-04-23 01:04 | 25.78764 | 127.33040 | 36846 ft | 526 kts | 44° |
| 2026-04-23 01:04 | 25.86028 | 127.42157 | 36846 ft | 525 kts | 44° |
| 2026-04-23 01:05 | 25.90839 | 127.48207 | 36847 ft | 525 kts | 44° |
| 2026-04-23 01:05 | 25.95680 | 127.54299 | 36855 ft | 525 kts | 44° |
| 2026-04-23 01:06 | 26.00506 | 127.60380 | 36850 ft | 523 kts | 44° |
| 2026-04-23 01:06 | 26.05297 | 127.66425 | 36832 ft | 523 kts | 44° |
| 2026-04-23 01:07 | 26.10113 | 127.72509 | 36830 ft | 523 kts | 44° |
| 2026-04-23 01:07 | 26.14951 | 127.78598 | 36866 ft | 524 kts | 41° |
| 2026-04-23 01:08 | 26.20301 | 127.84010 | 36866 ft | 522 kts | 35° |
| 2026-04-23 01:08 | 26.25861 | 127.89233 | 36866 ft | 521 kts | 34° |
| 2026-04-23 01:09 | 26.31449 | 127.94424 | 36861 ft | 522 kts | 35° |
| 2026-04-23 01:09 | 26.37007 | 127.99600 | 36850 ft | 526 kts | 34° |
| 2026-04-23 01:10 | 26.42635 | 128.04866 | 36849 ft | 527 kts | 34° |
| 2026-04-23 01:10 | 26.48252 | 128.10136 | 36848 ft | 526 kts | 34° |
| 2026-04-23 01:11 | 26.53839 | 128.15382 | 36842 ft | 530 kts | 35° |
| 2026-04-23 01:11 | 26.59520 | 128.20720 | 36850 ft | 535 kts | 35° |
| 2026-04-23 01:12 | 26.65183 | 128.26053 | 36837 ft | 533 kts | 35° |
| 2026-04-23 01:12 | 26.70854 | 128.31402 | 36843 ft | 534 kts | 35° |
| 2026-04-23 01:13 | 26.76566 | 128.36792 | 36832 ft | 537 kts | 35° |
| 2026-04-23 01:13 | 26.82259 | 128.42173 | 36838 ft | 538 kts | 35° |
| 2026-04-23 01:14 | 26.87980 | 128.47590 | 36829 ft | 538 kts | 35° |
| 2026-04-23 01:14 | 26.93708 | 128.53021 | 36828 ft | 538 kts | 35° |
| 2026-04-23 01:15 | 26.99393 | 128.58418 | 36841 ft | 538 kts | 35° |
| 2026-04-23 01:15 | 27.05116 | 128.63857 | 36826 ft | 538 kts | 36° |
| 2026-04-23 01:16 | 27.10784 | 128.69255 | 36833 ft | 535 kts | 35° |
| 2026-04-23 01:16 | 27.16474 | 128.74677 | 36827 ft | 535 kts | 35° |
| 2026-04-23 01:17 | 27.22152 | 128.80095 | 36845 ft | 535 kts | 35° |
| 2026-04-23 01:17 | 27.27810 | 128.85500 | 36828 ft | 538 kts | 36° |
| 2026-04-23 01:18 | 27.33540 | 128.90985 | 36823 ft | 540 kts | 35° |
| 2026-04-23 01:18 | 27.39227 | 128.96436 | 36830 ft | 540 kts | 35° |
| 2026-04-23 01:19 | 27.44971 | 129.01949 | 36828 ft | 543 kts | 36° |
| 2026-04-23 01:19 | 27.50756 | 129.07506 | 36828 ft | 548 kts | 36° |
| 2026-04-23 01:20 | 27.56038 | 129.13730 | 36823 ft | 553 kts | 45° |
| 2026-04-23 01:20 | 27.60952 | 129.20326 | 36821 ft | 549 kts | 46° |
| 2026-04-23 01:21 | 27.65809 | 129.26985 | 36824 ft | 548 kts | 46° |
| 2026-04-23 01:21 | 27.70664 | 129.33636 | 36825 ft | 548 kts | 46° |
| 2026-04-23 01:22 | 27.75494 | 129.40239 | 36825 ft | 548 kts | 46° |
| 2026-04-23 01:22 | 27.80375 | 129.46910 | 36820 ft | 550 kts | 47° |
| 2026-04-23 01:23 | 27.85250 | 129.53585 | 36818 ft | 551 kts | 47° |
| 2026-04-23 01:23 | 27.90132 | 129.60283 | 36821 ft | 551 kts | 46° |
| 2026-04-23 01:24 | 27.94995 | 129.66962 | 36815 ft | 551 kts | 46° |
| 2026-04-23 01:24 | 27.99844 | 129.73634 | 36812 ft | 552 kts | 46° |
| 2026-04-23 01:25 | 28.04721 | 129.80356 | 36825 ft | 552 kts | 46° |
| 2026-04-23 01:25 | 28.09603 | 129.87095 | 36815 ft | 552 kts | 46° |
| 2026-04-23 01:26 | 28.14454 | 129.93802 | 36801 ft | 552 kts | 46° |
| 2026-04-23 01:26 | 28.19331 | 130.00555 | 36804 ft | 553 kts | 46° |
| 2026-04-23 01:27 | 28.24209 | 130.07321 | 36802 ft | 553 kts | 46° |
| 2026-04-23 01:27 | 28.29038 | 130.14030 | 36806 ft | 551 kts | 46° |
| 2026-04-23 01:28 | 28.33894 | 130.20786 | 36808 ft | 551 kts | 46° |
| 2026-04-23 01:28 | 28.38715 | 130.27502 | 36808 ft | 552 kts | 46° |
| 2026-04-23 01:29 | 28.43557 | 130.34262 | 36810 ft | 549 kts | 46° |
| 2026-04-23 01:29 | 28.48393 | 130.41024 | 36810 ft | 548 kts | 46° |
| 2026-04-23 01:30 | 28.53183 | 130.47730 | 36812 ft | 550 kts | 47° |
| 2026-04-23 01:30 | 28.58009 | 130.54497 | 36813 ft | 549 kts | 47° |
| 2026-04-23 01:31 | 28.62792 | 130.61217 | 36810 ft | 548 kts | 47° |
| 2026-04-23 01:31 | 28.67608 | 130.67992 | 36814 ft | 550 kts | 47° |
| 2026-04-23 01:32 | 28.72415 | 130.74763 | 36806 ft | 554 kts | 47° |
| 2026-04-23 01:32 | 28.77267 | 130.81612 | 36801 ft | 554 kts | 47° |
| 2026-04-23 01:33 | 28.82120 | 130.88477 | 36806 ft | 555 kts | 47° |
| 2026-04-23 01:33 | 28.86958 | 130.95327 | 36799 ft | 556 kts | 47° |
| 2026-04-23 01:34 | 28.91808 | 131.02208 | 36800 ft | 555 kts | 47° |
| 2026-04-23 01:34 | 28.96644 | 131.09080 | 36802 ft | 555 kts | 47° |
| 2026-04-23 01:35 | 29.01478 | 131.15960 | 36801 ft | 557 kts | 47° |
| 2026-04-23 01:35 | 29.06335 | 131.22883 | 36792 ft | 557 kts | 47° |
| 2026-04-23 01:36 | 29.11172 | 131.29791 | 36801 ft | 557 kts | 47° |
| 2026-04-23 01:36 | 29.15995 | 131.36690 | 36798 ft | 557 kts | 47° |
| 2026-04-23 01:37 | 29.20833 | 131.43624 | 36789 ft | 555 kts | 47° |
| 2026-04-23 01:37 | 29.25627 | 131.50504 | 36793 ft | 555 kts | 47° |
| 2026-04-23 01:38 | 29.30439 | 131.57421 | 36789 ft | 555 kts | 47° |
| 2026-04-23 01:38 | 29.35248 | 131.64348 | 36784 ft | 553 kts | 47° |
| 2026-04-23 01:39 | 29.40045 | 131.71268 | 36787 ft | 552 kts | 47° |
| 2026-04-23 01:39 | 29.44800 | 131.78138 | 36789 ft | 552 kts | 47° |
| 2026-04-23 01:40 | 29.49580 | 131.85056 | 36785 ft | 551 kts | 47° |
| 2026-04-23 01:40 | 29.54319 | 131.91926 | 36793 ft | 551 kts | 47° |
| 2026-04-23 01:41 | 29.58281 | 131.97679 | 36788 ft | 552 kts | 47° |
| 2026-04-23 01:41 | 29.63813 | 132.05727 | 36787 ft | 550 kts | 47° |
| 2026-04-23 01:42 | 29.67773 | 132.11462 | 36790 ft | 550 kts | 46° |
| 2026-04-23 01:42 | 29.72663 | 132.18300 | 36787 ft | 553 kts | 46° |
| 2026-04-23 01:43 | 29.77546 | 132.25093 | 36782 ft | 551 kts | 46° |
| 2026-04-23 01:43 | 29.82424 | 132.31927 | 36788 ft | 552 kts | 46° |
| 2026-04-23 01:44 | 29.87289 | 132.38773 | 36782 ft | 556 kts | 46° |
| 2026-04-23 01:44 | 29.92175 | 132.45672 | 36796 ft | 553 kts | 46° |
| 2026-04-23 01:45 | 29.97033 | 132.52545 | 36781 ft | 552 kts | 47° |
| 2026-04-23 01:45 | 30.01876 | 132.59400 | 36779 ft | 553 kts | 47° |
| 2026-04-23 01:46 | 30.06726 | 132.66279 | 36782 ft | 551 kts | 47° |
| 2026-04-23 01:46 | 30.11541 | 132.73122 | 36780 ft | 552 kts | 47° |
| 2026-04-23 01:47 | 30.16398 | 132.80031 | 36781 ft | 553 kts | 47° |
| 2026-04-23 01:47 | 30.21259 | 132.86963 | 36783 ft | 554 kts | 47° |
| 2026-04-23 01:48 | 30.26110 | 132.93889 | 36777 ft | 558 kts | 47° |
| 2026-04-23 01:48 | 30.31004 | 133.00891 | 36773 ft | 559 kts | 48° |
| 2026-04-23 01:49 | 30.35894 | 133.07902 | 36771 ft | 559 kts | 47° |
| 2026-04-23 01:49 | 30.40798 | 133.14940 | 36772 ft | 562 kts | 47° |
| 2026-04-23 01:50 | 30.45680 | 133.21963 | 36774 ft | 562 kts | 47° |
| 2026-04-23 01:50 | 30.50570 | 133.29012 | 36776 ft | 558 kts | 47° |
| 2026-04-23 01:51 | 30.55406 | 133.35993 | 36772 ft | 556 kts | 47° |
| 2026-04-23 01:51 | 30.60251 | 133.42997 | 36778 ft | 557 kts | 47° |
| 2026-04-23 01:52 | 30.65129 | 133.50059 | 36769 ft | 560 kts | 47° |
| 2026-04-23 01:52 | 30.69960 | 133.57070 | 36772 ft | 558 kts | 47° |
| 2026-04-23 01:53 | 30.74813 | 133.64126 | 36774 ft | 561 kts | 47° |
| 2026-04-23 01:53 | 30.79712 | 133.71258 | 36768 ft | 562 kts | 47° |
| 2026-04-23 01:54 | 30.84583 | 133.78367 | 36782 ft | 561 kts | 47° |
| 2026-04-23 01:54 | 30.89469 | 133.85502 | 36773 ft | 566 kts | 47° |
| 2026-04-23 01:55 | 30.94387 | 133.92696 | 36770 ft | 565 kts | 47° |
| 2026-04-23 01:55 | 30.99264 | 133.99849 | 36770 ft | 565 kts | 47° |
| 2026-04-23 01:56 | 31.04138 | 134.07007 | 36767 ft | 566 kts | 47° |
| 2026-04-23 01:56 | 31.09018 | 134.14190 | 36781 ft | 563 kts | 47° |
| 2026-04-23 01:57 | 31.13895 | 134.21377 | 36766 ft | 567 kts | 47° |
| 2026-04-23 01:57 | 31.18810 | 134.28633 | 36766 ft | 567 kts | 47° |
| 2026-04-23 01:58 | 31.23673 | 134.35833 | 36775 ft | 567 kts | 47° |
| 2026-04-23 01:58 | 31.28582 | 134.43107 | 36765 ft | 571 kts | 47° |
| 2026-04-23 01:59 | 31.33456 | 134.50348 | 36778 ft | 568 kts | 47° |
| 2026-04-23 01:59 | 31.38348 | 134.57628 | 36774 ft | 569 kts | 47° |
| 2026-04-23 02:00 | 31.43251 | 134.64937 | 36777 ft | 569 kts | 47° |
| 2026-04-23 02:00 | 31.48131 | 134.72226 | 36784 ft | 568 kts | 48° |
| 2026-04-23 02:01 | 31.52995 | 134.79505 | 36783 ft | 570 kts | 48° |
| 2026-04-23 02:01 | 31.57885 | 134.86836 | 36799 ft | 570 kts | 48° |
| 2026-04-23 02:02 | 31.62776 | 134.94183 | 36784 ft | 571 kts | 49° |
| 2026-04-23 02:02 | 31.67641 | 135.01505 | 36788 ft | 572 kts | 48° |
| 2026-04-23 02:03 | 31.72520 | 135.08862 | 36791 ft | 567 kts | 48° |
| 2026-04-23 02:03 | 31.77680 | 135.15827 | 36799 ft | 562 kts | 42° |
| 2026-04-23 02:04 | 31.83006 | 135.22516 | 36796 ft | 563 kts | 42° |
| 2026-04-23 02:04 | 31.88295 | 135.29261 | 36796 ft | 563 kts | 43° |
| 2026-04-23 02:05 | 31.93572 | 135.36127 | 36798 ft | 564 kts | 43° |
| 2026-04-23 02:05 | 31.98785 | 135.42968 | 36801 ft | 564 kts | 44° |
| 2026-04-23 02:06 | 32.04032 | 135.49866 | 36807 ft | 564 kts | 44° |
| 2026-04-23 02:06 | 32.09253 | 135.56737 | 36804 ft | 564 kts | 44° |
| 2026-04-23 02:07 | 32.14510 | 135.63662 | 36806 ft | 567 kts | 44° |
| 2026-04-23 02:07 | 32.19784 | 135.70622 | 36809 ft | 569 kts | 44° |
| 2026-04-23 02:08 | 32.25072 | 135.77617 | 36824 ft | 571 kts | 44° |
| 2026-04-23 02:08 | 32.30357 | 135.84619 | 36812 ft | 574 kts | 43° |
| 2026-04-23 02:09 | 32.35652 | 135.91650 | 36818 ft | 574 kts | 43° |
| 2026-04-23 02:09 | 32.40965 | 135.98722 | 36826 ft | 575 kts | 43° |
| 2026-04-23 02:10 | 32.45720 | 136.06467 | 36818 ft | 582 kts | 52° |
| 2026-04-23 02:10 | 32.50113 | 136.14488 | 36823 ft | 584 kts | 53° |
| 2026-04-23 02:11 | 32.54470 | 136.22622 | 36822 ft | 585 kts | 53° |
| 2026-04-23 02:11 | 32.58838 | 136.30778 | 36829 ft | 586 kts | 53° |
| 2026-04-23 02:12 | 32.63192 | 136.38889 | 36831 ft | 586 kts | 54° |
| 2026-04-23 02:12 | 32.67562 | 136.47036 | 36834 ft | 583 kts | 54° |
| 2026-04-23 02:13 | 32.71927 | 136.55189 | 36834 ft | 583 kts | 54° |
| 2026-04-23 02:13 | 32.76250 | 136.63282 | 36841 ft | 584 kts | 54° |
| 2026-04-23 02:14 | 32.80610 | 136.71462 | 36845 ft | 585 kts | 54° |
| 2026-04-23 02:14 | 32.84958 | 136.79642 | 36849 ft | 585 kts | 54° |
| 2026-04-23 02:15 | 32.91465 | 136.91915 | 36851 ft | 586 kts | 54° |
| 2026-04-23 02:16 | 32.95808 | 137.00129 | 36854 ft | 586 kts | 54° |
| 2026-04-23 02:16 | 33.00152 | 137.08363 | 36861 ft | 585 kts | 54° |
| 2026-04-23 02:17 | 33.04471 | 137.16568 | 36843 ft | 586 kts | 54° |
| 2026-04-23 02:17 | 33.08802 | 137.24812 | 36862 ft | 586 kts | 54° |
| 2026-04-23 02:18 | 33.13117 | 137.33047 | 36867 ft | 586 kts | 54° |
| 2026-04-23 02:18 | 33.17441 | 137.41317 | 36861 ft | 586 kts | 54° |
| 2026-04-23 02:19 | 33.21739 | 137.49545 | 36869 ft | 587 kts | 54° |
| 2026-04-23 02:19 | 33.26074 | 137.57866 | 36868 ft | 588 kts | 54° |
| 2026-04-23 02:20 | 33.30367 | 137.66127 | 36872 ft | 588 kts | 54° |
| 2026-04-23 02:20 | 33.34683 | 137.74449 | 36877 ft | 588 kts | 54° |
| 2026-04-23 02:21 | 33.38996 | 137.82784 | 36885 ft | 588 kts | 54° |
| 2026-04-23 02:21 | 33.43296 | 137.91114 | 36877 ft | 587 kts | 54° |
| 2026-04-23 02:22 | 33.47565 | 137.99412 | 36881 ft | 587 kts | 54° |
| 2026-04-23 02:22 | 33.51857 | 138.07755 | 36886 ft | 587 kts | 54° |
| 2026-04-23 02:23 | 33.56125 | 138.16056 | 36889 ft | 587 kts | 54° |
| 2026-04-23 02:23 | 33.60411 | 138.24428 | 36895 ft | 587 kts | 54° |
| 2026-04-23 02:24 | 33.64651 | 138.32741 | 36891 ft | 586 kts | 54° |
| 2026-04-23 02:24 | 33.68910 | 138.41104 | 36892 ft | 586 kts | 54° |
| 2026-04-23 02:25 | 33.73166 | 138.49477 | 36894 ft | 585 kts | 54° |
| 2026-04-23 02:25 | 33.77408 | 138.57832 | 36898 ft | 585 kts | 55° |
| 2026-04-23 02:26 | 33.81616 | 138.66147 | 36905 ft | 585 kts | 55° |
| 2026-04-23 02:26 | 33.85842 | 138.74520 | 36901 ft | 584 kts | 55° |
| 2026-04-23 02:27 | 33.90050 | 138.82875 | 36901 ft | 584 kts | 55° |
| 2026-04-23 02:27 | 33.94263 | 138.91256 | 36901 ft | 583 kts | 55° |
| 2026-04-23 02:28 | 33.98440 | 138.99586 | 36903 ft | 583 kts | 55° |
| 2026-04-23 02:28 | 34.02606 | 139.07914 | 36904 ft | 583 kts | 55° |
| 2026-04-23 02:29 | 34.06792 | 139.16301 | 36906 ft | 583 kts | 55° |
| 2026-04-23 02:29 | 34.10263 | 139.23271 | 36905 ft | 583 kts | 55° |
| 2026-04-23 02:30 | 34.14445 | 139.31679 | 36905 ft | 583 kts | 55° |
| 2026-04-23 02:30 | 34.18596 | 139.40045 | 36911 ft | 583 kts | 55° |
| 2026-04-23 02:31 | 34.22762 | 139.48471 | 36909 ft | 583 kts | 55° |
| 2026-04-23 02:31 | 34.26925 | 139.56907 | 36913 ft | 583 kts | 55° |
| 2026-04-23 02:32 | 34.31050 | 139.65284 | 36913 ft | 583 kts | 55° |
| 2026-04-23 02:32 | 34.35200 | 139.73731 | 36914 ft | 583 kts | 56° |
| 2026-04-23 02:33 | 34.39321 | 139.82139 | 36916 ft | 583 kts | 56° |
| 2026-04-23 02:33 | 34.43457 | 139.90598 | 36915 ft | 583 kts | 56° |
| 2026-04-23 02:34 | 34.47581 | 139.99054 | 36909 ft | 583 kts | 56° |
| 2026-04-23 02:34 | 34.51707 | 140.07533 | 36911 ft | 583 kts | 56° |
| 2026-04-23 02:35 | 34.55829 | 140.16023 | 36908 ft | 583 kts | 56° |
| 2026-04-23 02:35 | 34.59926 | 140.24484 | 36912 ft | 583 kts | 56° |
| 2026-04-23 02:36 | 34.64037 | 140.32996 | 36913 ft | 583 kts | 56° |
| 2026-04-23 02:36 | 34.68117 | 140.41462 | 36913 ft | 583 kts | 56° |
| 2026-04-23 02:37 | 34.72184 | 140.49994 | 36910 ft | 584 kts | 57° |
| 2026-04-23 02:37 | 34.76138 | 140.58615 | 36914 ft | 584 kts | 58° |
| 2026-04-23 02:38 | 34.80076 | 140.67272 | 36924 ft | 584 kts | 58° |
| 2026-04-23 02:38 | 34.84019 | 140.75914 | 36917 ft | 584 kts | 58° |
| 2026-04-23 02:39 | 34.87979 | 140.84580 | 36914 ft | 584 kts | 58° |
| 2026-04-23 02:39 | 34.91908 | 140.93195 | 36915 ft | 584 kts | 58° |
| 2026-04-23 02:40 | 34.95862 | 141.01889 | 36922 ft | 585 kts | 58° |
| 2026-04-23 02:40 | 34.99775 | 141.10516 | 36918 ft | 585 kts | 58° |
| 2026-04-23 02:41 | 35.03708 | 141.19211 | 36918 ft | 585 kts | 58° |
| 2026-04-23 02:41 | 35.07638 | 141.27921 | 36958 ft | 585 kts | 58° |
| 2026-04-23 02:42 | 35.11561 | 141.36637 | 36919 ft | 585 kts | 58° |
| 2026-04-23 02:42 | 35.15454 | 141.45308 | 36923 ft | 585 kts | 58° |
| 2026-04-23 02:43 | 35.19367 | 141.54046 | 36924 ft | 585 kts | 58° |
| 2026-04-23 02:43 | 35.23273 | 141.62792 | 36928 ft | 585 kts | 58° |
| 2026-04-23 02:44 | 35.27169 | 141.71537 | 36926 ft | 585 kts | 58° |
| 2026-04-23 02:44 | 35.31041 | 141.80249 | 36927 ft | 585 kts | 58° |
| 2026-04-23 02:45 | 35.34926 | 141.89016 | 36931 ft | 585 kts | 58° |
| 2026-04-23 02:45 | 35.38817 | 141.97816 | 36934 ft | 586 kts | 58° |
| 2026-04-23 02:46 | 35.42673 | 142.06562 | 36933 ft | 586 kts | 58° |
| 2026-04-23 02:46 | 35.46543 | 142.15363 | 36936 ft | 586 kts | 58° |
| 2026-04-23 02:47 | 35.50389 | 142.24133 | 36935 ft | 586 kts | 58° |
| 2026-04-23 02:47 | 35.54247 | 142.32951 | 36938 ft | 585 kts | 58° |
| 2026-04-23 02:48 | 35.58103 | 142.41791 | 36939 ft | 584 kts | 58° |
| 2026-04-23 02:48 | 35.61907 | 142.50530 | 36942 ft | 584 kts | 58° |
| 2026-04-23 02:49 | 35.65738 | 142.59357 | 36942 ft | 583 kts | 58° |
| 2026-04-23 02:49 | 35.69553 | 142.68169 | 36944 ft | 583 kts | 58° |
| 2026-04-23 02:50 | 35.73364 | 142.76996 | 36963 ft | 583 kts | 58° |
| 2026-04-23 02:50 | 35.77141 | 142.85768 | 36949 ft | 583 kts | 58° |
| 2026-04-23 02:51 | 35.80946 | 142.94627 | 36947 ft | 583 kts | 58° |
| 2026-04-23 02:51 | 35.84740 | 143.03486 | 36953 ft | 583 kts | 58° |
| 2026-04-23 02:52 | 35.88507 | 143.12304 | 36955 ft | 583 kts | 58° |
| 2026-04-23 02:52 | 35.92590 | 143.20940 | 36959 ft | 576 kts | 46° |
| 2026-04-23 02:52 | 35.95246 | 143.24550 | 36953 ft | 563 kts | 34° |
| 2026-04-23 02:53 | 35.98197 | 143.27605 | 36951 ft | 558 kts | 30° |
| 2026-04-23 02:53 | 36.04366 | 143.33396 | 36962 ft | 556 kts | 28° |
| 2026-04-23 02:54 | 36.10620 | 143.39051 | 36954 ft | 558 kts | 28° |
| 2026-04-23 02:54 | 36.16884 | 143.44755 | 36955 ft | 558 kts | 28° |
| 2026-04-23 02:55 | 36.23133 | 143.50506 | 36962 ft | 558 kts | 28° |
| 2026-04-23 02:55 | 36.29325 | 143.56233 | 36960 ft | 558 kts | 28° |
| 2026-04-23 02:56 | 36.35557 | 143.62010 | 36964 ft | 558 kts | 28° |
| 2026-04-23 02:56 | 36.41804 | 143.67806 | 36962 ft | 559 kts | 28° |
| 2026-04-23 02:57 | 36.48012 | 143.73580 | 36963 ft | 560 kts | 28° |
| 2026-04-23 02:57 | 36.54251 | 143.79395 | 36964 ft | 560 kts | 28° |
| 2026-04-23 02:58 | 36.60448 | 143.85182 | 36961 ft | 560 kts | 28° |
| 2026-04-23 02:58 | 36.66700 | 143.91031 | 36965 ft | 563 kts | 28° |
| 2026-04-23 02:59 | 36.72985 | 143.96922 | 36954 ft | 565 kts | 28° |
| 2026-04-23 02:59 | 36.79237 | 144.02800 | 36960 ft | 565 kts | 28° |
| 2026-04-23 03:00 | 36.85519 | 144.08719 | 36960 ft | 565 kts | 28° |
| 2026-04-23 03:00 | 36.91818 | 144.14663 | 36980 ft | 565 kts | 28° |
| 2026-04-23 03:01 | 36.98070 | 144.20574 | 36962 ft | 567 kts | 28° |
| 2026-04-23 03:01 | 37.04361 | 144.26538 | 36969 ft | 567 kts | 28° |
| 2026-04-23 03:02 | 37.10663 | 144.32540 | 36961 ft | 567 kts | 28° |
| 2026-04-23 03:02 | 37.16911 | 144.38499 | 36963 ft | 567 kts | 28° |
| 2026-04-23 03:03 | 37.23203 | 144.44513 | 36976 ft | 567 kts | 28° |
| 2026-04-23 03:03 | 37.29458 | 144.50502 | 36968 ft | 569 kts | 28° |
| 2026-04-23 03:04 | 37.35752 | 144.56544 | 36971 ft | 570 kts | 28° |
| 2026-04-23 03:04 | 37.42056 | 144.62610 | 36964 ft | 570 kts | 28° |
| 2026-04-23 03:05 | 37.48355 | 144.68684 | 36975 ft | 570 kts | 28° |
| 2026-04-23 03:05 | 37.54645 | 144.74763 | 36972 ft | 570 kts | 28° |
| 2026-04-23 03:06 | 37.60910 | 144.80830 | 36964 ft | 570 kts | 28° |
| 2026-04-23 03:06 | 37.67182 | 144.86916 | 36963 ft | 570 kts | 28° |
| 2026-04-23 03:07 | 37.73486 | 144.93048 | 36966 ft | 570 kts | 28° |
| 2026-04-23 03:07 | 37.79776 | 144.99180 | 37007 ft | 571 kts | 28° |
| 2026-04-23 03:08 | 37.86062 | 145.05320 | 36970 ft | 572 kts | 28° |
| 2026-04-23 03:08 | 37.92320 | 145.11447 | 36969 ft | 572 kts | 28° |
| 2026-04-23 03:09 | 37.98627 | 145.17636 | 36969 ft | 572 kts | 28° |
| 2026-04-23 03:09 | 38.04915 | 145.23821 | 36966 ft | 572 kts | 28° |
| 2026-04-23 03:10 | 38.11213 | 145.30029 | 36972 ft | 572 kts | 28° |
| 2026-04-23 03:10 | 38.17474 | 145.36215 | 36966 ft | 572 kts | 28° |
| 2026-04-23 03:11 | 38.23764 | 145.42443 | 36969 ft | 572 kts | 28° |
| 2026-04-23 03:11 | 38.30047 | 145.48678 | 36971 ft | 572 kts | 28° |
| 2026-04-23 03:12 | 38.36257 | 145.54984 | 36976 ft | 577 kts | 32° |
| 2026-04-23 03:12 | 38.42181 | 145.61983 | 36970 ft | 581 kts | 35° |
| 2026-04-23 03:13 | 38.47991 | 145.69116 | 36977 ft | 580 kts | 34° |
| 2026-04-23 03:13 | 38.53871 | 145.76197 | 36968 ft | 580 kts | 34° |
| 2026-04-23 03:14 | 38.59748 | 145.83176 | 36972 ft | 579 kts | 33° |
| 2026-04-23 03:14 | 38.65657 | 145.90182 | 36975 ft | 579 kts | 33° |
| 2026-04-23 03:15 | 38.71573 | 145.97218 | 36989 ft | 579 kts | 33° |
| 2026-04-23 03:15 | 38.77460 | 146.04243 | 36978 ft | 581 kts | 33° |
| 2026-04-23 03:16 | 38.83378 | 146.11328 | 36973 ft | 581 kts | 33° |
| 2026-04-23 03:16 | 38.91264 | 146.20797 | 36968 ft | 581 kts | 33° |
| 2026-04-23 03:17 | 38.97131 | 146.27859 | 36975 ft | 581 kts | 33° |
| 2026-04-23 03:17 | 39.03048 | 146.34998 | 36990 ft | 582 kts | 33° |
| 2026-04-23 03:18 | 39.08961 | 146.42145 | 36975 ft | 584 kts | 33° |
| 2026-04-23 03:18 | 39.14853 | 146.49289 | 36974 ft | 584 kts | 33° |
| 2026-04-23 03:19 | 39.20773 | 146.56485 | 36975 ft | 584 kts | 33° |
| 2026-04-23 03:19 | 39.26697 | 146.63703 | 36975 ft | 584 kts | 33° |
| 2026-04-23 03:20 | 39.32577 | 146.70883 | 37030 ft | 584 kts | 33° |
| 2026-04-23 03:20 | 39.38488 | 146.78118 | 36975 ft | 586 kts | 33° |
| 2026-04-23 03:21 | 39.44382 | 146.85349 | 36992 ft | 586 kts | 33° |
| 2026-04-23 03:21 | 39.50311 | 146.92645 | 36980 ft | 586 kts | 33° |
| 2026-04-23 03:22 | 39.56191 | 146.99898 | 36979 ft | 586 kts | 33° |
| 2026-04-23 03:22 | 39.62115 | 147.07222 | 36979 ft | 586 kts | 33° |
| 2026-04-23 03:23 | 39.68016 | 147.14536 | 36978 ft | 586 kts | 33° |
| 2026-04-23 03:23 | 39.73888 | 147.21832 | 36977 ft | 586 kts | 33° |
| 2026-04-23 03:24 | 39.79779 | 147.29170 | 36977 ft | 586 kts | 33° |
| 2026-04-23 03:24 | 39.85637 | 147.36484 | 36977 ft | 586 kts | 33° |
| 2026-04-23 03:25 | 39.91518 | 147.43845 | 36979 ft | 585 kts | 33° |
| 2026-04-23 03:25 | 39.97385 | 147.51209 | 36990 ft | 585 kts | 33° |
| 2026-04-23 03:26 | 40.03230 | 147.58561 | 36981 ft | 586 kts | 33° |
| 2026-04-23 03:26 | 40.09104 | 147.65971 | 36985 ft | 586 kts | 33° |
| 2026-04-23 03:27 | 40.14961 | 147.73378 | 36981 ft | 585 kts | 33° |
| 2026-04-23 03:27 | 40.20786 | 147.80762 | 36982 ft | 585 kts | 33° |
| 2026-04-23 03:28 | 40.26635 | 147.88194 | 37006 ft | 585 kts | 33° |
| 2026-04-23 03:28 | 40.32484 | 147.95646 | 36982 ft | 585 kts | 33° |
| 2026-04-23 03:29 | 40.38291 | 148.03064 | 36981 ft | 585 kts | 33° |
| 2026-04-23 03:29 | 40.44138 | 148.10552 | 37004 ft | 585 kts | 33° |
| 2026-04-23 03:30 | 40.49928 | 148.17987 | 36982 ft | 585 kts | 33° |
| 2026-04-23 03:30 | 40.55750 | 148.25480 | 36982 ft | 585 kts | 33° |
| 2026-04-23 03:31 | 40.61575 | 148.32997 | 36982 ft | 585 kts | 33° |
| 2026-04-23 03:31 | 40.67347 | 148.40465 | 36977 ft | 585 kts | 33° |
| 2026-04-23 03:32 | 40.73149 | 148.47991 | 36977 ft | 585 kts | 33° |
| 2026-04-23 03:32 | 40.78962 | 148.55550 | 36976 ft | 585 kts | 33° |
| 2026-04-23 03:33 | 40.84725 | 148.63064 | 36976 ft | 585 kts | 33° |
| 2026-04-23 03:33 | 40.90531 | 148.70653 | 37001 ft | 586 kts | 33° |
| 2026-04-23 03:34 | 40.96326 | 148.78249 | 36977 ft | 586 kts | 34° |
| 2026-04-23 03:34 | 41.02085 | 148.85817 | 36973 ft | 586 kts | 34° |
| 2026-04-23 03:35 | 41.07874 | 148.93446 | 36972 ft | 586 kts | 34° |
| 2026-04-23 03:35 | 41.13652 | 149.01085 | 36976 ft | 586 kts | 34° |
| 2026-04-23 03:36 | 41.19404 | 149.08709 | 36977 ft | 586 kts | 34° |
| 2026-04-23 03:36 | 41.25179 | 149.16386 | 36981 ft | 585 kts | 34° |
| 2026-04-23 03:37 | 41.30925 | 149.24045 | 36974 ft | 585 kts | 34° |
| 2026-04-23 03:37 | 41.36642 | 149.31683 | 36992 ft | 585 kts | 34° |
| 2026-04-23 03:38 | 41.42385 | 149.39376 | 36974 ft | 584 kts | 34° |
| 2026-04-23 03:38 | 41.48126 | 149.47086 | 36968 ft | 584 kts | 34° |
| 2026-04-23 03:39 | 41.53822 | 149.54757 | 36990 ft | 585 kts | 34° |
| 2026-04-23 03:39 | 41.59542 | 149.62486 | 36968 ft | 583 kts | 34° |
| 2026-04-23 03:40 | 41.65219 | 149.70172 | 36969 ft | 583 kts | 34° |
| 2026-04-23 03:40 | 41.70912 | 149.77900 | 36969 ft | 583 kts | 34° |
| 2026-04-23 03:41 | 41.76609 | 149.85655 | 36965 ft | 583 kts | 34° |
| 2026-04-23 03:41 | 41.82292 | 149.93412 | 36995 ft | 583 kts | 34° |
| 2026-04-23 03:42 | 41.87945 | 150.01151 | 36968 ft | 582 kts | 34° |
| 2026-04-23 03:42 | 41.93602 | 150.08917 | 36967 ft | 581 kts | 34° |
| 2026-04-23 03:43 | 41.99221 | 150.16648 | 36987 ft | 581 kts | 34° |
| 2026-04-23 03:43 | 42.04863 | 150.24432 | 36963 ft | 580 kts | 34° |
| 2026-04-23 03:44 | 42.10505 | 150.32237 | 36971 ft | 580 kts | 34° |
| 2026-04-23 03:44 | 42.16129 | 150.40038 | 36962 ft | 580 kts | 34° |
| 2026-04-23 03:45 | 42.21718 | 150.47814 | 36966 ft | 579 kts | 34° |
| 2026-04-23 03:45 | 42.27339 | 150.55657 | 36964 ft | 579 kts | 34° |
| 2026-04-23 03:46 | 42.32901 | 150.63435 | 36965 ft | 579 kts | 34° |
| 2026-04-23 03:46 | 42.38503 | 150.71290 | 36966 ft | 579 kts | 34° |
| 2026-04-23 03:47 | 42.44102 | 150.79163 | 36966 ft | 579 kts | 34° |
| 2026-04-23 03:47 | 42.49654 | 150.86992 | 36965 ft | 579 kts | 35° |
| 2026-04-23 03:48 | 42.55229 | 150.94878 | 36963 ft | 578 kts | 35° |
| 2026-04-23 03:48 | 42.60794 | 151.02771 | 36963 ft | 578 kts | 35° |
| 2026-04-23 03:49 | 42.66319 | 151.10626 | 36963 ft | 578 kts | 35° |
| 2026-04-23 03:49 | 42.71869 | 151.18537 | 36960 ft | 578 kts | 35° |
| 2026-04-23 03:50 | 42.77424 | 151.26480 | 36976 ft | 578 kts | 35° |
| 2026-04-23 03:50 | 42.82969 | 151.34430 | 37025 ft | 578 kts | 35° |
| 2026-04-23 03:51 | 42.88468 | 151.42337 | 36966 ft | 577 kts | 36° |
| 2026-04-23 03:51 | 42.93997 | 151.50308 | 36978 ft | 577 kts | 36° |
| 2026-04-23 03:52 | 42.99473 | 151.58225 | 36955 ft | 576 kts | 36° |
| 2026-04-23 03:52 | 43.04981 | 151.66209 | 36958 ft | 576 kts | 36° |
| 2026-04-23 03:53 | 43.10472 | 151.74191 | 36965 ft | 576 kts | 37° |
| 2026-04-23 03:53 | 43.15934 | 151.82155 | 36951 ft | 575 kts | 37° |
| 2026-04-23 03:54 | 43.21417 | 151.90171 | 36951 ft | 574 kts | 37° |
| 2026-04-23 03:54 | 43.26882 | 151.98184 | 36957 ft | 574 kts | 38° |
| 2026-04-23 03:55 | 43.32299 | 152.06149 | 36951 ft | 573 kts | 38° |
| 2026-04-23 03:55 | 43.37748 | 152.14181 | 36947 ft | 573 kts | 38° |
| 2026-04-23 03:56 | 43.43190 | 152.22226 | 36947 ft | 573 kts | 38° |
| 2026-04-23 03:56 | 43.48603 | 152.30252 | 36943 ft | 573 kts | 38° |
| 2026-04-23 03:57 | 43.54031 | 152.38324 | 36939 ft | 572 kts | 38° |
| 2026-04-23 03:57 | 43.59407 | 152.46343 | 36942 ft | 571 kts | 39° |
| 2026-04-23 03:58 | 43.64803 | 152.54413 | 36936 ft | 570 kts | 39° |
| 2026-04-23 03:58 | 43.70182 | 152.62477 | 36935 ft | 570 kts | 39° |
| 2026-04-23 03:59 | 43.75524 | 152.70511 | 36946 ft | 570 kts | 39° |
| 2026-04-23 03:59 | 43.80885 | 152.78598 | 36935 ft | 569 kts | 39° |
| 2026-04-23 04:00 | 43.86243 | 152.86702 | 36934 ft | 569 kts | 39° |
| 2026-04-23 04:00 | 43.91560 | 152.94766 | 36927 ft | 569 kts | 39° |
| 2026-04-23 04:01 | 43.96894 | 153.02882 | 36925 ft | 568 kts | 39° |
| 2026-04-23 04:01 | 44.02218 | 153.11004 | 36926 ft | 568 kts | 39° |
| 2026-04-23 04:02 | 44.07534 | 153.19137 | 36929 ft | 568 kts | 40° |
| 2026-04-23 04:02 | 44.12847 | 153.27291 | 36922 ft | 567 kts | 40° |
| 2026-04-23 04:03 | 44.18129 | 153.35418 | 36933 ft | 567 kts | 40° |
| 2026-04-23 04:03 | 44.23388 | 153.43536 | 36916 ft | 566 kts | 40° |
| 2026-04-23 04:04 | 44.27781 | 153.50333 | 36919 ft | 566 kts | 40° |
| 2026-04-23 04:04 | 44.33926 | 153.59868 | 36913 ft | 566 kts | 40° |
| 2026-04-23 04:05 | 44.38308 | 153.66688 | 36929 ft | 566 kts | 40° |
| 2026-04-23 04:05 | 44.43571 | 153.74902 | 36908 ft | 566 kts | 41° |
| 2026-04-23 04:06 | 44.48823 | 153.83122 | 36909 ft | 566 kts | 41° |
| 2026-04-23 04:06 | 44.54073 | 153.91364 | 36896 ft | 565 kts | 41° |
| 2026-04-23 04:07 | 44.59266 | 153.99542 | 36903 ft | 563 kts | 41° |
| 2026-04-23 04:07 | 44.64478 | 154.07772 | 36898 ft | 562 kts | 41° |
| 2026-04-23 04:08 | 44.69643 | 154.15949 | 36897 ft | 563 kts | 41° |
| 2026-04-23 04:08 | 44.74854 | 154.24223 | 36895 ft | 562 kts | 42° |
| 2026-04-23 04:09 | 44.80018 | 154.32450 | 36892 ft | 562 kts | 42° |
| 2026-04-23 04:09 | 44.85192 | 154.40715 | 37006 ft | 561 kts | 42° |
| 2026-04-23 04:10 | 44.87763 | 154.44851 | 37410 ft | 556 kts | 43° |
| 2026-04-23 04:10 | 44.90278 | 154.48968 | 37821 ft | 551 kts | 44° |
| 2026-04-23 04:10 | 44.92744 | 154.53041 | 38036 ft | 550 kts | 44° |
| 2026-04-23 04:10 | 44.95225 | 154.57150 | 38159 ft | 551 kts | 44° |
| 2026-04-23 04:11 | 44.97720 | 154.61285 | 38270 ft | 551 kts | 44° |
| 2026-04-23 04:11 | 45.00204 | 154.65400 | 38400 ft | 551 kts | 44° |
| 2026-04-23 04:11 | 45.02694 | 154.69527 | 38527 ft | 551 kts | 44° |
| 2026-04-23 04:11 | 45.05158 | 154.73612 | 38664 ft | 550 kts | 44° |
| 2026-04-23 04:12 | 45.07636 | 154.77727 | 38800 ft | 549 kts | 44° |
| 2026-04-23 04:12 | 45.10121 | 154.81856 | 38874 ft | 549 kts | 44° |
| 2026-04-23 04:12 | 45.15095 | 154.90135 | 38871 ft | 553 kts | 44° |
| 2026-04-23 04:13 | 45.20081 | 154.98462 | 38897 ft | 553 kts | 45° |
| 2026-04-23 04:13 | 45.25017 | 155.06739 | 38870 ft | 550 kts | 45° |
| 2026-04-23 04:14 | 45.29964 | 155.15053 | 38868 ft | 549 kts | 45° |
| 2026-04-23 04:14 | 45.34895 | 155.23363 | 38867 ft | 549 kts | 45° |
| 2026-04-23 04:15 | 45.39802 | 155.31656 | 38868 ft | 549 kts | 45° |
| 2026-04-23 04:16 | 45.47158 | 155.44139 | 38865 ft | 549 kts | 45° |
| 2026-04-23 04:16 | 45.52039 | 155.52451 | 38862 ft | 549 kts | 45° |
| 2026-04-23 04:17 | 45.56939 | 155.60822 | 38860 ft | 548 kts | 46° |
| 2026-04-23 04:17 | 45.61822 | 155.69189 | 38856 ft | 547 kts | 46° |
| 2026-04-23 04:18 | 45.66671 | 155.77522 | 38856 ft | 547 kts | 46° |
| 2026-04-23 04:18 | 45.71535 | 155.85903 | 38853 ft | 547 kts | 46° |
| 2026-04-23 04:19 | 45.76401 | 155.94316 | 38853 ft | 547 kts | 46° |
| 2026-04-23 04:19 | 45.81228 | 156.02685 | 38851 ft | 547 kts | 47° |
| 2026-04-23 04:20 | 45.86085 | 156.11134 | 38845 ft | 547 kts | 47° |
| 2026-04-23 04:20 | 45.90931 | 156.19586 | 38849 ft | 547 kts | 47° |
| 2026-04-23 04:21 | 45.95734 | 156.27992 | 38839 ft | 546 kts | 47° |
| 2026-04-23 04:21 | 46.00553 | 156.36450 | 38840 ft | 545 kts | 47° |
| 2026-04-23 04:22 | 46.05339 | 156.44874 | 38840 ft | 545 kts | 47° |
| 2026-04-23 04:22 | 46.10145 | 156.53360 | 38834 ft | 545 kts | 47° |
| 2026-04-23 04:23 | 46.14907 | 156.61795 | 38826 ft | 545 kts | 47° |
| 2026-04-23 04:23 | 46.19693 | 156.70296 | 38829 ft | 545 kts | 47° |
| 2026-04-23 04:24 | 46.24472 | 156.78812 | 38842 ft | 545 kts | 47° |
| 2026-04-23 04:24 | 46.29204 | 156.87272 | 38817 ft | 544 kts | 48° |
| 2026-04-23 04:25 | 46.33967 | 156.95812 | 38823 ft | 543 kts | 48° |
| 2026-04-23 04:25 | 46.38709 | 157.04338 | 38820 ft | 543 kts | 48° |
| 2026-04-23 04:26 | 46.43433 | 157.12861 | 38815 ft | 542 kts | 48° |
| 2026-04-23 04:26 | 46.48133 | 157.21366 | 38810 ft | 542 kts | 48° |
| 2026-04-23 04:27 | 46.52856 | 157.29937 | 38807 ft | 542 kts | 48° |
| 2026-04-23 04:27 | 46.57565 | 157.38511 | 38810 ft | 542 kts | 48° |
| 2026-04-23 04:28 | 46.64575 | 157.51326 | 38807 ft | 539 kts | 49° |
| 2026-04-23 04:28 | 46.69249 | 157.59902 | 38800 ft | 538 kts | 49° |
| 2026-04-23 04:29 | 46.73872 | 157.68409 | 38801 ft | 538 kts | 49° |
| 2026-04-23 04:29 | 46.78539 | 157.77025 | 38800 ft | 538 kts | 49° |
| 2026-04-23 04:30 | 46.83145 | 157.85555 | 38798 ft | 538 kts | 49° |
| 2026-04-23 04:30 | 46.87788 | 157.94181 | 38800 ft | 538 kts | 49° |
| 2026-04-23 04:31 | 46.92412 | 158.02798 | 38799 ft | 538 kts | 49° |
| 2026-04-23 04:31 | 46.97008 | 158.11389 | 38801 ft | 538 kts | 49° |
| 2026-04-23 04:32 | 47.01613 | 158.20026 | 38796 ft | 535 kts | 50° |
| 2026-04-23 04:32 | 47.06189 | 158.28635 | 38793 ft | 534 kts | 50° |
| 2026-04-23 04:33 | 47.10740 | 158.37220 | 38796 ft | 534 kts | 50° |
| 2026-04-23 04:33 | 47.15308 | 158.45867 | 38794 ft | 534 kts | 50° |
| 2026-04-23 04:34 | 47.19841 | 158.54474 | 38796 ft | 534 kts | 50° |
| 2026-04-23 04:34 | 47.24389 | 158.63138 | 38790 ft | 534 kts | 50° |
| 2026-04-23 04:35 | 47.28928 | 158.71811 | 38785 ft | 534 kts | 50° |
| 2026-04-23 04:35 | 47.33436 | 158.80451 | 38791 ft | 534 kts | 50° |
| 2026-04-23 04:36 | 47.37968 | 158.89167 | 38786 ft | 533 kts | 50° |
| 2026-04-23 04:36 | 47.42472 | 158.97855 | 38787 ft | 533 kts | 50° |
| 2026-04-23 04:37 | 47.46946 | 159.06512 | 38785 ft | 532 kts | 50° |
| 2026-04-23 04:37 | 47.51445 | 159.15246 | 38785 ft | 532 kts | 50° |
| 2026-04-23 04:38 | 47.55931 | 159.23983 | 38788 ft | 532 kts | 50° |
| 2026-04-23 04:38 | 47.60378 | 159.32671 | 38786 ft | 533 kts | 50° |
| 2026-04-23 04:39 | 47.64865 | 159.41464 | 38783 ft | 533 kts | 50° |
| 2026-04-23 04:39 | 47.69331 | 159.50246 | 38791 ft | 531 kts | 51° |
| 2026-04-23 04:40 | 47.73749 | 159.58961 | 38785 ft | 530 kts | 51° |
| 2026-04-23 04:40 | 47.78183 | 159.67734 | 38795 ft | 529 kts | 51° |
| 2026-04-23 04:41 | 47.82590 | 159.76483 | 38788 ft | 530 kts | 51° |
| 2026-04-23 04:41 | 47.86989 | 159.85245 | 38789 ft | 529 kts | 51° |
| 2026-04-23 04:42 | 47.91386 | 159.94029 | 38791 ft | 529 kts | 51° |
| 2026-04-23 04:42 | 47.95794 | 160.02864 | 38792 ft | 529 kts | 51° |
| 2026-04-23 04:43 | 48.00156 | 160.11636 | 38794 ft | 529 kts | 51° |
| 2026-04-23 04:43 | 48.04537 | 160.20476 | 38795 ft | 527 kts | 52° |
| 2026-04-23 04:44 | 48.08896 | 160.29299 | 38799 ft | 526 kts | 52° |
| 2026-04-23 04:44 | 48.13223 | 160.38084 | 38801 ft | 526 kts | 52° |
| 2026-04-23 04:45 | 48.17574 | 160.46948 | 38801 ft | 526 kts | 52° |
| 2026-04-23 04:45 | 48.21873 | 160.55736 | 38805 ft | 526 kts | 52° |
| 2026-04-23 04:46 | 48.26215 | 160.64638 | 38806 ft | 526 kts | 52° |
| 2026-04-23 04:46 | 48.30474 | 160.73488 | 38807 ft | 526 kts | 53° |
| 2026-04-23 04:47 | 48.34635 | 160.82548 | 38811 ft | 526 kts | 54° |
| 2026-04-23 04:47 | 48.38776 | 160.91653 | 38813 ft | 525 kts | 54° |
| 2026-04-23 04:48 | 48.42883 | 161.00654 | 38813 ft | 524 kts | 54° |
| 2026-04-23 04:48 | 48.47031 | 161.09737 | 38814 ft | 524 kts | 54° |
| 2026-04-23 04:49 | 48.50465 | 161.17275 | 38814 ft | 524 kts | 54° |
| 2026-04-23 04:49 | 48.55253 | 161.27822 | 38817 ft | 524 kts | 54° |
| 2026-04-23 04:50 | 48.58673 | 161.35382 | 38817 ft | 524 kts | 54° |
| 2026-04-23 04:50 | 48.62779 | 161.44488 | 38813 ft | 523 kts | 54° |
| 2026-04-23 04:51 | 48.66880 | 161.53613 | 38816 ft | 523 kts | 54° |
| 2026-04-23 04:51 | 48.70967 | 161.62738 | 38817 ft | 523 kts | 54° |
| 2026-04-23 04:52 | 48.75025 | 161.71830 | 38813 ft | 523 kts | 55° |
| 2026-04-23 04:52 | 48.79096 | 161.80980 | 38816 ft | 522 kts | 55° |
| 2026-04-23 04:53 | 48.83152 | 161.90128 | 38815 ft | 522 kts | 55° |
| 2026-04-23 04:53 | 48.87175 | 161.99233 | 38815 ft | 522 kts | 55° |
| 2026-04-23 04:54 | 48.91213 | 162.08403 | 38813 ft | 522 kts | 55° |
| 2026-04-23 04:54 | 48.95248 | 162.17596 | 38815 ft | 522 kts | 55° |
| 2026-04-23 04:55 | 48.99252 | 162.26752 | 38816 ft | 521 kts | 55° |
| 2026-04-23 04:55 | 49.03276 | 162.35985 | 38816 ft | 521 kts | 56° |
| 2026-04-23 04:56 | 49.07285 | 162.45213 | 38814 ft | 521 kts | 56° |
| 2026-04-23 04:56 | 49.11257 | 162.54389 | 38814 ft | 521 kts | 56° |
| 2026-04-23 04:57 | 49.15251 | 162.63648 | 38814 ft | 520 kts | 56° |
| 2026-04-23 04:57 | 49.19231 | 162.72907 | 38817 ft | 520 kts | 56° |
| 2026-04-23 04:58 | 49.23180 | 162.82125 | 38820 ft | 520 kts | 56° |
| 2026-04-23 04:58 | 49.27143 | 162.91407 | 38816 ft | 520 kts | 56° |
| 2026-04-23 04:59 | 49.31098 | 163.00704 | 38816 ft | 520 kts | 56° |
| 2026-04-23 04:59 | 49.35019 | 163.09953 | 38815 ft | 520 kts | 56° |
| 2026-04-23 05:00 | 49.38961 | 163.19284 | 38819 ft | 520 kts | 56° |
| 2026-04-23 05:00 | 49.42874 | 163.28577 | 38820 ft | 520 kts | 56° |
| 2026-04-23 05:01 | 49.46792 | 163.37917 | 38815 ft | 519 kts | 56° |
| 2026-04-23 05:01 | 49.50709 | 163.47286 | 38815 ft | 519 kts | 56° |
| 2026-04-23 05:02 | 49.54609 | 163.56650 | 38815 ft | 519 kts | 56° |
| 2026-04-23 05:02 | 49.58480 | 163.65974 | 38815 ft | 519 kts | 57° |
| 2026-04-23 05:03 | 49.62373 | 163.75385 | 38815 ft | 519 kts | 57° |
| 2026-04-23 05:03 | 49.66225 | 163.84730 | 38815 ft | 518 kts | 57° |
| 2026-04-23 05:04 | 49.70095 | 163.94155 | 38815 ft | 518 kts | 57° |
| 2026-04-23 05:04 | 49.73931 | 164.03526 | 38815 ft | 519 kts | 57° |
| 2026-04-23 05:05 | 49.77781 | 164.12967 | 38815 ft | 519 kts | 57° |
| 2026-04-23 05:05 | 49.81625 | 164.22429 | 38812 ft | 518 kts | 57° |
| 2026-04-23 05:06 | 49.85454 | 164.31885 | 38815 ft | 517 kts | 57° |
| 2026-04-23 05:06 | 49.89251 | 164.41296 | 38815 ft | 516 kts | 57° |
| 2026-04-23 05:07 | 49.93064 | 164.50782 | 38815 ft | 517 kts | 57° |
| 2026-04-23 05:07 | 49.96847 | 164.60227 | 38812 ft | 517 kts | 57° |
| 2026-04-23 05:08 | 50.00646 | 164.69744 | 38812 ft | 517 kts | 57° |
| 2026-04-23 05:08 | 50.04413 | 164.79219 | 38810 ft | 517 kts | 57° |
| 2026-04-23 05:09 | 50.08194 | 164.88760 | 38810 ft | 517 kts | 57° |
| 2026-04-23 05:09 | 50.11974 | 164.98337 | 38809 ft | 518 kts | 58° |
| 2026-04-23 05:10 | 50.15719 | 165.07857 | 38812 ft | 517 kts | 58° |
| 2026-04-23 05:10 | 50.19467 | 165.17446 | 38810 ft | 516 kts | 58° |
| 2026-04-23 05:11 | 50.23172 | 165.27088 | 38807 ft | 517 kts | 58° |
| 2026-04-23 05:11 | 50.26838 | 165.36687 | 38807 ft | 517 kts | 58° |
| 2026-04-23 05:12 | 50.30534 | 165.46385 | 38810 ft | 517 kts | 58° |
| 2026-04-23 05:12 | 50.34213 | 165.56058 | 38808 ft | 517 kts | 58° |
| 2026-04-23 05:13 | 50.37862 | 165.65689 | 38804 ft | 518 kts | 58° |
| 2026-04-23 05:14 | 50.43379 | 165.80314 | 38806 ft | 518 kts | 58° |
| 2026-04-23 05:14 | 50.47019 | 165.90012 | 38804 ft | 518 kts | 58° |
| 2026-04-23 05:15 | 50.50674 | 165.99787 | 38807 ft | 518 kts | 58° |
| 2026-04-23 05:15 | 50.54325 | 166.09587 | 38808 ft | 519 kts | 59° |
| 2026-04-23 05:16 | 50.57953 | 166.19363 | 38805 ft | 519 kts | 59° |
| 2026-04-23 05:16 | 50.61595 | 166.29212 | 38802 ft | 519 kts | 59° |
| 2026-04-23 05:17 | 50.65201 | 166.39004 | 38804 ft | 519 kts | 59° |
| 2026-04-23 05:17 | 50.68822 | 166.48873 | 38801 ft | 519 kts | 59° |
| 2026-04-23 05:18 | 50.72414 | 166.58699 | 38797 ft | 519 kts | 59° |
| 2026-04-23 05:18 | 50.76022 | 166.68610 | 38798 ft | 519 kts | 59° |
| 2026-04-23 05:19 | 50.79623 | 166.78539 | 38808 ft | 519 kts | 59° |
| 2026-04-23 05:19 | 50.83190 | 166.88412 | 38801 ft | 520 kts | 59° |
| 2026-04-23 05:20 | 50.86778 | 166.98381 | 38796 ft | 520 kts | 59° |
| 2026-04-23 05:20 | 50.90337 | 167.08310 | 38795 ft | 520 kts | 59° |
| 2026-04-23 05:21 | 50.93906 | 167.18306 | 38792 ft | 520 kts | 59° |
| 2026-04-23 05:21 | 50.97446 | 167.28258 | 38794 ft | 520 kts | 59° |
| 2026-04-23 05:22 | 51.01011 | 167.38320 | 38792 ft | 521 kts | 59° |
| 2026-04-23 05:22 | 51.04535 | 167.48305 | 38790 ft | 521 kts | 59° |
| 2026-04-23 05:23 | 51.08075 | 167.58377 | 38790 ft | 521 kts | 60° |
| 2026-04-23 05:23 | 51.11606 | 167.68462 | 38784 ft | 521 kts | 60° |
| 2026-04-23 05:24 | 51.15111 | 167.78514 | 38783 ft | 522 kts | 60° |
| 2026-04-23 05:24 | 51.18634 | 167.88658 | 38790 ft | 522 kts | 60° |
| 2026-04-23 05:25 | 51.22137 | 167.98784 | 38782 ft | 521 kts | 60° |
| 2026-04-23 05:25 | 51.25604 | 168.08846 | 38783 ft | 520 kts | 60° |
| 2026-04-23 05:26 | 51.29099 | 168.19030 | 38779 ft | 520 kts | 60° |
| 2026-04-23 05:26 | 51.32547 | 168.29121 | 38777 ft | 520 kts | 60° |
| 2026-04-23 05:27 | 51.36016 | 168.39311 | 38777 ft | 520 kts | 60° |
| 2026-04-23 05:27 | 51.39472 | 168.49505 | 38773 ft | 520 kts | 60° |
| 2026-04-23 05:28 | 51.42903 | 168.59666 | 38776 ft | 521 kts | 60° |
| 2026-04-23 05:28 | 51.46350 | 168.69918 | 38768 ft | 521 kts | 60° |
| 2026-04-23 05:29 | 51.49785 | 168.80173 | 38766 ft | 521 kts | 60° |
| 2026-04-23 05:29 | 51.53195 | 168.90398 | 38767 ft | 521 kts | 61° |
| 2026-04-23 05:30 | 51.56612 | 169.00685 | 38761 ft | 520 kts | 61° |
| 2026-04-23 05:30 | 51.59995 | 169.10912 | 38763 ft | 520 kts | 61° |
| 2026-04-23 05:31 | 51.63394 | 169.21230 | 38759 ft | 520 kts | 61° |
| 2026-04-23 05:31 | 51.66763 | 169.31501 | 38757 ft | 520 kts | 61° |
| 2026-04-23 05:32 | 51.70125 | 169.41793 | 38754 ft | 520 kts | 61° |
| 2026-04-23 05:32 | 51.73496 | 169.52154 | 38749 ft | 520 kts | 61° |
| 2026-04-23 05:33 | 51.76853 | 169.62516 | 38749 ft | 520 kts | 62° |
| 2026-04-23 05:33 | 51.80175 | 169.72814 | 38746 ft | 520 kts | 62° |
| 2026-04-23 05:34 | 51.83518 | 169.83220 | 38747 ft | 520 kts | 62° |
| 2026-04-23 05:34 | 51.86852 | 169.93640 | 38744 ft | 520 kts | 62° |
| 2026-04-23 05:35 | 51.90150 | 170.03995 | 38730 ft | 520 kts | 62° |
| 2026-04-23 05:35 | 51.93463 | 170.14438 | 38740 ft | 520 kts | 62° |
| 2026-04-23 05:36 | 51.96766 | 170.24898 | 38733 ft | 520 kts | 62° |
| 2026-04-23 05:36 | 52.00035 | 170.35292 | 38718 ft | 520 kts | 62° |
| 2026-04-23 05:37 | 52.03320 | 170.45782 | 38735 ft | 520 kts | 62° |
| 2026-04-23 05:37 | 52.06594 | 170.56281 | 38725 ft | 520 kts | 62° |
| 2026-04-23 05:38 | 52.09838 | 170.66729 | 38709 ft | 520 kts | 62° |
| 2026-04-23 05:38 | 52.12915 | 170.75117 | 38712 ft | 518 kts | 51° |
| 2026-04-23 05:39 | 52.17473 | 170.84205 | 38723 ft | 518 kts | 48° |
| 2026-04-23 05:39 | 52.22189 | 170.93111 | 38702 ft | 517 kts | 47° |
| 2026-04-23 05:40 | 52.26889 | 171.01946 | 38710 ft | 518 kts | 47° |
| 2026-04-23 05:40 | 52.31606 | 171.10887 | 38693 ft | 518 kts | 48° |
| 2026-04-23 05:41 | 52.36298 | 171.19846 | 38694 ft | 518 kts | 48° |
| 2026-04-23 05:41 | 52.40966 | 171.28800 | 38694 ft | 519 kts | 48° |
| 2026-04-23 05:42 | 52.45650 | 171.37814 | 38710 ft | 518 kts | 48° |
| 2026-04-23 05:42 | 52.50300 | 171.46796 | 38690 ft | 519 kts | 48° |
| 2026-04-23 05:43 | 52.54975 | 171.55852 | 38691 ft | 519 kts | 48° |
| 2026-04-23 05:43 | 52.59644 | 171.64934 | 38678 ft | 519 kts | 49° |
| 2026-04-23 05:44 | 52.64286 | 171.73995 | 38673 ft | 518 kts | 49° |
| 2026-04-23 05:44 | 52.68898 | 171.83031 | 38673 ft | 517 kts | 49° |
| 2026-04-23 05:45 | 52.73546 | 171.92173 | 38689 ft | 519 kts | 49° |
| 2026-04-23 05:45 | 52.78170 | 172.01295 | 38665 ft | 521 kts | 49° |
| 2026-04-23 05:46 | 52.82821 | 172.10504 | 38665 ft | 520 kts | 49° |
| 2026-04-23 05:46 | 52.87454 | 172.19715 | 38651 ft | 519 kts | 49° |
| 2026-04-23 05:47 | 52.92062 | 172.28912 | 38656 ft | 523 kts | 49° |
| 2026-04-23 05:47 | 52.96715 | 172.38228 | 38647 ft | 524 kts | 49° |
| 2026-04-23 05:48 | 53.01359 | 172.47559 | 38631 ft | 523 kts | 49° |
| 2026-04-23 05:48 | 53.05967 | 172.56855 | 38634 ft | 522 kts | 49° |
| 2026-04-23 05:49 | 53.10573 | 172.66184 | 38625 ft | 519 kts | 49° |
| 2026-04-23 05:49 | 53.15173 | 172.75537 | 38629 ft | 523 kts | 49° |
| 2026-04-23 05:50 | 53.19749 | 172.84868 | 38623 ft | 520 kts | 50° |
| 2026-04-23 05:50 | 53.24328 | 172.94250 | 38624 ft | 522 kts | 49° |
| 2026-04-23 05:51 | 53.28890 | 173.03623 | 38610 ft | 521 kts | 50° |
| 2026-04-23 05:51 | 53.33454 | 173.13041 | 38610 ft | 519 kts | 49° |
| 2026-04-23 05:52 | 53.38019 | 173.22499 | 38596 ft | 524 kts | 49° |
| 2026-04-23 05:52 | 53.42608 | 173.32032 | 38593 ft | 522 kts | 50° |
| 2026-04-23 05:53 | 53.47126 | 173.41466 | 38590 ft | 523 kts | 50° |
| 2026-04-23 05:53 | 53.51692 | 173.51030 | 38587 ft | 525 kts | 49° |
| 2026-04-23 05:54 | 53.55903 | 173.61134 | 38573 ft | 530 kts | 55° |
| 2026-04-23 05:54 | 53.59865 | 173.71441 | 38579 ft | 525 kts | 56° |
| 2026-04-23 05:55 | 53.63786 | 173.81816 | 38560 ft | 521 kts | 57° |
| 2026-04-23 05:55 | 53.67673 | 173.92136 | 38565 ft | 522 kts | 56° |
| 2026-04-23 05:56 | 53.71556 | 174.02461 | 38550 ft | 525 kts | 56° |
| 2026-04-23 05:56 | 53.75475 | 174.12912 | 38551 ft | 527 kts | 56° |
| 2026-04-23 05:57 | 53.79375 | 174.23360 | 38541 ft | 525 kts | 56° |
| 2026-04-23 05:57 | 53.83251 | 174.33789 | 38534 ft | 520 kts | 57° |
| 2026-04-23 05:58 | 53.87086 | 174.44147 | 38525 ft | 524 kts | 57° |
| 2026-04-23 05:58 | 53.90968 | 174.54679 | 38517 ft | 527 kts | 57° |
| 2026-04-23 05:59 | 53.94850 | 174.65254 | 38511 ft | 525 kts | 57° |
| 2026-04-23 05:59 | 53.98679 | 174.75730 | 38500 ft | 523 kts | 57° |
| 2026-04-23 06:00 | 54.02505 | 174.86243 | 38502 ft | 523 kts | 57° |
| 2026-04-23 06:00 | 54.06338 | 174.96819 | 38503 ft | 525 kts | 57° |
| 2026-04-23 06:01 | 54.10184 | 175.07475 | 38501 ft | 529 kts | 58° |
| 2026-04-23 06:01 | 54.14016 | 175.18139 | 38489 ft | 525 kts | 58° |
| 2026-04-23 06:02 | 54.17805 | 175.28731 | 38489 ft | 520 kts | 58° |
| 2026-04-23 06:02 | 54.21559 | 175.39268 | 38470 ft | 523 kts | 57° |
| 2026-04-23 06:03 | 54.25346 | 175.49944 | 38474 ft | 526 kts | 57° |
| 2026-04-23 06:03 | 54.29115 | 175.60613 | 38463 ft | 524 kts | 58° |
| 2026-04-23 06:04 | 54.32882 | 175.71325 | 38457 ft | 521 kts | 58° |
| 2026-04-23 06:04 | 54.36611 | 175.81976 | 38448 ft | 522 kts | 58° |
| 2026-04-23 06:05 | 54.40329 | 175.92641 | 38448 ft | 525 kts | 58° |
| 2026-04-23 06:05 | 54.44087 | 176.03464 | 38441 ft | 526 kts | 58° |
| 2026-04-23 06:06 | 54.47794 | 176.14193 | 38435 ft | 522 kts | 58° |
| 2026-04-23 06:06 | 54.51483 | 176.24916 | 38413 ft | 520 kts | 58° |
| 2026-04-23 06:07 | 54.55176 | 176.35696 | 38406 ft | 523 kts | 58° |
| 2026-04-23 06:07 | 54.58886 | 176.46570 | 38407 ft | 527 kts | 59° |
| 2026-04-23 06:08 | 54.62554 | 176.57374 | 38387 ft | 523 kts | 59° |
| 2026-04-23 06:08 | 54.66199 | 176.68158 | 38387 ft | 519 kts | 59° |
| 2026-04-23 06:09 | 54.69849 | 176.79002 | 38374 ft | 522 kts | 59° |
| 2026-04-23 06:09 | 54.73480 | 176.89839 | 38381 ft | 524 kts | 59° |
| 2026-04-23 06:10 | 54.77123 | 177.00761 | 38371 ft | 522 kts | 59° |
| 2026-04-23 06:10 | 54.80740 | 177.11653 | 38353 ft | 518 kts | 59° |
| 2026-04-23 06:11 | 54.84319 | 177.22480 | 38344 ft | 521 kts | 59° |
| 2026-04-23 06:11 | 54.87942 | 177.33487 | 38336 ft | 526 kts | 59° |
| 2026-04-23 06:12 | 54.91524 | 177.44420 | 38343 ft | 522 kts | 60° |
| 2026-04-23 06:12 | 54.96869 | 177.60829 | 38327 ft | 519 kts | 60° |
| 2026-04-23 06:13 | 55.00438 | 177.71848 | 38332 ft | 521 kts | 60° |
| 2026-04-23 06:13 | 55.03980 | 177.82831 | 38301 ft | 520 kts | 60° |
| 2026-04-23 06:14 | 55.07518 | 177.93852 | 38314 ft | 518 kts | 60° |
| 2026-04-23 06:14 | 55.10997 | 178.04742 | 38305 ft | 517 kts | 60° |
| 2026-04-23 06:15 | 55.14509 | 178.15784 | 38301 ft | 520 kts | 60° |
| 2026-04-23 06:15 | 55.18020 | 178.26871 | 38273 ft | 520 kts | 60° |
| 2026-04-23 06:16 | 55.21494 | 178.37898 | 38287 ft | 518 kts | 60° |
| 2026-04-23 06:16 | 55.24966 | 178.48967 | 38274 ft | 518 kts | 60° |
| 2026-04-23 06:17 | 55.28437 | 178.60083 | 38260 ft | 521 kts | 60° |
| 2026-04-23 06:17 | 55.31896 | 178.71212 | 38253 ft | 519 kts | 60° |
| 2026-04-23 06:18 | 55.35338 | 178.82307 | 38249 ft | 518 kts | 61° |
| 2026-04-23 06:18 | 55.38786 | 178.93435 | 38228 ft | 518 kts | 61° |
| 2026-04-23 06:19 | 55.42236 | 179.04617 | 38244 ft | 522 kts | 61° |
| 2026-04-23 06:19 | 55.45695 | 179.15889 | 38229 ft | 521 kts | 61° |
| 2026-04-23 06:20 | 55.49099 | 179.27042 | 38230 ft | 517 kts | 61° |
| 2026-04-23 06:20 | 55.52506 | 179.38257 | 38208 ft | 520 kts | 61° |
| 2026-04-23 06:21 | 55.55918 | 179.49540 | 38207 ft | 521 kts | 62° |
| 2026-04-23 06:21 | 55.59312 | 179.60817 | 38189 ft | 518 kts | 62° |
| 2026-04-23 06:22 | 55.62676 | 179.72049 | 38188 ft | 515 kts | 62° |
| 2026-04-23 06:22 | 55.66009 | 179.83229 | 38175 ft | 517 kts | 62° |
| 2026-04-23 06:23 | 55.69377 | 179.94581 | 38172 ft | 520 kts | 62° |
| 2026-04-23 06:23 | 55.72712 | -179.94124 | 38161 ft | 518 kts | 62° |
| 2026-04-23 06:24 | 55.76041 | -179.82795 | 38166 ft | 516 kts | 62° |
| 2026-04-23 06:24 | 55.79329 | -179.71552 | 38172 ft | 515 kts | 62° |
| 2026-04-23 06:25 | 55.82071 | -179.62132 | 38168 ft | 515 kts | 62° |
| 2026-04-23 06:25 | 55.85353 | -179.50806 | 38154 ft | 514 kts | 62° |
| 2026-04-23 06:26 | 55.88631 | -179.39443 | 38151 ft | 514 kts | 63° |
| 2026-04-23 06:26 | 55.91877 | -179.28135 | 38144 ft | 514 kts | 63° |
| 2026-04-23 06:27 | 55.95130 | -179.16744 | 38144 ft | 514 kts | 63° |
| 2026-04-23 06:27 | 55.98374 | -179.05332 | 38135 ft | 514 kts | 63° |
| 2026-04-23 06:28 | 56.01607 | -178.93899 | 38132 ft | 514 kts | 63° |
| 2026-04-23 06:28 | 56.04811 | -178.82516 | 38128 ft | 514 kts | 63° |
| 2026-04-23 06:29 | 56.08026 | -178.71036 | 38121 ft | 514 kts | 63° |
| 2026-04-23 06:29 | 56.11218 | -178.59579 | 38107 ft | 514 kts | 63° |
| 2026-04-23 06:30 | 56.14390 | -178.48138 | 38109 ft | 514 kts | 63° |
| 2026-04-23 06:30 | 56.17548 | -178.36694 | 38099 ft | 514 kts | 63° |
| 2026-04-23 06:31 | 56.20714 | -178.25159 | 38098 ft | 514 kts | 64° |
| 2026-04-23 06:31 | 56.23867 | -178.13616 | 38087 ft | 514 kts | 64° |
| 2026-04-23 06:32 | 56.26991 | -178.02117 | 38088 ft | 514 kts | 64° |
| 2026-04-23 06:32 | 56.30127 | -177.90519 | 38082 ft | 514 kts | 64° |
| 2026-04-23 06:33 | 56.33252 | -177.78903 | 38075 ft | 514 kts | 64° |
| 2026-04-23 06:33 | 56.36363 | -177.67278 | 38067 ft | 513 kts | 64° |
| 2026-04-23 06:34 | 56.39442 | -177.55716 | 38068 ft | 513 kts | 64° |
| 2026-04-23 06:34 | 56.42527 | -177.44066 | 38060 ft | 513 kts | 65° |
| 2026-04-23 06:35 | 56.45583 | -177.32470 | 38059 ft | 513 kts | 65° |
| 2026-04-23 06:35 | 56.48648 | -177.20779 | 38052 ft | 513 kts | 65° |
| 2026-04-23 06:36 | 56.51701 | -177.09073 | 38047 ft | 513 kts | 65° |
| 2026-04-23 06:36 | 56.54728 | -176.97408 | 38037 ft | 514 kts | 65° |
| 2026-04-23 06:37 | 56.57766 | -176.85636 | 38042 ft | 514 kts | 65° |
| 2026-04-23 06:37 | 56.60789 | -176.73862 | 38033 ft | 514 kts | 65° |
| 2026-04-23 06:38 | 56.63784 | -176.62138 | 38032 ft | 514 kts | 65° |
| 2026-04-23 06:38 | 56.66788 | -176.50312 | 38020 ft | 514 kts | 66° |
| 2026-04-23 06:39 | 56.69766 | -176.38527 | 38022 ft | 514 kts | 66° |
| 2026-04-23 06:39 | 56.72749 | -176.26658 | 38015 ft | 514 kts | 66° |
| 2026-04-23 06:40 | 56.75714 | -176.14800 | 38015 ft | 514 kts | 66° |
| 2026-04-23 06:40 | 56.78654 | -176.02976 | 38019 ft | 514 kts | 66° |
| 2026-04-23 06:41 | 56.81596 | -175.91081 | 38006 ft | 513 kts | 66° |
| 2026-04-23 06:41 | 56.84504 | -175.79253 | 38006 ft | 513 kts | 66° |
| 2026-04-23 06:42 | 56.87406 | -175.67329 | 38000 ft | 512 kts | 67° |
| 2026-04-23 06:42 | 56.90296 | -175.55386 | 38001 ft | 512 kts | 67° |
| 2026-04-23 06:43 | 56.93173 | -175.43441 | 37995 ft | 512 kts | 67° |
| 2026-04-23 06:43 | 56.96025 | -175.31542 | 37995 ft | 512 kts | 67° |
| 2026-04-23 06:44 | 56.98888 | -175.19529 | 37987 ft | 512 kts | 67° |
| 2026-04-23 06:44 | 57.01729 | -175.07541 | 37991 ft | 512 kts | 67° |
| 2026-04-23 06:45 | 57.04541 | -174.95612 | 37983 ft | 512 kts | 67° |
| 2026-04-23 06:45 | 57.07358 | -174.83592 | 37988 ft | 511 kts | 68° |
| 2026-04-23 06:46 | 57.10162 | -174.71563 | 37987 ft | 511 kts | 68° |
| 2026-04-23 06:46 | 57.12961 | -174.59485 | 37985 ft | 512 kts | 68° |
| 2026-04-23 06:47 | 57.15751 | -174.47379 | 37990 ft | 513 kts | 68° |
| 2026-04-23 06:47 | 57.18514 | -174.35322 | 37989 ft | 513 kts | 68° |
| 2026-04-23 06:48 | 57.21283 | -174.23169 | 37988 ft | 513 kts | 68° |
| 2026-04-23 06:48 | 57.24043 | -174.10987 | 37988 ft | 513 kts | 68° |
| 2026-04-23 06:49 | 57.26770 | -173.98878 | 38003 ft | 514 kts | 69° |
| 2026-04-23 06:49 | 57.29509 | -173.86646 | 37990 ft | 514 kts | 69° |
| 2026-04-23 06:50 | 57.32240 | -173.74384 | 38000 ft | 515 kts | 69° |
| 2026-04-23 06:50 | 57.34970 | -173.62114 | 38005 ft | 515 kts | 69° |
| 2026-04-23 06:51 | 57.37734 | -173.49957 | 37994 ft | 515 kts | 69° |
| 2026-04-23 06:51 | 57.40517 | -173.37703 | 38008 ft | 515 kts | 69° |
| 2026-04-23 06:52 | 57.43279 | -173.25427 | 38024 ft | 515 kts | 69° |
| 2026-04-23 06:52 | 57.46021 | -173.13140 | 38011 ft | 515 kts | 69° |
| 2026-04-23 06:53 | 57.48734 | -173.00903 | 38017 ft | 514 kts | 69° |
| 2026-04-23 06:53 | 57.51447 | -172.88593 | 38032 ft | 514 kts | 69° |
| 2026-04-23 06:54 | 57.54150 | -172.76260 | 38032 ft | 514 kts | 69° |
| 2026-04-23 06:54 | 57.56848 | -172.63877 | 38037 ft | 515 kts | 70° |
| 2026-04-23 06:55 | 57.59518 | -172.51545 | 38053 ft | 515 kts | 70° |
| 2026-04-23 06:55 | 57.62193 | -172.39122 | 38052 ft | 515 kts | 70° |
| 2026-04-23 06:56 | 57.64854 | -172.26686 | 38048 ft | 515 kts | 70° |
| 2026-04-23 06:56 | 57.67504 | -172.14225 | 38059 ft | 515 kts | 70° |
| 2026-04-23 06:57 | 57.70122 | -172.01842 | 38068 ft | 516 kts | 71° |
| 2026-04-23 06:57 | 57.72750 | -171.89332 | 38081 ft | 516 kts | 71° |
| 2026-04-23 06:58 | 57.75369 | -171.76790 | 38075 ft | 516 kts | 71° |
| 2026-04-23 06:58 | 57.77976 | -171.64227 | 38101 ft | 516 kts | 71° |
| 2026-04-23 06:59 | 57.80553 | -171.51732 | 38099 ft | 516 kts | 71° |
| 2026-04-23 06:59 | 57.83131 | -171.39155 | 38108 ft | 516 kts | 71° |
| 2026-04-23 07:00 | 57.85701 | -171.26537 | 38122 ft | 517 kts | 72° |
| 2026-04-23 07:00 | 57.88258 | -171.13901 | 38134 ft | 517 kts | 72° |
| 2026-04-23 07:01 | 57.90789 | -171.01320 | 38136 ft | 516 kts | 72° |
| 2026-04-23 07:01 | 57.93311 | -170.88701 | 38152 ft | 515 kts | 72° |
| 2026-04-23 07:02 | 57.95824 | -170.76052 | 38146 ft | 515 kts | 73° |
| 2026-04-23 07:02 | 57.98454 | -170.63445 | 38169 ft | 516 kts | 70° |
| 2026-04-23 07:03 | 58.01181 | -170.50995 | 38178 ft | 517 kts | 70° |
| 2026-04-23 07:03 | 58.03903 | -170.38432 | 38194 ft | 516 kts | 71° |
| 2026-04-23 07:04 | 58.06584 | -170.25841 | 38200 ft | 516 kts | 71° |
| 2026-04-23 07:04 | 58.09230 | -170.13288 | 38187 ft | 516 kts | 71° |
| 2026-04-23 07:05 | 58.11881 | -170.00625 | 38205 ft | 516 kts | 71° |
| 2026-04-23 07:05 | 58.14500 | -169.88044 | 38219 ft | 516 kts | 71° |
| 2026-04-23 07:06 | 58.17124 | -169.75364 | 38241 ft | 516 kts | 72° |
| 2026-04-23 07:06 | 58.19723 | -169.62726 | 38239 ft | 516 kts | 72° |
| 2026-04-23 07:07 | 58.22319 | -169.50024 | 38260 ft | 516 kts | 72° |
| 2026-04-23 07:07 | 58.24888 | -169.37374 | 38257 ft | 516 kts | 72° |
| 2026-04-23 07:08 | 58.27456 | -169.24642 | 38284 ft | 516 kts | 72° |
| 2026-04-23 07:08 | 58.30012 | -169.11897 | 38284 ft | 516 kts | 72° |
| 2026-04-23 07:09 | 58.32126 | -169.01292 | 38301 ft | 515 kts | 72° |
| 2026-04-23 07:09 | 58.35072 | -168.86415 | 38309 ft | 515 kts | 73° |
| 2026-04-23 07:10 | 58.37166 | -168.75773 | 38298 ft | 515 kts | 73° |
| 2026-04-23 07:10 | 58.39673 | -168.62955 | 38325 ft | 515 kts | 73° |
| 2026-04-23 07:11 | 58.42168 | -168.50116 | 38331 ft | 516 kts | 73° |
| 2026-04-23 07:12 | 58.45873 | -168.30892 | 38350 ft | 515 kts | 73° |
| 2026-04-23 07:12 | 58.48337 | -168.18003 | 38364 ft | 515 kts | 73° |
| 2026-04-23 07:13 | 58.50773 | -168.05174 | 38351 ft | 515 kts | 73° |
| 2026-04-23 07:13 | 58.53212 | -167.92245 | 38390 ft | 516 kts | 73° |
| 2026-04-23 07:14 | 58.55637 | -167.79302 | 38389 ft | 516 kts | 74° |
| 2026-04-23 07:14 | 58.58040 | -167.66386 | 38389 ft | 516 kts | 74° |
| 2026-04-23 07:15 | 58.60442 | -167.53390 | 38409 ft | 516 kts | 74° |
| 2026-04-23 07:15 | 58.62816 | -167.40461 | 38409 ft | 516 kts | 74° |
| 2026-04-23 07:16 | 58.65193 | -167.27426 | 38431 ft | 516 kts | 74° |
| 2026-04-23 07:16 | 58.67554 | -167.14385 | 38431 ft | 516 kts | 74° |
| 2026-04-23 07:17 | 58.69903 | -167.01322 | 38434 ft | 516 kts | 75° |
| 2026-04-23 07:17 | 58.72244 | -166.88323 | 38442 ft | 516 kts | 74° |
| 2026-04-23 07:18 | 58.74615 | -166.75239 | 38456 ft | 516 kts | 74° |
| 2026-04-23 07:18 | 58.76961 | -166.62211 | 38458 ft | 516 kts | 75° |
| 2026-04-23 07:19 | 58.79302 | -166.49087 | 38486 ft | 516 kts | 75° |
| 2026-04-23 07:19 | 58.81608 | -166.36054 | 38486 ft | 516 kts | 75° |
| 2026-04-23 07:20 | 58.83917 | -166.22914 | 38485 ft | 516 kts | 75° |
| 2026-04-23 07:20 | 58.86209 | -166.09774 | 38504 ft | 516 kts | 75° |
| 2026-04-23 07:21 | 58.88486 | -165.96633 | 38510 ft | 514 kts | 75° |
| 2026-04-23 07:21 | 58.90758 | -165.83518 | 38531 ft | 514 kts | 75° |
| 2026-04-23 07:22 | 58.93003 | -165.70472 | 38533 ft | 513 kts | 75° |
| 2026-04-23 07:22 | 58.95249 | -165.57327 | 38546 ft | 513 kts | 75° |
| 2026-04-23 07:23 | 58.97468 | -165.44240 | 38548 ft | 513 kts | 75° |
| 2026-04-23 07:23 | 58.99688 | -165.31058 | 38577 ft | 513 kts | 76° |
| 2026-04-23 07:24 | 59.01893 | -165.17870 | 38552 ft | 513 kts | 76° |
| 2026-04-23 07:24 | 59.04076 | -165.04719 | 38585 ft | 514 kts | 76° |
| 2026-04-23 07:25 | 59.06260 | -164.91459 | 38585 ft | 514 kts | 76° |
| 2026-04-23 07:25 | 59.08426 | -164.78218 | 38595 ft | 513 kts | 76° |
| 2026-04-23 07:26 | 59.10564 | -164.65040 | 38608 ft | 513 kts | 76° |
| 2026-04-23 07:26 | 59.12705 | -164.51750 | 38608 ft | 513 kts | 76° |
| 2026-04-23 07:27 | 59.14819 | -164.38524 | 38622 ft | 513 kts | 76° |
| 2026-04-23 07:27 | 59.16928 | -164.25230 | 38630 ft | 512 kts | 76° |
| 2026-04-23 07:28 | 59.19025 | -164.11910 | 38644 ft | 512 kts | 76° |
| 2026-04-23 07:28 | 59.21090 | -163.98692 | 38645 ft | 511 kts | 77° |
| 2026-04-23 07:29 | 59.23151 | -163.85392 | 38664 ft | 510 kts | 77° |
| 2026-04-23 07:29 | 59.25197 | -163.72088 | 38632 ft | 510 kts | 77° |
| 2026-04-23 07:30 | 59.27217 | -163.58851 | 38669 ft | 512 kts | 77° |
| 2026-04-23 07:30 | 59.29241 | -163.45478 | 38686 ft | 512 kts | 77° |
| 2026-04-23 07:31 | 59.31251 | -163.32094 | 38687 ft | 512 kts | 77° |
| 2026-04-23 07:31 | 59.33250 | -163.18680 | 38706 ft | 512 kts | 77° |
| 2026-04-23 07:32 | 59.35224 | -163.05327 | 38705 ft | 512 kts | 78° |
| 2026-04-23 07:32 | 59.37196 | -162.91872 | 38712 ft | 514 kts | 78° |
| 2026-04-23 07:33 | 59.39161 | -162.78354 | 38724 ft | 515 kts | 78° |
| 2026-04-23 07:33 | 59.41114 | -162.64811 | 38739 ft | 515 kts | 78° |
| 2026-04-23 07:34 | 59.43041 | -162.51342 | 38737 ft | 515 kts | 78° |
| 2026-04-23 07:34 | 59.44966 | -162.37769 | 38759 ft | 515 kts | 78° |
| 2026-04-23 07:35 | 59.46952 | -162.24212 | 38756 ft | 516 kts | 76° |
| 2026-04-23 07:35 | 59.49242 | -162.10858 | 38763 ft | 518 kts | 75° |
| 2026-04-23 07:36 | 59.51578 | -161.97436 | 38780 ft | 518 kts | 75° |
| 2026-04-23 07:36 | 59.53858 | -161.83937 | 38785 ft | 518 kts | 75° |
| 2026-04-23 07:37 | 59.56078 | -161.70510 | 38790 ft | 518 kts | 76° |
| 2026-04-23 07:37 | 59.58294 | -161.56964 | 38791 ft | 518 kts | 76° |
| 2026-04-23 07:38 | 59.60492 | -161.43428 | 38772 ft | 517 kts | 76° |
| 2026-04-23 07:38 | 59.62670 | -161.29924 | 38805 ft | 519 kts | 76° |
| 2026-04-23 07:39 | 59.64850 | -161.16311 | 38810 ft | 519 kts | 76° |
| 2026-04-23 07:39 | 59.67018 | -161.02665 | 38824 ft | 519 kts | 76° |
| 2026-04-23 07:40 | 59.69171 | -160.89007 | 38825 ft | 519 kts | 76° |
| 2026-04-23 07:40 | 59.71296 | -160.75419 | 38849 ft | 519 kts | 77° |
| 2026-04-23 07:41 | 59.73417 | -160.61747 | 38831 ft | 519 kts | 77° |
| 2026-04-23 07:41 | 59.75530 | -160.48016 | 38856 ft | 520 kts | 77° |
| 2026-04-23 07:42 | 59.77626 | -160.34286 | 38860 ft | 520 kts | 77° |
| 2026-04-23 07:42 | 59.79698 | -160.20608 | 38854 ft | 520 kts | 77° |
| 2026-04-23 07:43 | 59.81765 | -160.06849 | 38869 ft | 519 kts | 77° |
| 2026-04-23 07:43 | 59.83822 | -159.93037 | 38860 ft | 520 kts | 77° |
| 2026-04-23 07:44 | 59.85854 | -159.79293 | 38869 ft | 520 kts | 78° |
| 2026-04-23 07:44 | 59.87883 | -159.65445 | 38880 ft | 520 kts | 78° |
| 2026-04-23 07:45 | 59.89894 | -159.51606 | 38887 ft | 520 kts | 78° |
| 2026-04-23 07:45 | 59.91890 | -159.37748 | 38886 ft | 520 kts | 78° |
| 2026-04-23 07:46 | 59.93857 | -159.23975 | 38888 ft | 519 kts | 78° |
| 2026-04-23 07:46 | 59.95824 | -159.10098 | 38905 ft | 519 kts | 78° |
| 2026-04-23 07:47 | 59.97768 | -158.96261 | 38899 ft | 518 kts | 78° |
| 2026-04-23 07:47 | 59.99699 | -158.82398 | 38916 ft | 516 kts | 78° |
| 2026-04-23 07:48 | 60.01611 | -158.68540 | 38914 ft | 516 kts | 78° |
| 2026-04-23 07:48 | 60.03495 | -158.54766 | 38921 ft | 516 kts | 78° |
| 2026-04-23 07:49 | 60.05379 | -158.40870 | 38928 ft | 516 kts | 78° |
| 2026-04-23 07:49 | 60.07245 | -158.26991 | 38927 ft | 516 kts | 78° |
| 2026-04-23 07:50 | 60.09096 | -158.13091 | 38939 ft | 516 kts | 79° |
| 2026-04-23 07:50 | 60.10927 | -157.99226 | 38933 ft | 517 kts | 79° |
| 2026-04-23 07:51 | 60.12755 | -157.85251 | 38939 ft | 518 kts | 79° |
| 2026-04-23 07:51 | 60.14559 | -157.71337 | 38947 ft | 518 kts | 79° |
| 2026-04-23 07:52 | 60.16360 | -157.57312 | 38954 ft | 518 kts | 79° |
| 2026-04-23 07:52 | 60.18146 | -157.43280 | 38951 ft | 518 kts | 79° |
| 2026-04-23 07:53 | 60.19919 | -157.29209 | 38948 ft | 519 kts | 80° |
| 2026-04-23 07:53 | 60.21669 | -157.15191 | 38954 ft | 519 kts | 80° |
| 2026-04-23 07:54 | 60.23420 | -157.01037 | 38957 ft | 519 kts | 80° |
| 2026-04-23 07:54 | 60.25141 | -156.86987 | 38961 ft | 519 kts | 80° |
| 2026-04-23 07:55 | 60.26858 | -156.72833 | 38959 ft | 519 kts | 81° |
| 2026-04-23 07:55 | 60.28559 | -156.58663 | 38941 ft | 519 kts | 81° |
| 2026-04-23 07:56 | 60.30240 | -156.44523 | 38966 ft | 522 kts | 81° |
| 2026-04-23 07:56 | 60.31637 | -156.32663 | 38965 ft | 523 kts | 81° |
| 2026-04-23 07:57 | 60.33308 | -156.18351 | 38971 ft | 523 kts | 81° |
| 2026-04-23 07:57 | 60.34963 | -156.04036 | 38971 ft | 522 kts | 81° |
| 2026-04-23 07:58 | 60.36592 | -155.89786 | 38977 ft | 523 kts | 81° |
| 2026-04-23 07:58 | 60.38214 | -155.75453 | 38945 ft | 523 kts | 82° |
| 2026-04-23 07:59 | 60.39814 | -155.61160 | 38980 ft | 524 kts | 82° |
| 2026-04-23 07:59 | 60.41413 | -155.46735 | 38988 ft | 524 kts | 82° |
| 2026-04-23 08:00 | 60.42995 | -155.32304 | 38989 ft | 524 kts | 82° |
| 2026-04-23 08:00 | 60.44559 | -155.17875 | 38995 ft | 524 kts | 82° |
| 2026-04-23 08:01 | 60.46098 | -155.03518 | 38992 ft | 524 kts | 82° |
| 2026-04-23 08:01 | 60.47631 | -154.89058 | 38986 ft | 523 kts | 82° |
| 2026-04-23 08:02 | 60.49141 | -154.74665 | 39011 ft | 524 kts | 82° |
| 2026-04-23 08:02 | 60.49996 | -154.67459 | 39124 ft | 527 kts | 77° |
| 2026-04-23 08:02 | 60.51071 | -154.60331 | 39296 ft | 527 kts | 76° |
| 2026-04-23 08:02 | 60.52184 | -154.53245 | 39508 ft | 526 kts | 76° |
| 2026-04-23 08:03 | 60.53315 | -154.46186 | 39679 ft | 525 kts | 76° |
| 2026-04-23 08:03 | 60.54455 | -154.39120 | 39849 ft | 525 kts | 76° |
| 2026-04-23 08:03 | 60.55589 | -154.32080 | 40007 ft | 524 kts | 76° |
| 2026-04-23 08:03 | 60.56705 | -154.25114 | 40134 ft | 524 kts | 76° |
| 2026-04-23 08:04 | 60.57828 | -154.18064 | 40280 ft | 523 kts | 76° |
| 2026-04-23 08:04 | 60.58945 | -154.11010 | 40445 ft | 523 kts | 76° |
| 2026-04-23 08:04 | 60.60056 | -154.03954 | 40582 ft | 522 kts | 76° |
| 2026-04-23 08:05 | 60.62250 | -153.89915 | 40756 ft | 523 kts | 76° |
| 2026-04-23 08:05 | 60.63351 | -153.82830 | 40882 ft | 523 kts | 76° |
| 2026-04-23 08:05 | 60.64445 | -153.75753 | 41006 ft | 522 kts | 76° |
| 2026-04-23 08:06 | 60.66612 | -153.61669 | 41080 ft | 522 kts | 76° |
| 2026-04-23 08:06 | 60.68773 | -153.47494 | 41105 ft | 522 kts | 76° |
| 2026-04-23 08:07 | 60.70921 | -153.33296 | 41100 ft | 522 kts | 77° |
| 2026-04-23 08:07 | 60.73036 | -153.19191 | 41098 ft | 522 kts | 77° |
| 2026-04-23 08:08 | 60.75151 | -153.04980 | 41108 ft | 522 kts | 77° |
| 2026-04-23 08:08 | 60.77254 | -152.90728 | 41122 ft | 523 kts | 77° |
| 2026-04-23 08:09 | 60.79345 | -152.76430 | 41125 ft | 523 kts | 77° |
| 2026-04-23 08:09 | 60.81407 | -152.62216 | 41144 ft | 523 kts | 77° |
| 2026-04-23 08:10 | 60.83467 | -152.47881 | 41148 ft | 523 kts | 77° |
| 2026-04-23 08:10 | 60.86519 | -152.26419 | 41152 ft | 523 kts | 77° |
| 2026-04-23 08:11 | 60.88540 | -152.12056 | 41145 ft | 522 kts | 77° |
| 2026-04-23 08:11 | 60.90536 | -151.97740 | 41151 ft | 523 kts | 77° |
| 2026-04-23 08:12 | 60.92518 | -151.83392 | 41154 ft | 524 kts | 77° |
| 2026-04-23 08:12 | 60.94497 | -151.68941 | 41154 ft | 523 kts | 78° |
| 2026-04-23 08:13 | 60.96448 | -151.54569 | 41154 ft | 523 kts | 78° |
| 2026-04-23 08:13 | 60.98395 | -151.40090 | 41154 ft | 523 kts | 78° |
| 2026-04-23 08:14 | 61.00325 | -151.25604 | 41157 ft | 524 kts | 78° |
| 2026-04-23 08:14 | 61.02228 | -151.11188 | 41151 ft | 524 kts | 78° |
| 2026-04-23 08:15 | 61.04128 | -150.96660 | 41154 ft | 524 kts | 78° |
| 2026-04-23 08:15 | 61.06014 | -150.82101 | 41154 ft | 524 kts | 78° |
| 2026-04-23 08:16 | 61.07868 | -150.67656 | 41142 ft | 524 kts | 78° |
| 2026-04-23 08:16 | 61.09725 | -150.53044 | 41144 ft | 524 kts | 78° |
| 2026-04-23 08:17 | 61.11564 | -150.38437 | 41129 ft | 524 kts | 78° |
| 2026-04-23 08:17 | 61.13375 | -150.23912 | 41130 ft | 524 kts | 78° |
| 2026-04-23 08:18 | 61.15183 | -150.09265 | 41130 ft | 524 kts | 79° |
| 2026-04-23 08:18 | 61.17259 | -149.94848 | 41137 ft | 528 kts | 69° |
| 2026-04-23 08:19 | 61.20372 | -149.81036 | 41129 ft | 529 kts | 66° |
| 2026-04-23 08:19 | 61.23642 | -149.67420 | 41127 ft | 529 kts | 65° |
| 2026-04-23 08:20 | 61.26941 | -149.53735 | 41127 ft | 529 kts | 65° |
| 2026-04-23 08:20 | 61.30211 | -149.40003 | 41163 ft | 530 kts | 66° |
| 2026-04-23 08:21 | 61.33462 | -149.26209 | 41160 ft | 530 kts | 66° |
| 2026-04-23 08:21 | 61.36679 | -149.12453 | 41136 ft | 529 kts | 66° |
| 2026-04-23 08:22 | 61.39877 | -148.98691 | 41154 ft | 529 kts | 66° |
| 2026-04-23 08:22 | 61.43084 | -148.84815 | 41143 ft | 529 kts | 66° |
| 2026-04-23 08:23 | 61.46267 | -148.70952 | 41157 ft | 528 kts | 66° |
| 2026-04-23 08:23 | 61.49432 | -148.57072 | 41189 ft | 527 kts | 66° |
| 2026-04-23 08:24 | 61.52578 | -148.43187 | 41188 ft | 527 kts | 66° |
| 2026-04-23 08:24 | 61.55694 | -148.29342 | 41176 ft | 527 kts | 66° |
| 2026-04-23 08:25 | 61.58815 | -148.15391 | 41219 ft | 527 kts | 66° |
| 2026-04-23 08:25 | 61.61922 | -148.01405 | 41234 ft | 527 kts | 66° |
| 2026-04-23 08:26 | 61.65001 | -147.87453 | 41214 ft | 527 kts | 66° |
| 2026-04-23 08:26 | 61.68077 | -147.73423 | 41225 ft | 526 kts | 66° |
| 2026-04-23 08:27 | 61.71109 | -147.59495 | 41256 ft | 526 kts | 66° |
| 2026-04-23 08:27 | 61.74150 | -147.45434 | 41233 ft | 526 kts | 66° |
| 2026-04-23 08:28 | 61.77174 | -147.31368 | 41240 ft | 524 kts | 66° |
| 2026-04-23 08:28 | 61.80162 | -147.17373 | 41232 ft | 524 kts | 67° |
| 2026-04-23 08:29 | 61.83148 | -147.03290 | 41251 ft | 524 kts | 67° |
| 2026-04-23 08:29 | 61.86101 | -146.89268 | 41251 ft | 524 kts | 67° |
| 2026-04-23 08:30 | 61.89059 | -146.75130 | 41254 ft | 524 kts | 67° |
| 2026-04-23 08:30 | 61.91998 | -146.60981 | 41258 ft | 523 kts | 67° |
| 2026-04-23 08:31 | 61.94898 | -146.46933 | 41257 ft | 520 kts | 67° |
| 2026-04-23 08:31 | 61.97794 | -146.32797 | 41252 ft | 519 kts | 67° |
| 2026-04-23 08:32 | 62.00666 | -146.18685 | 41243 ft | 519 kts | 67° |
| 2026-04-23 08:32 | 62.03511 | -146.04606 | 41231 ft | 519 kts | 67° |
| 2026-04-23 08:33 | 62.06351 | -145.90454 | 41201 ft | 519 kts | 68° |
| 2026-04-23 08:33 | 62.09170 | -145.76312 | 41177 ft | 519 kts | 68° |
| 2026-04-23 08:34 | 62.11983 | -145.62102 | 41155 ft | 519 kts | 68° |
| 2026-04-23 08:34 | 62.14765 | -145.47947 | 41156 ft | 519 kts | 68° |
| 2026-04-23 08:35 | 62.17751 | -145.33851 | 41150 ft | 519 kts | 63° |
| 2026-04-23 08:35 | 62.21161 | -145.20199 | 41214 ft | 520 kts | 61° |
| 2026-04-23 08:36 | 62.24582 | -145.06506 | 41207 ft | 524 kts | 62° |
| 2026-04-23 08:36 | 62.27933 | -144.92642 | 41206 ft | 525 kts | 63° |
| 2026-04-23 08:37 | 62.31262 | -144.78594 | 41197 ft | 525 kts | 63° |
| 2026-04-23 08:37 | 62.34540 | -144.64640 | 41198 ft | 525 kts | 63° |
| 2026-04-23 08:38 | 62.37826 | -144.50575 | 41194 ft | 524 kts | 63° |
| 2026-04-23 08:38 | 62.41091 | -144.36520 | 41190 ft | 522 kts | 63° |
| 2026-04-23 08:39 | 62.44304 | -144.22601 | 41182 ft | 521 kts | 63° |
| 2026-04-23 08:39 | 62.47528 | -144.08544 | 41181 ft | 521 kts | 63° |
| 2026-04-23 08:40 | 62.50743 | -143.94435 | 41189 ft | 521 kts | 63° |
| 2026-04-23 08:40 | 62.53924 | -143.80383 | 41171 ft | 521 kts | 63° |
| 2026-04-23 08:41 | 62.57096 | -143.66274 | 41184 ft | 519 kts | 63° |
| 2026-04-23 08:41 | 62.60254 | -143.52137 | 41191 ft | 519 kts | 63° |
| 2026-04-23 08:42 | 62.63373 | -143.38083 | 41190 ft | 519 kts | 63° |
| 2026-04-23 08:42 | 62.66500 | -143.23898 | 41182 ft | 519 kts | 64° |
| 2026-04-23 08:43 | 62.69610 | -143.09692 | 41194 ft | 519 kts | 64° |
| 2026-04-23 08:43 | 62.72695 | -142.95512 | 41183 ft | 521 kts | 64° |
| 2026-04-23 08:44 | 62.75786 | -142.81204 | 41185 ft | 521 kts | 64° |
| 2026-04-23 08:44 | 62.78349 | -142.69262 | 41188 ft | 521 kts | 64° |
| 2026-04-23 08:45 | 62.81911 | -142.52559 | 41198 ft | 521 kts | 64° |
| 2026-04-23 08:45 | 62.84447 | -142.40582 | 41187 ft | 521 kts | 64° |
| 2026-04-23 08:46 | 62.87492 | -142.26109 | 41142 ft | 523 kts | 64° |
| 2026-04-23 08:46 | 62.90516 | -142.11640 | 41131 ft | 525 kts | 64° |
| 2026-04-23 08:47 | 62.93493 | -141.96942 | 41126 ft | 526 kts | 69° |
| 2026-04-23 08:47 | 62.95039 | -141.81360 | 41129 ft | 525 kts | 84° |
| 2026-04-23 08:48 | 62.95682 | -141.65341 | 41140 ft | 526 kts | 86° |
| 2026-04-23 08:48 | 62.96158 | -141.49277 | 41219 ft | 525 kts | 86° |
| 2026-04-23 08:49 | 62.96616 | -141.33299 | 41220 ft | 523 kts | 86° |
| 2026-04-23 08:49 | 62.97077 | -141.17442 | 41218 ft | 522 kts | 86° |
| 2026-04-23 08:50 | 62.97533 | -141.01483 | 41221 ft | 522 kts | 86° |
| 2026-04-23 08:50 | 62.97973 | -140.85529 | 41222 ft | 522 kts | 86° |
| 2026-04-23 08:51 | 62.98395 | -140.69524 | 41240 ft | 522 kts | 86° |
| 2026-04-23 08:51 | 62.98794 | -140.53656 | 41239 ft | 522 kts | 86° |
| 2026-04-23 08:52 | 62.99179 | -140.37680 | 41243 ft | 523 kts | 87° |
| 2026-04-23 08:52 | 62.99545 | -140.21694 | 41248 ft | 523 kts | 87° |
| 2026-04-23 08:53 | 62.99894 | -140.05692 | 41248 ft | 522 kts | 87° |
| 2026-04-23 08:53 | 63.00277 | -139.89795 | 41255 ft | 522 kts | 85° |
| 2026-04-23 08:54 | 63.00848 | -139.73821 | 41263 ft | 522 kts | 85° |
| 2026-04-23 08:54 | 63.01425 | -139.57827 | 41262 ft | 522 kts | 85° |
| 2026-04-23 08:55 | 63.01950 | -139.41937 | 41298 ft | 523 kts | 85° |
| 2026-04-23 08:55 | 63.02441 | -139.25967 | 41278 ft | 522 kts | 85° |
| 2026-04-23 08:56 | 63.02910 | -139.10003 | 41278 ft | 522 kts | 85° |
| 2026-04-23 08:56 | 63.03362 | -138.94035 | 41282 ft | 521 kts | 85° |
| 2026-04-23 08:57 | 63.03794 | -138.78203 | 41284 ft | 520 kts | 86° |
| 2026-04-23 08:57 | 63.04212 | -138.62243 | 41284 ft | 520 kts | 86° |
| 2026-04-23 08:58 | 63.04611 | -138.46300 | 41287 ft | 520 kts | 86° |
| 2026-04-23 08:58 | 63.04989 | -138.30461 | 41296 ft | 520 kts | 86° |
| 2026-04-23 08:59 | 63.05352 | -138.14499 | 41293 ft | 520 kts | 86° |
| 2026-04-23 08:59 | 63.05697 | -137.98563 | 41296 ft | 520 kts | 86° |
| 2026-04-23 09:00 | 63.06022 | -137.82714 | 41293 ft | 520 kts | 86° |
| 2026-04-23 09:00 | 63.06331 | -137.66741 | 41301 ft | 520 kts | 86° |
| 2026-04-23 09:01 | 63.06623 | -137.50774 | 41299 ft | 520 kts | 86° |
| 2026-04-23 09:01 | 63.06894 | -137.34909 | 41297 ft | 520 kts | 87° |
| 2026-04-23 09:02 | 63.07150 | -137.18912 | 41299 ft | 521 kts | 86° |
| 2026-04-23 09:02 | 63.07387 | -137.02996 | 41296 ft | 521 kts | 87° |
| 2026-04-23 09:03 | 63.07607 | -136.87002 | 41300 ft | 521 kts | 86° |
| 2026-04-23 09:03 | 63.07809 | -136.70989 | 41298 ft | 522 kts | 87° |
| 2026-04-23 09:04 | 63.07993 | -136.54947 | 41294 ft | 522 kts | 87° |
| 2026-04-23 09:04 | 63.08158 | -136.39027 | 41293 ft | 522 kts | 87° |
| 2026-04-23 09:05 | 63.08306 | -136.22973 | 41327 ft | 522 kts | 87° |
| 2026-04-23 09:05 | 63.08436 | -136.06990 | 41291 ft | 525 kts | 87° |
| 2026-04-23 09:06 | 63.08549 | -135.90820 | 41292 ft | 527 kts | 87° |
| 2026-04-23 09:06 | 63.08643 | -135.74620 | 41293 ft | 527 kts | 87° |
| 2026-04-23 09:07 | 63.08718 | -135.58515 | 41299 ft | 527 kts | 87° |
| 2026-04-23 09:07 | 63.08775 | -135.42308 | 41300 ft | 527 kts | 87° |
| 2026-04-23 09:08 | 63.08814 | -135.26185 | 41297 ft | 527 kts | 88° |
| 2026-04-23 09:08 | 63.08835 | -135.10002 | 41317 ft | 527 kts | 87° |
| 2026-04-23 09:09 | 63.08837 | -134.93715 | 41307 ft | 530 kts | 87° |
| 2026-04-23 09:09 | 63.08820 | -134.77411 | 41315 ft | 531 kts | 87° |
| 2026-04-23 09:10 | 63.08760 | -134.53031 | 41317 ft | 530 kts | 88° |
| 2026-04-23 09:11 | 63.08697 | -134.36699 | 41321 ft | 531 kts | 88° |
| 2026-04-23 09:11 | 63.08614 | -134.20465 | 41328 ft | 531 kts | 88° |
| 2026-04-23 09:12 | 63.08513 | -134.04145 | 41335 ft | 531 kts | 88° |
| 2026-04-23 09:12 | 63.08395 | -133.87924 | 41328 ft | 531 kts | 88° |
| 2026-04-23 09:13 | 63.08257 | -133.71661 | 41329 ft | 531 kts | 88° |
| 2026-04-23 09:13 | 63.08100 | -133.55357 | 41334 ft | 530 kts | 88° |
| 2026-04-23 09:14 | 63.07923 | -133.39050 | 41343 ft | 530 kts | 88° |
| 2026-04-23 09:14 | 63.07731 | -133.22863 | 41344 ft | 530 kts | 88° |
| 2026-04-23 09:15 | 63.07518 | -133.06598 | 41343 ft | 530 kts | 88° |
| 2026-04-23 09:15 | 63.07289 | -132.90407 | 41345 ft | 529 kts | 88° |
| 2026-04-23 09:16 | 63.07039 | -132.74146 | 41351 ft | 528 kts | 88° |
| 2026-04-23 09:16 | 63.06774 | -132.58067 | 41339 ft | 527 kts | 88° |
| 2026-04-23 09:17 | 63.06489 | -132.41881 | 41348 ft | 526 kts | 89° |
| 2026-04-23 09:17 | 63.06188 | -132.25855 | 41339 ft | 526 kts | 89° |
| 2026-04-23 09:18 | 63.05867 | -132.09725 | 41350 ft | 526 kts | 89° |
| 2026-04-23 09:18 | 63.05527 | -131.93571 | 41356 ft | 526 kts | 89° |
| 2026-04-23 09:19 | 63.05169 | -131.77446 | 41345 ft | 525 kts | 89° |
| 2026-04-23 09:19 | 63.04795 | -131.61434 | 41353 ft | 525 kts | 89° |
| 2026-04-23 09:20 | 63.04400 | -131.45296 | 41355 ft | 525 kts | 89° |
| 2026-04-23 09:20 | 63.03992 | -131.29315 | 41358 ft | 525 kts | 89° |
| 2026-04-23 09:21 | 63.03560 | -131.13214 | 41355 ft | 525 kts | 90° |
| 2026-04-23 09:21 | 63.03110 | -130.97109 | 41358 ft | 525 kts | 90° |
| 2026-04-23 09:22 | 63.02646 | -130.81128 | 41367 ft | 525 kts | 90° |
| 2026-04-23 09:22 | 63.02160 | -130.65009 | 41363 ft | 526 kts | 90° |
| 2026-04-23 09:23 | 63.01657 | -130.48923 | 41363 ft | 526 kts | 90° |
| 2026-04-23 09:23 | 63.01138 | -130.32935 | 41363 ft | 526 kts | 90° |
| 2026-04-23 09:24 | 63.00597 | -130.16811 | 41359 ft | 526 kts | 90° |
| 2026-04-23 09:24 | 63.00041 | -130.00831 | 41362 ft | 526 kts | 90° |
| 2026-04-23 09:25 | 62.99242 | -129.84762 | 41363 ft | 529 kts | 95° |
| 2026-04-23 09:25 | 62.98133 | -129.68743 | 41357 ft | 529 kts | 95° |
| 2026-04-23 09:26 | 62.97029 | -129.52828 | 41355 ft | 529 kts | 95° |
| 2026-04-23 09:26 | 62.95953 | -129.36818 | 41360 ft | 528 kts | 95° |
| 2026-04-23 09:27 | 62.94882 | -129.20836 | 41357 ft | 528 kts | 95° |
| 2026-04-23 09:27 | 62.93795 | -129.04836 | 41359 ft | 528 kts | 95° |
| 2026-04-23 09:28 | 62.92694 | -128.88949 | 41356 ft | 528 kts | 95° |
| 2026-04-23 09:28 | 62.91568 | -128.72985 | 41402 ft | 528 kts | 95° |
| 2026-04-23 09:29 | 62.90428 | -128.57113 | 41364 ft | 529 kts | 95° |
| 2026-04-23 09:29 | 62.89264 | -128.41149 | 41364 ft | 529 kts | 96° |
| 2026-04-23 09:30 | 62.88083 | -128.25218 | 41367 ft | 528 kts | 96° |
| 2026-04-23 09:30 | 62.86885 | -128.09313 | 41368 ft | 528 kts | 96° |
| 2026-04-23 09:31 | 62.85676 | -127.93514 | 41369 ft | 529 kts | 96° |
| 2026-04-23 09:31 | 62.84649 | -127.80281 | 41374 ft | 529 kts | 96° |
| 2026-04-23 09:32 | 62.83400 | -127.64397 | 41383 ft | 529 kts | 96° |
| 2026-04-23 09:32 | 62.82140 | -127.48622 | 41381 ft | 530 kts | 97° |
| 2026-04-23 09:33 | 62.80852 | -127.32734 | 41384 ft | 530 kts | 97° |
| 2026-04-23 09:33 | 62.79546 | -127.16865 | 41387 ft | 530 kts | 97° |
| 2026-04-23 09:34 | 62.78220 | -127.00980 | 41393 ft | 530 kts | 97° |
| 2026-04-23 09:34 | 62.76880 | -126.85145 | 41412 ft | 530 kts | 97° |
| 2026-04-23 09:35 | 62.75527 | -126.69382 | 41408 ft | 530 kts | 97° |
| 2026-04-23 09:35 | 62.74157 | -126.53637 | 41396 ft | 530 kts | 97° |
| 2026-04-23 09:36 | 62.72764 | -126.37856 | 41413 ft | 529 kts | 98° |
| 2026-04-23 09:36 | 62.71359 | -126.22151 | 41410 ft | 529 kts | 98° |
| 2026-04-23 09:37 | 62.69930 | -126.06402 | 41432 ft | 529 kts | 98° |
| 2026-04-23 09:37 | 62.68488 | -125.90696 | 41434 ft | 529 kts | 98° |
| 2026-04-23 09:38 | 62.67021 | -125.74942 | 41438 ft | 529 kts | 98° |
| 2026-04-23 09:38 | 62.65550 | -125.59340 | 41451 ft | 529 kts | 98° |
| 2026-04-23 09:39 | 62.64053 | -125.43658 | 41440 ft | 529 kts | 99° |
| 2026-04-23 09:39 | 62.62547 | -125.28093 | 41438 ft | 529 kts | 99° |
| 2026-04-23 09:40 | 62.61014 | -125.12440 | 41457 ft | 528 kts | 99° |
| 2026-04-23 09:40 | 62.59465 | -124.96820 | 41450 ft | 529 kts | 99° |
| 2026-04-23 09:41 | 62.57908 | -124.81310 | 41450 ft | 529 kts | 99° |
| 2026-04-23 09:41 | 62.56323 | -124.65696 | 41452 ft | 528 kts | 99° |
| 2026-04-23 09:42 | 62.54724 | -124.50148 | 41451 ft | 527 kts | 100° |
| 2026-04-23 09:42 | 62.53118 | -124.34706 | 41486 ft | 527 kts | 100° |
| 2026-04-23 09:43 | 62.51484 | -124.19181 | 41436 ft | 528 kts | 100° |
| 2026-04-23 09:43 | 62.49833 | -124.03672 | 41438 ft | 528 kts | 101° |
| 2026-04-23 09:44 | 62.48166 | -123.88191 | 41413 ft | 528 kts | 101° |
| 2026-04-23 09:44 | 62.46491 | -123.72811 | 41411 ft | 528 kts | 101° |
| 2026-04-23 09:45 | 62.44789 | -123.57358 | 41410 ft | 527 kts | 101° |
| 2026-04-23 09:45 | 62.43072 | -123.41940 | 41430 ft | 527 kts | 101° |
| 2026-04-23 09:46 | 62.41348 | -123.26628 | 41456 ft | 527 kts | 101° |
| 2026-04-23 09:46 | 62.39595 | -123.11223 | 41435 ft | 528 kts | 102° |
| 2026-04-23 09:47 | 62.37826 | -122.95848 | 41440 ft | 528 kts | 102° |
| 2026-04-23 09:47 | 62.36049 | -122.80571 | 41431 ft | 528 kts | 102° |
| 2026-04-23 09:48 | 62.34241 | -122.65192 | 41439 ft | 527 kts | 102° |
| 2026-04-23 09:48 | 62.32433 | -122.49977 | 41438 ft | 527 kts | 102° |
| 2026-04-23 09:49 | 62.30594 | -122.34649 | 41422 ft | 527 kts | 102° |
| 2026-04-23 09:49 | 62.28752 | -122.19456 | 41438 ft | 527 kts | 103° |
| 2026-04-23 09:50 | 62.26883 | -122.04206 | 41409 ft | 527 kts | 103° |
| 2026-04-23 09:50 | 62.25010 | -121.89073 | 41403 ft | 527 kts | 103° |
| 2026-04-23 09:51 | 62.23110 | -121.73872 | 41410 ft | 526 kts | 103° |
| 2026-04-23 09:51 | 62.21198 | -121.58725 | 41401 ft | 526 kts | 103° |
| 2026-04-23 09:52 | 62.19271 | -121.43618 | 41402 ft | 526 kts | 103° |
| 2026-04-23 09:52 | 62.17336 | -121.28586 | 41389 ft | 526 kts | 104° |
| 2026-04-23 09:53 | 62.15373 | -121.13481 | 41406 ft | 526 kts | 104° |
| 2026-04-23 09:53 | 62.13404 | -120.98484 | 41388 ft | 526 kts | 104° |
| 2026-04-23 09:54 | 62.11410 | -120.83434 | 41394 ft | 525 kts | 104° |
| 2026-04-23 09:54 | 62.09401 | -120.68422 | 41383 ft | 525 kts | 104° |
| 2026-04-23 09:55 | 62.07385 | -120.53493 | 41379 ft | 525 kts | 104° |
| 2026-04-23 09:55 | 62.05342 | -120.38501 | 41383 ft | 525 kts | 105° |
| 2026-04-23 09:56 | 62.03297 | -120.23632 | 41381 ft | 525 kts | 105° |
| 2026-04-23 09:56 | 62.01222 | -120.08682 | 41400 ft | 525 kts | 105° |
| 2026-04-23 09:57 | 61.98582 | -119.94172 | 41390 ft | 525 kts | 115° |
| 2026-04-23 09:57 | 61.95351 | -119.80330 | 41389 ft | 525 kts | 116° |
| 2026-04-23 09:58 | 61.91985 | -119.66496 | 41388 ft | 525 kts | 117° |
| 2026-04-23 09:58 | 61.88629 | -119.52785 | 41388 ft | 525 kts | 117° |
| 2026-04-23 09:59 | 61.85278 | -119.39108 | 41388 ft | 525 kts | 117° |
| 2026-04-23 09:59 | 61.81897 | -119.25363 | 41376 ft | 525 kts | 117° |
| 2026-04-23 10:00 | 61.78511 | -119.11678 | 41396 ft | 524 kts | 117° |
| 2026-04-23 10:00 | 61.75140 | -118.98143 | 41399 ft | 523 kts | 117° |
| 2026-04-23 10:01 | 61.71732 | -118.84540 | 41381 ft | 524 kts | 117° |
| 2026-04-23 10:01 | 61.68307 | -118.70958 | 41382 ft | 523 kts | 117° |
| 2026-04-23 10:02 | 61.64893 | -118.57500 | 41394 ft | 523 kts | 117° |
| 2026-04-23 10:02 | 61.61436 | -118.43957 | 41390 ft | 523 kts | 118° |
| 2026-04-23 10:03 | 61.57977 | -118.30486 | 41379 ft | 523 kts | 118° |
| 2026-04-23 10:03 | 61.54522 | -118.17113 | 41374 ft | 523 kts | 118° |
| 2026-04-23 10:04 | 61.51050 | -118.03751 | 41379 ft | 523 kts | 118° |
| 2026-04-23 10:04 | 61.47550 | -117.90365 | 41386 ft | 523 kts | 118° |
| 2026-04-23 10:05 | 61.44040 | -117.77021 | 41382 ft | 522 kts | 118° |
| 2026-04-23 10:05 | 61.40553 | -117.63841 | 41379 ft | 521 kts | 119° |
| 2026-04-23 10:06 | 61.37021 | -117.50574 | 41380 ft | 521 kts | 119° |
| 2026-04-23 10:06 | 61.33488 | -117.37376 | 41381 ft | 521 kts | 119° |
| 2026-04-23 10:07 | 61.29962 | -117.24283 | 41368 ft | 521 kts | 119° |
| 2026-04-23 10:07 | 61.26396 | -117.11121 | 41382 ft | 520 kts | 119° |
| 2026-04-23 10:08 | 61.22848 | -116.98099 | 41389 ft | 520 kts | 119° |
| 2026-04-23 10:08 | 61.19268 | -116.85036 | 41388 ft | 520 kts | 120° |
| 2026-04-23 10:09 | 61.13895 | -116.65570 | 41386 ft | 520 kts | 120° |
| 2026-04-23 10:09 | 61.10287 | -116.52588 | 41386 ft | 520 kts | 120° |
| 2026-04-23 10:10 | 61.06674 | -116.39667 | 41387 ft | 518 kts | 120° |
| 2026-04-23 10:10 | 61.03053 | -116.26792 | 41381 ft | 518 kts | 120° |
| 2026-04-23 10:11 | 60.99440 | -116.14015 | 41339 ft | 518 kts | 120° |
| 2026-04-23 10:11 | 60.95794 | -116.01194 | 41327 ft | 518 kts | 121° |
| 2026-04-23 10:12 | 60.92128 | -115.88376 | 41342 ft | 518 kts | 121° |
| 2026-04-23 10:12 | 60.88480 | -115.75690 | 41339 ft | 518 kts | 121° |
| 2026-04-23 10:13 | 60.84803 | -115.62974 | 41338 ft | 517 kts | 121° |
| 2026-04-23 10:13 | 60.81116 | -115.50298 | 41346 ft | 517 kts | 121° |
| 2026-04-23 10:14 | 60.77408 | -115.37617 | 41355 ft | 517 kts | 121° |
| 2026-04-23 10:14 | 60.73719 | -115.25069 | 41355 ft | 517 kts | 122° |
| 2026-04-23 10:15 | 60.69995 | -115.12474 | 41360 ft | 516 kts | 122° |
| 2026-04-23 10:15 | 60.66291 | -115.00014 | 41357 ft | 516 kts | 122° |
| 2026-04-23 10:16 | 60.62552 | -114.87504 | 41357 ft | 516 kts | 122° |
| 2026-04-23 10:16 | 60.58801 | -114.75025 | 41357 ft | 516 kts | 122° |
| 2026-04-23 10:17 | 60.55045 | -114.62594 | 41349 ft | 516 kts | 122° |
| 2026-04-23 10:17 | 60.51296 | -114.50251 | 41349 ft | 515 kts | 122° |
| 2026-04-23 10:18 | 60.47522 | -114.37895 | 41349 ft | 515 kts | 122° |
| 2026-04-23 10:18 | 60.43728 | -114.25536 | 41356 ft | 515 kts | 122° |
| 2026-04-23 10:19 | 60.39955 | -114.13316 | 41342 ft | 515 kts | 123° |
| 2026-04-23 10:19 | 60.36151 | -114.01057 | 41340 ft | 514 kts | 123° |
| 2026-04-23 10:20 | 60.32977 | -113.90879 | 41327 ft | 514 kts | 123° |
| 2026-04-23 10:20 | 60.29150 | -113.78664 | 41329 ft | 514 kts | 123° |
| 2026-04-23 10:21 | 60.25339 | -113.66564 | 41325 ft | 514 kts | 123° |
| 2026-04-23 10:21 | 60.21495 | -113.54425 | 41320 ft | 514 kts | 123° |
| 2026-04-23 10:22 | 60.17642 | -113.42319 | 41310 ft | 514 kts | 123° |
| 2026-04-23 10:22 | 60.13776 | -113.30237 | 41309 ft | 513 kts | 123° |
| 2026-04-23 10:23 | 60.09905 | -113.18200 | 41300 ft | 513 kts | 124° |
| 2026-04-23 10:23 | 60.06026 | -113.06203 | 41298 ft | 512 kts | 124° |
| 2026-04-23 10:24 | 60.02158 | -112.94299 | 41290 ft | 512 kts | 124° |
| 2026-04-23 10:24 | 59.98255 | -112.82349 | 41289 ft | 512 kts | 124° |
| 2026-04-23 10:25 | 59.94349 | -112.70451 | 41269 ft | 512 kts | 124° |
| 2026-04-23 10:25 | 59.90456 | -112.58652 | 41276 ft | 512 kts | 125° |
| 2026-04-23 10:26 | 59.86528 | -112.46808 | 41265 ft | 512 kts | 125° |
| 2026-04-23 10:26 | 59.82592 | -112.34999 | 41258 ft | 512 kts | 125° |
| 2026-04-23 10:27 | 59.78637 | -112.23192 | 41249 ft | 512 kts | 125° |
| 2026-04-23 10:27 | 59.74697 | -112.11490 | 41263 ft | 512 kts | 125° |
| 2026-04-23 10:28 | 59.70725 | -111.99752 | 41249 ft | 511 kts | 126° |
| 2026-04-23 10:28 | 59.66747 | -111.88055 | 41246 ft | 511 kts | 126° |
| 2026-04-23 10:29 | 59.62786 | -111.76464 | 41232 ft | 511 kts | 126° |
| 2026-04-23 10:29 | 59.58781 | -111.64803 | 41232 ft | 511 kts | 126° |
| 2026-04-23 10:30 | 59.54796 | -111.53257 | 41206 ft | 511 kts | 126° |
| 2026-04-23 10:30 | 59.50771 | -111.41655 | 41220 ft | 511 kts | 126° |
| 2026-04-23 10:31 | 59.46747 | -111.30110 | 41206 ft | 510 kts | 126° |
| 2026-04-23 10:31 | 59.42740 | -111.18672 | 41205 ft | 510 kts | 126° |
| 2026-04-23 10:32 | 59.38705 | -111.07208 | 41195 ft | 510 kts | 127° |
| 2026-04-23 10:32 | 59.34654 | -110.95754 | 41178 ft | 509 kts | 127° |
| 2026-04-23 10:33 | 59.30600 | -110.84349 | 41186 ft | 509 kts | 127° |
| 2026-04-23 10:33 | 59.26568 | -110.73060 | 41187 ft | 509 kts | 127° |
| 2026-04-23 10:34 | 59.22502 | -110.61732 | 41173 ft | 508 kts | 127° |
| 2026-04-23 10:34 | 59.18453 | -110.50501 | 41174 ft | 508 kts | 127° |
| 2026-04-23 10:35 | 59.14362 | -110.39212 | 41139 ft | 508 kts | 127° |
| 2026-04-23 10:35 | 59.10261 | -110.27946 | 41158 ft | 508 kts | 128° |
| 2026-04-23 10:36 | 59.06176 | -110.16778 | 41158 ft | 508 kts | 128° |
| 2026-04-23 10:36 | 59.02069 | -110.05605 | 41149 ft | 508 kts | 128° |
| 2026-04-23 10:37 | 58.98329 | -109.94036 | 41152 ft | 510 kts | 122° |
| 2026-04-23 10:37 | 58.94883 | -109.82006 | 41143 ft | 510 kts | 121° |
| 2026-04-23 10:38 | 58.91473 | -109.69921 | 41140 ft | 509 kts | 121° |
| 2026-04-23 10:38 | 58.88082 | -109.57980 | 41135 ft | 509 kts | 121° |
| 2026-04-23 10:39 | 58.84650 | -109.46008 | 41136 ft | 509 kts | 121° |
| 2026-04-23 10:39 | 58.81203 | -109.34061 | 41128 ft | 509 kts | 121° |
| 2026-04-23 10:40 | 58.77770 | -109.22226 | 41127 ft | 508 kts | 122° |
| 2026-04-23 10:40 | 58.74306 | -109.10343 | 41116 ft | 508 kts | 122° |
| 2026-04-23 10:41 | 58.70830 | -108.98478 | 41118 ft | 507 kts | 122° |
| 2026-04-23 10:41 | 58.67369 | -108.86725 | 41115 ft | 507 kts | 122° |
| 2026-04-23 10:42 | 58.63880 | -108.74939 | 41102 ft | 507 kts | 122° |
| 2026-04-23 10:42 | 58.60400 | -108.63243 | 41104 ft | 507 kts | 122° |
| 2026-04-23 10:43 | 58.56888 | -108.51496 | 41110 ft | 507 kts | 122° |
| 2026-04-23 10:43 | 58.53380 | -108.39825 | 41101 ft | 507 kts | 123° |
| 2026-04-23 10:44 | 58.49849 | -108.28133 | 41096 ft | 507 kts | 123° |
| 2026-04-23 10:44 | 58.46306 | -108.16462 | 41093 ft | 507 kts | 123° |
| 2026-04-23 10:45 | 58.42752 | -108.04812 | 41084 ft | 507 kts | 123° |
| 2026-04-23 10:45 | 58.39186 | -107.93179 | 41084 ft | 507 kts | 123° |
| 2026-04-23 10:46 | 58.35630 | -107.81640 | 41056 ft | 507 kts | 123° |
| 2026-04-23 10:46 | 58.32044 | -107.70058 | 41075 ft | 507 kts | 123° |
| 2026-04-23 10:47 | 58.28473 | -107.58581 | 41075 ft | 507 kts | 124° |
| 2026-04-23 10:47 | 58.24859 | -107.47026 | 41067 ft | 507 kts | 124° |
| 2026-04-23 10:48 | 58.21243 | -107.35517 | 41067 ft | 507 kts | 124° |
| 2026-04-23 10:48 | 58.17635 | -107.24090 | 41058 ft | 507 kts | 124° |
| 2026-04-23 10:49 | 58.13992 | -107.12609 | 41054 ft | 507 kts | 124° |
| 2026-04-23 10:49 | 58.10369 | -107.01247 | 41050 ft | 507 kts | 124° |
| 2026-04-23 10:50 | 58.06710 | -106.89825 | 41053 ft | 507 kts | 124° |
| 2026-04-23 10:50 | 58.03065 | -106.78504 | 41045 ft | 507 kts | 124° |
| 2026-04-23 10:51 | 57.99388 | -106.67137 | 41045 ft | 507 kts | 125° |
| 2026-04-23 10:51 | 57.95697 | -106.55785 | 41050 ft | 507 kts | 125° |
| 2026-04-23 10:52 | 57.92019 | -106.44524 | 41039 ft | 507 kts | 125° |
| 2026-04-23 10:52 | 57.88307 | -106.33212 | 41039 ft | 507 kts | 125° |
| 2026-04-23 10:53 | 57.84584 | -106.21921 | 41042 ft | 507 kts | 126° |
| 2026-04-23 10:53 | 57.80876 | -106.10730 | 41043 ft | 507 kts | 126° |
| 2026-04-23 10:54 | 57.77136 | -105.99494 | 41025 ft | 507 kts | 126° |
| 2026-04-23 10:54 | 57.73405 | -105.88340 | 41024 ft | 508 kts | 126° |
| 2026-04-23 10:55 | 57.69627 | -105.77097 | 41019 ft | 509 kts | 126° |
| 2026-04-23 10:55 | 57.65867 | -105.65960 | 41020 ft | 509 kts | 126° |
| 2026-04-23 10:56 | 57.62070 | -105.54766 | 41015 ft | 509 kts | 126° |
| 2026-04-23 10:56 | 57.58291 | -105.43677 | 41006 ft | 509 kts | 126° |
| 2026-04-23 10:57 | 57.54479 | -105.32541 | 40966 ft | 509 kts | 126° |
| 2026-04-23 10:57 | 57.50661 | -105.21441 | 41005 ft | 509 kts | 126° |
| 2026-04-23 10:58 | 57.46836 | -105.10372 | 41002 ft | 509 kts | 127° |
| 2026-04-23 10:58 | 57.43023 | -104.99390 | 41008 ft | 509 kts | 127° |
| 2026-04-23 10:59 | 57.39170 | -104.88344 | 41005 ft | 509 kts | 127° |
| 2026-04-23 10:59 | 57.35308 | -104.77322 | 40998 ft | 509 kts | 127° |
| 2026-04-23 11:00 | 57.31437 | -104.66324 | 41001 ft | 509 kts | 127° |
| 2026-04-23 11:00 | 57.27586 | -104.55432 | 40996 ft | 508 kts | 127° |
| 2026-04-23 11:01 | 57.23706 | -104.44510 | 40994 ft | 508 kts | 127° |
| 2026-04-23 11:01 | 57.19822 | -104.33624 | 40986 ft | 508 kts | 127° |
| 2026-04-23 11:02 | 57.15941 | -104.22799 | 40988 ft | 508 kts | 127° |
| 2026-04-23 11:02 | 57.12027 | -104.11929 | 40964 ft | 508 kts | 127° |
| 2026-04-23 11:03 | 57.08130 | -104.01154 | 40980 ft | 508 kts | 128° |
| 2026-04-23 11:03 | 57.04200 | -103.90336 | 40968 ft | 508 kts | 128° |
| 2026-04-23 11:04 | 57.00262 | -103.79545 | 40969 ft | 508 kts | 128° |
| 2026-04-23 11:04 | 56.96313 | -103.68772 | 40979 ft | 508 kts | 128° |
| 2026-04-23 11:05 | 56.92379 | -103.58088 | 40965 ft | 508 kts | 128° |
| 2026-04-23 11:05 | 56.88399 | -103.47328 | 40971 ft | 509 kts | 128° |
| 2026-04-23 11:06 | 56.82447 | -103.31324 | 40961 ft | 509 kts | 128° |
| 2026-04-23 11:07 | 56.78450 | -103.20634 | 40947 ft | 509 kts | 128° |
| 2026-04-23 11:07 | 56.75115 | -103.11755 | 40954 ft | 509 kts | 128° |
| 2026-04-23 11:08 | 56.70453 | -102.99391 | 40954 ft | 509 kts | 128° |
| 2026-04-23 11:08 | 56.67111 | -102.90568 | 40941 ft | 508 kts | 128° |
| 2026-04-23 11:09 | 56.62429 | -102.78262 | 40943 ft | 508 kts | 128° |
| 2026-04-23 11:09 | 56.59051 | -102.69421 | 40942 ft | 509 kts | 128° |
| 2026-04-23 11:10 | 56.55021 | -102.58916 | 40955 ft | 509 kts | 129° |
| 2026-04-23 11:10 | 56.50967 | -102.48394 | 40942 ft | 509 kts | 129° |
| 2026-04-23 11:11 | 56.46905 | -102.37896 | 40926 ft | 508 kts | 129° |
| 2026-04-23 11:11 | 56.42856 | -102.27473 | 40931 ft | 506 kts | 129° |
| 2026-04-23 11:12 | 56.38820 | -102.17132 | 40928 ft | 505 kts | 129° |
| 2026-04-23 11:12 | 56.34752 | -102.06759 | 40915 ft | 507 kts | 129° |
| 2026-04-23 11:13 | 56.30654 | -101.96351 | 40924 ft | 509 kts | 129° |
| 2026-04-23 11:13 | 56.26544 | -101.85953 | 40896 ft | 509 kts | 129° |
| 2026-04-23 11:14 | 56.22462 | -101.75667 | 40908 ft | 507 kts | 130° |
| 2026-04-23 11:14 | 56.18358 | -101.65371 | 40906 ft | 506 kts | 130° |
| 2026-04-23 11:15 | 56.14245 | -101.55099 | 40906 ft | 506 kts | 130° |
| 2026-04-23 11:15 | 56.10150 | -101.44914 | 40905 ft | 506 kts | 130° |
| 2026-04-23 11:16 | 56.06021 | -101.34689 | 40894 ft | 507 kts | 129° |
| 2026-04-23 11:16 | 56.01863 | -101.24436 | 40898 ft | 507 kts | 130° |
| 2026-04-23 11:17 | 55.97732 | -101.14285 | 40885 ft | 507 kts | 130° |
| 2026-04-23 11:17 | 55.93565 | -101.04092 | 40888 ft | 507 kts | 130° |
| 2026-04-23 11:18 | 55.89392 | -100.93928 | 40866 ft | 507 kts | 130° |
| 2026-04-23 11:18 | 55.85243 | -100.83863 | 40882 ft | 507 kts | 130° |
| 2026-04-23 11:19 | 55.81053 | -100.73739 | 40876 ft | 506 kts | 130° |
| 2026-04-23 11:19 | 55.76869 | -100.63673 | 40866 ft | 505 kts | 130° |
| 2026-04-23 11:20 | 55.72702 | -100.53687 | 40882 ft | 505 kts | 131° |
| 2026-04-23 11:20 | 55.68505 | -100.43674 | 40880 ft | 505 kts | 131° |
| 2026-04-23 11:21 | 55.64329 | -100.33751 | 40853 ft | 504 kts | 131° |
| 2026-04-23 11:21 | 55.60121 | -100.23791 | 40866 ft | 504 kts | 131° |
| 2026-04-23 11:22 | 55.55923 | -100.13894 | 40844 ft | 504 kts | 131° |
| 2026-04-23 11:22 | 55.51696 | -100.03968 | 40856 ft | 504 kts | 130° |
| 2026-04-23 11:23 | 55.47488 | -99.94026 | 40847 ft | 505 kts | 129° |
| 2026-04-23 11:23 | 55.43403 | -99.83962 | 40845 ft | 505 kts | 129° |
| 2026-04-23 11:24 | 55.39349 | -99.73952 | 40820 ft | 505 kts | 129° |
| 2026-04-23 11:24 | 55.35235 | -99.63901 | 40840 ft | 504 kts | 130° |
| 2026-04-23 11:25 | 55.31112 | -99.53913 | 40840 ft | 504 kts | 130° |
| 2026-04-23 11:25 | 55.27010 | -99.44024 | 40829 ft | 504 kts | 130° |
| 2026-04-23 11:26 | 55.22868 | -99.34080 | 40831 ft | 504 kts | 130° |
| 2026-04-23 11:26 | 55.18739 | -99.24201 | 40823 ft | 505 kts | 130° |
| 2026-04-23 11:27 | 55.14577 | -99.14280 | 40823 ft | 503 kts | 130° |
| 2026-04-23 11:27 | 55.10426 | -99.04424 | 40807 ft | 502 kts | 130° |
| 2026-04-23 11:28 | 55.06301 | -98.94672 | 40819 ft | 502 kts | 131° |
| 2026-04-23 11:28 | 55.02138 | -98.84871 | 40808 ft | 502 kts | 131° |
| 2026-04-23 11:29 | 54.97973 | -98.75103 | 40803 ft | 502 kts | 131° |
| 2026-04-23 11:29 | 54.93804 | -98.65361 | 40797 ft | 500 kts | 131° |
| 2026-04-23 11:30 | 54.89678 | -98.55758 | 40803 ft | 498 kts | 131° |
| 2026-04-23 11:30 | 54.85524 | -98.46130 | 40801 ft | 497 kts | 131° |
| 2026-04-23 11:31 | 54.81368 | -98.36538 | 40802 ft | 497 kts | 131° |
| 2026-04-23 11:31 | 54.77222 | -98.27002 | 40782 ft | 497 kts | 131° |
| 2026-04-23 11:32 | 54.73041 | -98.17422 | 40763 ft | 497 kts | 131° |
| 2026-04-23 11:32 | 54.68885 | -98.07934 | 40779 ft | 495 kts | 132° |
| 2026-04-23 11:33 | 54.64714 | -97.98450 | 40770 ft | 495 kts | 132° |
| 2026-04-23 11:33 | 54.60532 | -97.88979 | 40768 ft | 495 kts | 132° |
| 2026-04-23 11:34 | 54.56374 | -97.79598 | 40753 ft | 495 kts | 132° |
| 2026-04-23 11:34 | 54.52180 | -97.70172 | 40767 ft | 495 kts | 132° |
| 2026-04-23 11:35 | 54.47988 | -97.60782 | 40747 ft | 494 kts | 132° |
| 2026-04-23 11:35 | 54.43789 | -97.51413 | 40749 ft | 493 kts | 132° |
| 2026-04-23 11:36 | 54.39616 | -97.42140 | 40753 ft | 494 kts | 133° |
| 2026-04-23 11:36 | 54.35395 | -97.32796 | 40751 ft | 495 kts | 133° |
| 2026-04-23 11:37 | 54.31168 | -97.23471 | 40749 ft | 495 kts | 133° |
| 2026-04-23 11:37 | 54.26955 | -97.14212 | 40747 ft | 495 kts | 133° |
| 2026-04-23 11:38 | 54.22712 | -97.04921 | 40739 ft | 494 kts | 133° |
| 2026-04-23 11:38 | 54.18475 | -96.95679 | 40747 ft | 494 kts | 133° |
| 2026-04-23 11:39 | 54.14253 | -96.86503 | 40728 ft | 494 kts | 133° |
| 2026-04-23 11:39 | 54.09991 | -96.77278 | 40744 ft | 495 kts | 133° |
| 2026-04-23 11:40 | 54.05705 | -96.68033 | 40715 ft | 496 kts | 133° |
| 2026-04-23 11:40 | 54.01443 | -96.58872 | 40741 ft | 496 kts | 133° |
| 2026-04-23 11:41 | 53.97145 | -96.49668 | 40755 ft | 495 kts | 133° |
| 2026-04-23 11:41 | 53.92853 | -96.40510 | 40739 ft | 495 kts | 133° |
| 2026-04-23 11:42 | 53.88577 | -96.31420 | 40739 ft | 495 kts | 133° |
| 2026-04-23 11:42 | 53.84260 | -96.22280 | 40745 ft | 497 kts | 134° |
| 2026-04-23 11:43 | 53.79929 | -96.13144 | 40744 ft | 498 kts | 134° |
| 2026-04-23 11:43 | 53.75578 | -96.03995 | 40750 ft | 498 kts | 134° |
| 2026-04-23 11:44 | 53.71248 | -95.94924 | 40754 ft | 498 kts | 134° |
| 2026-04-23 11:44 | 53.66884 | -95.85816 | 40741 ft | 498 kts | 134° |
| 2026-04-23 11:45 | 53.62515 | -95.76730 | 40752 ft | 498 kts | 134° |
| 2026-04-23 11:45 | 53.58161 | -95.67708 | 40746 ft | 499 kts | 134° |
| 2026-04-23 11:46 | 53.53761 | -95.58630 | 40765 ft | 501 kts | 134° |
| 2026-04-23 11:46 | 53.49329 | -95.49515 | 40763 ft | 502 kts | 134° |
| 2026-04-23 11:47 | 53.44925 | -95.40487 | 40771 ft | 502 kts | 134° |
| 2026-04-23 11:47 | 53.40481 | -95.31410 | 40777 ft | 502 kts | 134° |
| 2026-04-23 11:48 | 53.36061 | -95.22418 | 40773 ft | 502 kts | 134° |
| 2026-04-23 11:48 | 53.31611 | -95.13396 | 40783 ft | 502 kts | 135° |
| 2026-04-23 11:49 | 53.27149 | -95.04385 | 40791 ft | 504 kts | 135° |
| 2026-04-23 11:49 | 53.22651 | -94.95336 | 40782 ft | 506 kts | 135° |
| 2026-04-23 11:50 | 53.18165 | -94.86339 | 40776 ft | 506 kts | 135° |
| 2026-04-23 11:50 | 53.13660 | -94.77334 | 40772 ft | 505 kts | 135° |
| 2026-04-23 11:51 | 53.09174 | -94.68397 | 40787 ft | 503 kts | 135° |
| 2026-04-23 11:51 | 53.04670 | -94.59462 | 40782 ft | 502 kts | 135° |
| 2026-04-23 11:52 | 53.00163 | -94.50556 | 40780 ft | 502 kts | 135° |
| 2026-04-23 11:52 | 52.95681 | -94.41727 | 40795 ft | 502 kts | 135° |
| 2026-04-23 11:53 | 52.91927 | -94.34357 | 40789 ft | 502 kts | 135° |
| 2026-04-23 11:53 | 52.86692 | -94.24111 | 40807 ft | 499 kts | 135° |
| 2026-04-23 11:54 | 52.82954 | -94.16821 | 40804 ft | 498 kts | 135° |
| 2026-04-23 11:54 | 52.78447 | -94.08066 | 40798 ft | 498 kts | 136° |
| 2026-04-23 11:55 | 52.73965 | -93.99388 | 40811 ft | 499 kts | 136° |
| 2026-04-23 11:55 | 52.69439 | -93.90656 | 40793 ft | 501 kts | 135° |
| 2026-04-23 11:56 | 52.64921 | -93.81967 | 40807 ft | 501 kts | 135° |
| 2026-04-23 11:56 | 52.60376 | -93.73255 | 40818 ft | 501 kts | 135° |
| 2026-04-23 11:57 | 52.55812 | -93.64538 | 40815 ft | 501 kts | 135° |
| 2026-04-23 11:57 | 52.51284 | -93.55920 | 40820 ft | 501 kts | 136° |
| 2026-04-23 11:58 | 52.46724 | -93.47272 | 40803 ft | 501 kts | 135° |
| 2026-04-23 11:58 | 52.42144 | -93.38615 | 40815 ft | 502 kts | 135° |
| 2026-04-23 11:59 | 52.37552 | -93.29966 | 40826 ft | 502 kts | 135° |
| 2026-04-23 11:59 | 52.32985 | -93.21392 | 40817 ft | 502 kts | 135° |
| 2026-04-23 12:00 | 52.28383 | -93.12783 | 40831 ft | 502 kts | 135° |
| 2026-04-23 12:00 | 52.23798 | -93.04237 | 40809 ft | 502 kts | 135° |
| 2026-04-23 12:01 | 52.19182 | -92.95659 | 40826 ft | 502 kts | 135° |
| 2026-04-23 12:01 | 52.14591 | -92.87158 | 40826 ft | 502 kts | 135° |
| 2026-04-23 12:02 | 52.09967 | -92.78626 | 40826 ft | 502 kts | 135° |
| 2026-04-23 12:02 | 52.05339 | -92.70115 | 40832 ft | 502 kts | 135° |
| 2026-04-23 12:03 | 52.00733 | -92.61673 | 40819 ft | 502 kts | 135° |
| 2026-04-23 12:03 | 51.96087 | -92.53188 | 40843 ft | 502 kts | 135° |
| 2026-04-23 12:04 | 51.91441 | -92.44730 | 40843 ft | 502 kts | 135° |
| 2026-04-23 12:04 | 51.86811 | -92.36330 | 40838 ft | 503 kts | 135° |
| 2026-04-23 12:05 | 51.82124 | -92.27854 | 40852 ft | 504 kts | 135° |
| 2026-04-23 12:05 | 51.77442 | -92.19416 | 40845 ft | 504 kts | 135° |
| 2026-04-23 12:06 | 51.72784 | -92.11048 | 40868 ft | 503 kts | 135° |
| 2026-04-23 12:06 | 51.65746 | -91.98459 | 40859 ft | 503 kts | 135° |
| 2026-04-23 12:07 | 51.61080 | -91.90148 | 40874 ft | 503 kts | 136° |
| 2026-04-23 12:07 | 51.56361 | -91.81771 | 40870 ft | 505 kts | 136° |
| 2026-04-23 12:08 | 51.51637 | -91.73412 | 40869 ft | 504 kts | 136° |
| 2026-04-23 12:08 | 51.46944 | -91.65133 | 40878 ft | 504 kts | 136° |
| 2026-04-23 12:09 | 51.42209 | -91.56810 | 40873 ft | 504 kts | 136° |
| 2026-04-23 12:09 | 51.37475 | -91.48515 | 40892 ft | 504 kts | 136° |
| 2026-04-23 12:10 | 51.32765 | -91.40292 | 40888 ft | 504 kts | 136° |
| 2026-04-23 12:10 | 51.28005 | -91.32009 | 40900 ft | 506 kts | 136° |
| 2026-04-23 12:11 | 51.23224 | -91.23716 | 40901 ft | 507 kts | 136° |
| 2026-04-23 12:11 | 51.18468 | -91.15491 | 40920 ft | 506 kts | 136° |
| 2026-04-23 12:12 | 51.13684 | -91.07245 | 40920 ft | 506 kts | 136° |
| 2026-04-23 12:12 | 51.08892 | -90.99015 | 40921 ft | 506 kts | 136° |
| 2026-04-23 12:13 | 51.04112 | -90.90831 | 40926 ft | 507 kts | 136° |
| 2026-04-23 12:13 | 50.99291 | -90.82606 | 40929 ft | 509 kts | 136° |
| 2026-04-23 12:14 | 50.94443 | -90.74359 | 40934 ft | 509 kts | 136° |
| 2026-04-23 12:14 | 50.89638 | -90.66211 | 40935 ft | 509 kts | 137° |
| 2026-04-23 12:15 | 50.84795 | -90.58027 | 40929 ft | 509 kts | 136° |
| 2026-04-23 12:15 | 50.79937 | -90.49846 | 40945 ft | 508 kts | 137° |
| 2026-04-23 12:16 | 50.75106 | -90.41736 | 40942 ft | 510 kts | 137° |
| 2026-04-23 12:16 | 50.70214 | -90.33552 | 40960 ft | 512 kts | 137° |
| 2026-04-23 12:17 | 50.65311 | -90.25373 | 40954 ft | 512 kts | 137° |
| 2026-04-23 12:17 | 50.60437 | -90.17268 | 40961 ft | 512 kts | 137° |
| 2026-04-23 12:18 | 50.55525 | -90.09126 | 40956 ft | 511 kts | 137° |
| 2026-04-23 12:18 | 50.50648 | -90.01070 | 40956 ft | 511 kts | 137° |
| 2026-04-23 12:19 | 50.45667 | -89.93058 | 40965 ft | 512 kts | 139° |
| 2026-04-23 12:19 | 50.40564 | -89.85197 | 40947 ft | 513 kts | 139° |
| 2026-04-23 12:20 | 50.35494 | -89.77406 | 40963 ft | 512 kts | 139° |
| 2026-04-23 12:20 | 50.30420 | -89.69578 | 40961 ft | 511 kts | 139° |
| 2026-04-23 12:21 | 50.25335 | -89.61738 | 40974 ft | 511 kts | 139° |
| 2026-04-23 12:21 | 50.20291 | -89.53979 | 40972 ft | 511 kts | 139° |
| 2026-04-23 12:22 | 50.15208 | -89.46189 | 40971 ft | 511 kts | 139° |
| 2026-04-23 12:22 | 50.10131 | -89.38434 | 40982 ft | 510 kts | 139° |
| 2026-04-23 12:23 | 50.05073 | -89.30733 | 40982 ft | 510 kts | 139° |
| 2026-04-23 12:23 | 49.99985 | -89.23009 | 40993 ft | 510 kts | 139° |
| 2026-04-23 12:24 | 49.94938 | -89.15370 | 40982 ft | 510 kts | 139° |
| 2026-04-23 12:24 | 49.89852 | -89.07697 | 41000 ft | 509 kts | 139° |
| 2026-04-23 12:25 | 49.84745 | -89.00017 | 40994 ft | 511 kts | 139° |
| 2026-04-23 12:25 | 49.79634 | -88.92356 | 40992 ft | 511 kts | 139° |
| 2026-04-23 12:26 | 49.74547 | -88.84751 | 40996 ft | 511 kts | 139° |
| 2026-04-23 12:26 | 49.69422 | -88.77113 | 40983 ft | 511 kts | 139° |
| 2026-04-23 12:27 | 49.64303 | -88.69509 | 40993 ft | 511 kts | 139° |
| 2026-04-23 12:27 | 49.59170 | -88.61907 | 40983 ft | 511 kts | 139° |
| 2026-04-23 12:28 | 49.54041 | -88.54335 | 40986 ft | 513 kts | 139° |
| 2026-04-23 12:28 | 49.48868 | -88.46721 | 40983 ft | 513 kts | 139° |
| 2026-04-23 12:29 | 49.43702 | -88.39140 | 40984 ft | 512 kts | 139° |
| 2026-04-23 12:29 | 49.38567 | -88.31628 | 40982 ft | 512 kts | 139° |
| 2026-04-23 12:30 | 49.33394 | -88.24085 | 40977 ft | 512 kts | 140° |
| 2026-04-23 12:30 | 49.28253 | -88.16611 | 40968 ft | 514 kts | 140° |
| 2026-04-23 12:31 | 49.23041 | -88.09057 | 40976 ft | 515 kts | 140° |
| 2026-04-23 12:31 | 49.17826 | -88.01519 | 40984 ft | 514 kts | 140° |
| 2026-04-23 12:32 | 49.12646 | -87.94054 | 40982 ft | 514 kts | 140° |
| 2026-04-23 12:32 | 49.07424 | -87.86554 | 40993 ft | 514 kts | 140° |
| 2026-04-23 12:33 | 49.02208 | -87.79084 | 40994 ft | 514 kts | 140° |
| 2026-04-23 12:33 | 48.97006 | -87.71657 | 41008 ft | 516 kts | 140° |
| 2026-04-23 12:34 | 48.91740 | -87.64163 | 41003 ft | 517 kts | 140° |
| 2026-04-23 12:34 | 48.86474 | -87.56689 | 40999 ft | 517 kts | 140° |
| 2026-04-23 12:35 | 48.81234 | -87.49274 | 41013 ft | 517 kts | 140° |
| 2026-04-23 12:35 | 48.75960 | -87.41834 | 41009 ft | 517 kts | 140° |
| 2026-04-23 12:36 | 48.70679 | -87.34408 | 41018 ft | 518 kts | 140° |
| 2026-04-23 12:36 | 48.65399 | -87.27006 | 41016 ft | 521 kts | 140° |
| 2026-04-23 12:37 | 48.60064 | -87.19547 | 41017 ft | 521 kts | 140° |
| 2026-04-23 12:37 | 48.54764 | -87.12157 | 41021 ft | 519 kts | 140° |
| 2026-04-23 12:38 | 48.49430 | -87.04745 | 41023 ft | 519 kts | 140° |
| 2026-04-23 12:38 | 48.44139 | -86.97415 | 41026 ft | 519 kts | 140° |
| 2026-04-23 12:39 | 48.38796 | -86.90035 | 41016 ft | 522 kts | 140° |
| 2026-04-23 12:39 | 48.33428 | -86.82642 | 41020 ft | 522 kts | 140° |
| 2026-04-23 12:40 | 48.28095 | -86.75318 | 41021 ft | 521 kts | 140° |
| 2026-04-23 12:40 | 48.22746 | -86.67995 | 41026 ft | 521 kts | 140° |
| 2026-04-23 12:41 | 48.17380 | -86.60670 | 41011 ft | 521 kts | 140° |
| 2026-04-23 12:41 | 48.12009 | -86.53360 | 41030 ft | 522 kts | 140° |
| 2026-04-23 12:42 | 48.06652 | -86.46092 | 41033 ft | 523 kts | 140° |
| 2026-04-23 12:42 | 48.02169 | -86.40023 | 41038 ft | 523 kts | 140° |
| 2026-04-23 12:43 | 47.96767 | -86.32733 | 41043 ft | 523 kts | 140° |
| 2026-04-23 12:43 | 47.91357 | -86.25451 | 41054 ft | 522 kts | 140° |
| 2026-04-23 12:44 | 47.85960 | -86.18210 | 41053 ft | 522 kts | 140° |
| 2026-04-23 12:44 | 47.80537 | -86.10956 | 41065 ft | 525 kts | 140° |
| 2026-04-23 12:45 | 47.75123 | -86.03734 | 41063 ft | 526 kts | 140° |
| 2026-04-23 12:45 | 47.69671 | -85.96482 | 41072 ft | 525 kts | 140° |
| 2026-04-23 12:46 | 47.64213 | -85.89242 | 41070 ft | 525 kts | 140° |
| 2026-04-23 12:46 | 47.58758 | -85.82029 | 41069 ft | 525 kts | 141° |
| 2026-04-23 12:47 | 47.53321 | -85.74861 | 41074 ft | 527 kts | 140° |
| 2026-04-23 12:47 | 47.47825 | -85.67638 | 41072 ft | 528 kts | 140° |
| 2026-04-23 12:48 | 47.42345 | -85.60454 | 41064 ft | 528 kts | 140° |
| 2026-04-23 12:48 | 47.36825 | -85.53238 | 41059 ft | 528 kts | 140° |
| 2026-04-23 12:49 | 47.31349 | -85.46102 | 41064 ft | 528 kts | 140° |
| 2026-04-23 12:49 | 47.25837 | -85.38938 | 41054 ft | 527 kts | 140° |
| 2026-04-23 12:50 | 47.20333 | -85.31806 | 41056 ft | 526 kts | 141° |
| 2026-04-23 12:50 | 47.14855 | -85.24729 | 41056 ft | 526 kts | 141° |
| 2026-04-23 12:51 | 47.09338 | -85.17622 | 41056 ft | 526 kts | 141° |
| 2026-04-23 12:51 | 47.03867 | -85.10593 | 41055 ft | 525 kts | 141° |
| 2026-04-23 12:52 | 46.98350 | -85.03526 | 41057 ft | 526 kts | 140° |
| 2026-04-23 12:52 | 46.92848 | -84.96498 | 41050 ft | 527 kts | 141° |
| 2026-04-23 12:53 | 46.87302 | -84.89434 | 41053 ft | 527 kts | 141° |
| 2026-04-23 12:53 | 46.81785 | -84.82426 | 41049 ft | 527 kts | 141° |
| 2026-04-23 12:54 | 46.76245 | -84.75410 | 41056 ft | 526 kts | 141° |
| 2026-04-23 12:54 | 46.70745 | -84.68464 | 41057 ft | 526 kts | 140° |
| 2026-04-23 12:55 | 46.65197 | -84.61477 | 41055 ft | 527 kts | 140° |
| 2026-04-23 12:55 | 46.59637 | -84.54494 | 41056 ft | 527 kts | 140° |
| 2026-04-23 12:56 | 46.54079 | -84.47533 | 41053 ft | 527 kts | 141° |
| 2026-04-23 12:56 | 46.48542 | -84.40618 | 41055 ft | 527 kts | 141° |
| 2026-04-23 12:57 | 46.42978 | -84.33667 | 41061 ft | 528 kts | 139° |
| 2026-04-23 12:57 | 46.38024 | -84.25796 | 41065 ft | 529 kts | 130° |
| 2026-04-23 12:58 | 46.33375 | -84.17523 | 41071 ft | 529 kts | 129° |
| 2026-04-23 12:58 | 46.28796 | -84.09245 | 41072 ft | 529 kts | 129° |
| 2026-04-23 12:59 | 46.24175 | -84.00942 | 41083 ft | 529 kts | 129° |
| 2026-04-23 12:59 | 46.19568 | -83.92725 | 41079 ft | 529 kts | 129° |
| 2026-04-23 13:00 | 46.14917 | -83.84468 | 41086 ft | 529 kts | 129° |
| 2026-04-23 13:00 | 46.10260 | -83.76225 | 41083 ft | 529 kts | 129° |
| 2026-04-23 13:01 | 46.05632 | -83.68056 | 41082 ft | 529 kts | 129° |
| 2026-04-23 13:01 | 46.00971 | -83.59851 | 41083 ft | 528 kts | 128° |
| 2026-04-23 13:02 | 45.96300 | -83.51653 | 41087 ft | 529 kts | 128° |
| 2026-04-23 13:02 | 45.91649 | -83.43514 | 41108 ft | 528 kts | 128° |
| 2026-04-23 13:03 | 45.86975 | -83.35359 | 41107 ft | 528 kts | 129° |
| 2026-04-23 13:03 | 45.82327 | -83.27274 | 41117 ft | 528 kts | 128° |
| 2026-04-23 13:04 | 45.77638 | -83.19138 | 41115 ft | 530 kts | 128° |
| 2026-04-23 13:04 | 45.72926 | -83.10989 | 41116 ft | 529 kts | 128° |
| 2026-04-23 13:05 | 45.68221 | -83.02875 | 41118 ft | 528 kts | 129° |
| 2026-04-23 13:05 | 45.63548 | -82.94840 | 41125 ft | 528 kts | 129° |
| 2026-04-23 13:06 | 45.56453 | -82.82682 | 41113 ft | 530 kts | 129° |
| 2026-04-23 13:07 | 45.51746 | -82.74646 | 41109 ft | 530 kts | 129° |
| 2026-04-23 13:07 | 45.47011 | -82.66586 | 41113 ft | 530 kts | 129° |
| 2026-04-23 13:08 | 45.42264 | -82.58529 | 41119 ft | 530 kts | 129° |
| 2026-04-23 13:08 | 45.37536 | -82.50526 | 41118 ft | 531 kts | 129° |
| 2026-04-23 13:09 | 45.32761 | -82.42466 | 41110 ft | 532 kts | 129° |
| 2026-04-23 13:09 | 45.28004 | -82.34461 | 41124 ft | 531 kts | 129° |
| 2026-04-23 13:10 | 45.23234 | -82.26456 | 41141 ft | 530 kts | 129° |
| 2026-04-23 13:10 | 45.18477 | -82.18496 | 41121 ft | 532 kts | 129° |
| 2026-04-23 13:11 | 45.13681 | -82.10493 | 41124 ft | 533 kts | 129° |
| 2026-04-23 13:11 | 45.08867 | -82.02484 | 41122 ft | 533 kts | 129° |
| 2026-04-23 13:12 | 45.04080 | -81.94542 | 41128 ft | 532 kts | 129° |
| 2026-04-23 13:12 | 44.99256 | -81.86560 | 41126 ft | 532 kts | 129° |
| 2026-04-23 13:13 | 44.94464 | -81.78654 | 41129 ft | 532 kts | 129° |
| 2026-04-23 13:13 | 44.89635 | -81.70710 | 41115 ft | 532 kts | 129° |
| 2026-04-23 13:14 | 44.84800 | -81.62778 | 41114 ft | 531 kts | 129° |
| 2026-04-23 13:14 | 44.79966 | -81.54870 | 41112 ft | 532 kts | 129° |
| 2026-04-23 13:15 | 44.75129 | -81.46979 | 41108 ft | 533 kts | 129° |
| 2026-04-23 13:15 | 44.70302 | -81.39126 | 41110 ft | 534 kts | 129° |
| 2026-04-23 13:16 | 44.65426 | -81.31215 | 41100 ft | 533 kts | 129° |
| 2026-04-23 13:16 | 44.60561 | -81.23346 | 41111 ft | 534 kts | 129° |
| 2026-04-23 13:17 | 44.55699 | -81.15502 | 41104 ft | 535 kts | 129° |
| 2026-04-23 13:17 | 44.50814 | -81.07644 | 41103 ft | 535 kts | 129° |
| 2026-04-23 13:18 | 44.45912 | -80.99780 | 41098 ft | 535 kts | 129° |
| 2026-04-23 13:18 | 44.41031 | -80.91970 | 41093 ft | 535 kts | 129° |
| 2026-04-23 13:19 | 44.36109 | -80.84118 | 41099 ft | 535 kts | 129° |
| 2026-04-23 13:19 | 44.31221 | -80.76341 | 41097 ft | 536 kts | 129° |
| 2026-04-23 13:20 | 44.26284 | -80.68508 | 41100 ft | 536 kts | 129° |
| 2026-04-23 13:20 | 44.21347 | -80.60696 | 41091 ft | 536 kts | 129° |
| 2026-04-23 13:21 | 44.16446 | -80.52962 | 41127 ft | 535 kts | 129° |
| 2026-04-23 13:21 | 44.11500 | -80.45180 | 41104 ft | 536 kts | 129° |
| 2026-04-23 13:22 | 44.06545 | -80.37402 | 41107 ft | 536 kts | 129° |
| 2026-04-23 13:22 | 44.01611 | -80.29680 | 41110 ft | 536 kts | 129° |
| 2026-04-23 13:23 | 43.96639 | -80.21920 | 41111 ft | 536 kts | 130° |
| 2026-04-23 13:23 | 43.91697 | -80.14228 | 41125 ft | 537 kts | 129° |
| 2026-04-23 13:24 | 43.86695 | -80.06463 | 41108 ft | 538 kts | 129° |
| 2026-04-23 13:24 | 43.81730 | -79.98776 | 41116 ft | 538 kts | 129° |
| 2026-04-23 13:25 | 43.76730 | -79.91056 | 41113 ft | 538 kts | 130° |
| 2026-04-23 13:25 | 43.71712 | -79.83330 | 41116 ft | 538 kts | 130° |
| 2026-04-23 13:26 | 43.66721 | -79.75667 | 41124 ft | 539 kts | 129° |
| 2026-04-23 13:26 | 43.61680 | -79.67947 | 41117 ft | 540 kts | 130° |
| 2026-04-23 13:27 | 43.56630 | -79.60233 | 41120 ft | 540 kts | 130° |
| 2026-04-23 13:27 | 43.51579 | -79.52540 | 41114 ft | 540 kts | 130° |
| 2026-04-23 13:28 | 43.46561 | -79.44917 | 41114 ft | 540 kts | 130° |
| 2026-04-23 13:28 | 43.41500 | -79.37249 | 41115 ft | 541 kts | 130° |
| 2026-04-23 13:29 | 43.36429 | -79.29586 | 41105 ft | 542 kts | 130° |
| 2026-04-23 13:29 | 43.31378 | -79.21975 | 41086 ft | 541 kts | 130° |
| 2026-04-23 13:30 | 43.26293 | -79.14333 | 41101 ft | 541 kts | 130° |
| 2026-04-23 13:30 | 43.22062 | -79.07990 | 41100 ft | 541 kts | 130° |
| 2026-04-23 13:31 | 43.16962 | -79.00362 | 41105 ft | 542 kts | 130° |
| 2026-04-23 13:31 | 43.11858 | -78.92748 | 41101 ft | 542 kts | 130° |
| 2026-04-23 13:32 | 43.06765 | -78.85171 | 41094 ft | 542 kts | 130° |
| 2026-04-23 13:32 | 43.01647 | -78.77577 | 41098 ft | 542 kts | 130° |
| 2026-04-23 13:33 | 42.96536 | -78.70006 | 41099 ft | 542 kts | 130° |
| 2026-04-23 13:33 | 42.92363 | -78.61565 | 41105 ft | 531 kts | 109° |
| 2026-04-23 13:34 | 42.89867 | -78.52187 | 41089 ft | 527 kts | 103° |
| 2026-04-23 13:34 | 42.87552 | -78.42680 | 41098 ft | 527 kts | 103° |
| 2026-04-23 13:35 | 42.85241 | -78.33235 | 41098 ft | 527 kts | 103° |
| 2026-04-23 13:35 | 42.82904 | -78.23731 | 41106 ft | 528 kts | 103° |
| 2026-04-23 13:36 | 42.80573 | -78.14290 | 41103 ft | 528 kts | 103° |
| 2026-04-23 13:36 | 42.78221 | -78.04804 | 41110 ft | 527 kts | 103° |
| 2026-04-23 13:37 | 42.75867 | -77.95348 | 41144 ft | 527 kts | 103° |
| 2026-04-23 13:37 | 42.73518 | -77.85950 | 41127 ft | 528 kts | 103° |
| 2026-04-23 13:38 | 42.71141 | -77.76479 | 41130 ft | 528 kts | 103° |
| 2026-04-23 13:38 | 42.68756 | -77.67017 | 41129 ft | 528 kts | 103° |
| 2026-04-23 13:39 | 42.66383 | -77.57641 | 41135 ft | 528 kts | 103° |
| 2026-04-23 13:39 | 42.63981 | -77.48182 | 41118 ft | 529 kts | 103° |
| 2026-04-23 13:40 | 42.61569 | -77.38729 | 41114 ft | 529 kts | 103° |
| 2026-04-23 13:40 | 42.59168 | -77.29350 | 41112 ft | 529 kts | 104° |
| 2026-04-23 13:41 | 42.56739 | -77.19903 | 41122 ft | 529 kts | 103° |
| 2026-04-23 13:41 | 42.54314 | -77.10509 | 41110 ft | 530 kts | 103° |
| 2026-04-23 13:42 | 42.51862 | -77.01044 | 41107 ft | 530 kts | 104° |
| 2026-04-23 13:42 | 42.49420 | -76.91661 | 41107 ft | 530 kts | 104° |
| 2026-04-23 13:43 | 42.46954 | -76.82219 | 41111 ft | 531 kts | 104° |
| 2026-04-23 13:43 | 42.44474 | -76.72760 | 41100 ft | 532 kts | 104° |
| 2026-04-23 13:44 | 42.42002 | -76.63369 | 41098 ft | 532 kts | 104° |
| 2026-04-23 13:44 | 42.39510 | -76.53938 | 41101 ft | 532 kts | 104° |
| 2026-04-23 13:45 | 42.37007 | -76.44505 | 41104 ft | 532 kts | 104° |
| 2026-04-23 13:45 | 42.34511 | -76.35135 | 40831 ft | 532 kts | 104° |
| 2026-04-23 13:45 | 42.33250 | -76.30412 | 40571 ft | 534 kts | 104° |
| 2026-04-23 13:46 | 42.31984 | -76.25678 | 40318 ft | 535 kts | 104° |
| 2026-04-23 13:46 | 42.30712 | -76.20934 | 40062 ft | 536 kts | 104° |
| 2026-04-23 13:46 | 42.29440 | -76.16199 | 39817 ft | 536 kts | 103° |
| 2026-04-23 13:46 | 42.28163 | -76.11456 | 39595 ft | 537 kts | 104° |
| 2026-04-23 13:47 | 42.26898 | -76.06764 | 39368 ft | 538 kts | 103° |
| 2026-04-23 13:47 | 42.25617 | -76.02022 | 39132 ft | 539 kts | 103° |
| 2026-04-23 13:47 | 42.24327 | -75.97258 | 38895 ft | 540 kts | 103° |
| 2026-04-23 13:47 | 42.23035 | -75.92494 | 38656 ft | 540 kts | 103° |
| 2026-04-23 13:48 | 42.21737 | -75.87719 | 38379 ft | 541 kts | 103° |
| 2026-04-23 13:48 | 42.20434 | -75.82936 | 38089 ft | 541 kts | 103° |
| 2026-04-23 13:48 | 42.19132 | -75.78161 | 37834 ft | 542 kts | 103° |
| 2026-04-23 13:48 | 42.17844 | -75.73449 | 37566 ft | 542 kts | 103° |
| 2026-04-23 13:49 | 42.16533 | -75.68663 | 37287 ft | 543 kts | 103° |
| 2026-04-23 13:49 | 42.15220 | -75.63878 | 37022 ft | 543 kts | 103° |
| 2026-04-23 13:49 | 42.13906 | -75.59100 | 36754 ft | 543 kts | 103° |
| 2026-04-23 13:49 | 42.12589 | -75.54318 | 36491 ft | 544 kts | 103° |
| 2026-04-23 13:50 | 42.11269 | -75.49537 | 36240 ft | 544 kts | 103° |
| 2026-04-23 13:50 | 42.09946 | -75.44754 | 35978 ft | 544 kts | 103° |
| 2026-04-23 13:50 | 42.08639 | -75.40036 | 35757 ft | 545 kts | 103° |
| 2026-04-23 13:50 | 42.07312 | -75.35252 | 35477 ft | 545 kts | 103° |
| 2026-04-23 13:51 | 42.05857 | -75.30497 | 35226 ft | 550 kts | 109° |
| 2026-04-23 13:51 | 42.04159 | -75.25844 | 34983 ft | 552 kts | 110° |
| 2026-04-23 13:51 | 42.02438 | -75.21287 | 34749 ft | 553 kts | 110° |
| 2026-04-23 13:51 | 42.00690 | -75.16672 | 34503 ft | 553 kts | 110° |
| 2026-04-23 13:52 | 41.98944 | -75.12058 | 34253 ft | 554 kts | 110° |
| 2026-04-23 13:52 | 41.97190 | -75.07426 | 34008 ft | 554 kts | 110° |
| 2026-04-23 13:52 | 41.95436 | -75.02799 | 33773 ft | 555 kts | 110° |
| 2026-04-23 13:52 | 41.93682 | -74.98173 | 33489 ft | 556 kts | 110° |
| 2026-04-23 13:53 | 41.91937 | -74.93582 | 33207 ft | 557 kts | 110° |
| 2026-04-23 13:53 | 41.90171 | -74.88939 | 32945 ft | 558 kts | 110° |
| 2026-04-23 13:53 | 41.88401 | -74.84296 | 32671 ft | 559 kts | 110° |
| 2026-04-23 13:53 | 41.86622 | -74.79634 | 32414 ft | 559 kts | 110° |
| 2026-04-23 13:54 | 41.84865 | -74.75038 | 32152 ft | 560 kts | 111° |
| 2026-04-23 13:54 | 41.83063 | -74.70331 | 31892 ft | 561 kts | 111° |
| 2026-04-23 13:54 | 41.81298 | -74.65728 | 31633 ft | 561 kts | 111° |
| 2026-04-23 13:54 | 41.79503 | -74.61055 | 31370 ft | 562 kts | 111° |
| 2026-04-23 13:55 | 41.77710 | -74.56393 | 31121 ft | 562 kts | 111° |
| 2026-04-23 13:55 | 41.75911 | -74.51727 | 30871 ft | 561 kts | 111° |
| 2026-04-23 13:55 | 41.74144 | -74.47154 | 30488 ft | 556 kts | 111° |
| 2026-04-23 13:55 | 41.72374 | -74.42582 | 29767 ft | 551 kts | 111° |
| 2026-04-23 13:56 | 41.70615 | -74.38041 | 29033 ft | 546 kts | 111° |
| 2026-04-23 13:56 | 41.68779 | -74.33608 | 28357 ft | 546 kts | 119° |
| 2026-04-23 13:56 | 41.66309 | -74.29732 | 27665 ft | 548 kts | 135° |
| 2026-04-23 13:56 | 41.63227 | -74.26760 | 27014 ft | 544 kts | 152° |
| 2026-04-23 13:57 | 41.59791 | -74.24904 | 26452 ft | 534 kts | 168° |
| 2026-04-23 13:57 | 41.56179 | -74.24227 | 25969 ft | 515 kts | 185° |
| 2026-04-23 13:57 | 41.52696 | -74.24760 | 25561 ft | 491 kts | 201° |
| 2026-04-23 13:57 | 41.49629 | -74.26390 | 25210 ft | 461 kts | 219° |
| 2026-04-23 13:58 | 41.47163 | -74.28926 | 25020 ft | 441 kts | 233° |
| 2026-04-23 13:58 | 41.45043 | -74.31883 | 24981 ft | 448 kts | 240° |
| 2026-04-23 13:58 | 41.43162 | -74.35183 | 24737 ft | 449 kts | 240° |
| 2026-04-23 13:58 | 41.40929 | -74.38192 | 24407 ft | 461 kts | 227° |
| 2026-04-23 13:59 | 41.38152 | -74.40446 | 23744 ft | 474 kts | 211° |
| 2026-04-23 13:59 | 41.35065 | -74.41913 | 22966 ft | 477 kts | 204° |
| 2026-04-23 13:59 | 41.31901 | -74.43210 | 22222 ft | 472 kts | 204° |
| 2026-04-23 13:59 | 41.28779 | -74.44491 | 21547 ft | 465 kts | 204° |
| 2026-04-23 14:00 | 41.26704 | -74.45354 | 21130 ft | 461 kts | 204° |
| 2026-04-23 14:00 | 41.22689 | -74.47042 | 20295 ft | 452 kts | 204° |
| 2026-04-23 14:00 | 41.19702 | -74.48308 | 19662 ft | 446 kts | 205° |
| 2026-04-23 14:00 | 41.16759 | -74.49560 | 19025 ft | 441 kts | 205° |
| 2026-04-23 14:01 | 41.13846 | -74.50801 | 18367 ft | 436 kts | 204° |
| 2026-04-23 14:01 | 41.11003 | -74.52012 | 17693 ft | 431 kts | 204° |
| 2026-04-23 14:01 | 41.08170 | -74.53205 | 17039 ft | 425 kts | 203° |
| 2026-04-23 14:01 | 41.05257 | -74.53965 | 16378 ft | 428 kts | 192° |
| 2026-04-23 14:02 | 41.02296 | -74.54291 | 15734 ft | 425 kts | 189° |
| 2026-04-23 14:02 | 40.99361 | -74.54545 | 15094 ft | 420 kts | 189° |
| 2026-04-23 14:02 | 40.96464 | -74.54796 | 14457 ft | 415 kts | 189° |
| 2026-04-23 14:02 | 40.93604 | -74.55050 | 13821 ft | 410 kts | 189° |
| 2026-04-23 14:03 | 40.90777 | -74.55306 | 13162 ft | 403 kts | 189° |
| 2026-04-23 14:03 | 40.87995 | -74.55559 | 12548 ft | 397 kts | 189° |
| 2026-04-23 14:03 | 40.85256 | -74.55809 | 11942 ft | 391 kts | 189° |
| 2026-04-23 14:03 | 40.82583 | -74.55960 | 11322 ft | 388 kts | 184° |
| 2026-04-23 14:04 | 40.79899 | -74.55867 | 10784 ft | 382 kts | 182° |
| 2026-04-23 14:04 | 40.77295 | -74.55721 | 10609 ft | 365 kts | 182° |
| 2026-04-23 14:04 | 40.74813 | -74.55577 | 10510 ft | 347 kts | 182° |
| 2026-04-23 14:04 | 40.72494 | -74.55252 | 10359 ft | 335 kts | 172° |
| 2026-04-23 14:05 | 40.70324 | -74.54189 | 10043 ft | 334 kts | 152° |
| 2026-04-23 14:05 | 40.68581 | -74.52200 | 9575 ft | 332 kts | 126° |
| 2026-04-23 14:05 | 40.67622 | -74.49489 | 9122 ft | 323 kts | 98° |
| 2026-04-23 14:05 | 40.67650 | -74.46620 | 8658 ft | 308 kts | 69° |
| 2026-04-23 14:06 | 40.68531 | -74.44131 | 8232 ft | 295 kts | 52° |
| 2026-04-23 14:06 | 40.69624 | -74.41859 | 7804 ft | 292 kts | 51° |
| 2026-04-23 14:06 | 40.70726 | -74.39617 | 7366 ft | 290 kts | 51° |
| 2026-04-23 14:06 | 40.71798 | -74.37418 | 7009 ft | 286 kts | 51° |
| 2026-04-23 14:07 | 40.72857 | -74.35224 | 6646 ft | 282 kts | 51° |
| 2026-04-23 14:07 | 40.74934 | -74.30899 | 5592 ft | 276 kts | 52° |
| 2026-04-23 14:07 | 40.75951 | -74.28777 | 4835 ft | 272 kts | 52° |
| 2026-04-23 14:08 | 40.76965 | -74.26665 | 4107 ft | 274 kts | 53° |
| 2026-04-23 14:08 | 40.77957 | -74.24586 | 3860 ft | 257 kts | 54° |
| 2026-04-23 14:08 | 40.78858 | -74.22683 | 3711 ft | 232 kts | 54° |
| 2026-04-23 14:08 | 40.79675 | -74.20956 | 3600 ft | 211 kts | 53° |
| 2026-04-23 14:09 | 40.80410 | -74.19405 | 3510 ft | 188 kts | 53° |
| 2026-04-23 14:09 | 40.81059 | -74.18035 | 3437 ft | 170 kts | 52° |
| 2026-04-23 14:09 | 40.81664 | -74.16763 | 3338 ft | 157 kts | 52° |
| 2026-04-23 14:09 | 40.82233 | -74.15572 | 3263 ft | 151 kts | 52° |
| 2026-04-23 14:10 | 40.82791 | -74.14408 | 3224 ft | 150 kts | 52° |
| 2026-04-23 14:10 | 40.83349 | -74.13243 | 3152 ft | 150 kts | 52° |
| 2026-04-23 14:10 | 40.83905 | -74.12079 | 3079 ft | 150 kts | 52° |
| 2026-04-23 14:10 | 40.84458 | -74.10918 | 2987 ft | 149 kts | 52° |
| 2026-04-23 14:11 | 40.85011 | -74.09753 | 2981 ft | 150 kts | 52° |
| 2026-04-23 14:11 | 40.85396 | -74.08461 | 2946 ft | 157 kts | 78° |
| 2026-04-23 14:11 | 40.85104 | -74.07094 | 2883 ft | 160 kts | 124° |
| 2026-04-23 14:11 | 40.84209 | -74.06298 | 2857 ft | 156 kts | 166° |
| 2026-04-23 14:12 | 40.83173 | -74.06420 | 2773 ft | 149 kts | 211° |
| 2026-04-23 14:12 | 40.82523 | -74.07405 | 2686 ft | 141 kts | 246° |
| 2026-04-23 14:12 | 40.81861 | -74.08349 | 2603 ft | 145 kts | 214° |
| 2026-04-23 14:12 | 40.80945 | -74.08873 | 2501 ft | 142 kts | 200° |
| 2026-04-23 14:13 | 40.79976 | -74.09126 | 2492 ft | 143 kts | 188° |
| 2026-04-23 14:13 | 40.78974 | -74.09116 | 2476 ft | 145 kts | 175° |
| 2026-04-23 14:13 | 40.77991 | -74.08832 | 2473 ft | 145 kts | 162° |
| 2026-04-23 14:13 | 40.77062 | -74.08286 | 2487 ft | 146 kts | 149° |
| 2026-04-23 14:14 | 40.76241 | -74.07509 | 2489 ft | 145 kts | 137° |
| 2026-04-23 14:14 | 40.75485 | -74.06652 | 2476 ft | 145 kts | 138° |
| 2026-04-23 14:14 | 40.74641 | -74.05923 | 2477 ft | 146 kts | 153° |
| 2026-04-23 14:14 | 40.73669 | -74.05524 | 2208 ft | 147 kts | 173° |
| 2026-04-23 14:15 | 40.72653 | -74.05540 | 1890 ft | 146 kts | 192° |
| 2026-04-23 14:15 | 40.71714 | -74.05938 | 1659 ft | 140 kts | 209° |
| 2026-04-23 14:15 | 40.70899 | -74.06661 | 1283 ft | 142 kts | 226° |
| 2026-04-23 14:15 | 40.70295 | -74.07613 | 1099 ft | 132 kts | 241° |
| 2026-04-23 14:16 | 40.69935 | -74.08721 | 858 ft | 128 kts | 260° |
| 2026-04-23 14:16 | 40.69815 | -74.09475 | 819 ft | 130 kts | 259° |
| 2026-04-23 14:16 | 40.69792 | -74.10672 | 792 ft | 137 kts | 275° |
| 2026-04-23 14:16 | 40.69905 | -74.11953 | 660 ft | 140 kts | 276° |
| 2026-04-23 14:17 | 40.69978 | -74.13199 | 511 ft | 130 kts | 272° |
| 2026-04-23 14:17 | 40.70088 | -74.14384 | 404 ft | 135 kts | 276° |
| 2026-04-23 14:17 | 40.70150 | -74.15717 | 114 ft | 149 kts | 278° |
| 2026-04-23 14:17 | 40.70229 | -74.17018 | 27 ft | 127 kts | 274° |
| 2026-04-23 14:18 | 40.70264 | -74.17808 | 28 ft | 53 kts | 281° |
| 2026-04-23 14:18 | 40.70242 | -74.18045 | 27 ft | 15 kts | 214° |
| 2026-04-23 14:18 | 40.70174 | -74.18007 | 26 ft | 10 kts | 122° |
| 2026-04-23 14:18 | 40.70160 | -74.17913 | 29 ft | 10 kts | 94° |
| 2026-04-23 14:19 | 40.70155 | -74.17815 | 29 ft | 12 kts | 94° |
| 2026-04-23 14:19 | 40.70146 | -74.17705 | 28 ft | 9 kts | 99° |
| 2026-04-23 14:19 | 40.70123 | -74.17663 | 29 ft | 3 kts | 159° |
| 2026-04-23 14:19 | 40.70087 | -74.17667 | 30 ft | 10 kts | 185° |
| 2026-04-23 14:20 | 40.70011 | -74.17675 | 31 ft | 7 kts | 195° |
| 2026-04-23 14:20 | 40.69987 | -74.17716 | 30 ft | 6 kts | 266° |
| 2026-04-23 14:20 | 40.69988 | -74.17798 | 28 ft | 12 kts | 274° |
| 2026-04-23 14:20 | 40.69968 | -74.17856 | 26 ft | 5 kts | 215° |
| 2026-04-23 14:21 | 40.69936 | -74.17871 | 31 ft | 1 kts | 200° |
| 2026-04-23 14:21 | 40.69935 | -74.17872 | 26 ft | 0 kts | 200° |